<?xml version='1.0' encoding='UTF-8'?><gpx version="1.1" creator="JPX - https://github.com/jenetics/jpx" xmlns="http://www.topografix.com/GPX/1/1"><trk><trkseg><trkpt lat="46.498148563357425" lon="19.408979003073245"><ele>130.0</ele><time>2026-04-05T10:16:18Z</time></trkpt><trkpt lat="46.49807007404192" lon="19.40902459101757"><ele>130.0</ele><time>2026-04-05T10:16:20Z</time></trkpt><trkpt lat="46.49797830228147" lon="19.409123887810445"><ele>130.0</ele><time>2026-04-05T10:16:22Z</time></trkpt><trkpt lat="46.49793923412798" lon="19.409286908223216"><ele>130.0</ele><time>2026-04-05T10:16:24Z</time></trkpt><trkpt lat="46.49797931238326" lon="19.409435392242134"><ele>130.0</ele><time>2026-04-05T10:16:26Z</time></trkpt><trkpt lat="46.49803058775818" lon="19.409496397937755"><ele>130.0</ele><time>2026-04-05T10:16:27Z</time></trkpt><trkpt lat="46.49808589816748" lon="19.40954040056792"><ele>130.0</ele><time>2026-04-05T10:16:28Z</time></trkpt><trkpt lat="46.49815111431151" lon="19.409616192520218"><ele>130.0</ele><time>2026-04-05T10:16:30Z</time></trkpt><trkpt lat="46.49813205738795" lon="19.40972299756893"><ele>130.0</ele><time>2026-04-05T10:16:31.999Z</time></trkpt><trkpt lat="46.49807761833068" lon="19.409772091895345"><ele>130.0</ele><time>2026-04-05T10:16:32.999Z</time></trkpt><trkpt lat="46.49801501160254" lon="19.409832646601792"><ele>130.0</ele><time>2026-04-05T10:16:33.999Z</time></trkpt><trkpt lat="46.4979290922603" lon="19.40991564750031"><ele>129.5</ele><time>2026-04-05T10:16:34.999Z</time></trkpt><trkpt lat="46.49782229708538" lon="19.410018129178503"><ele>129.0</ele><time>2026-04-05T10:16:35.999Z</time></trkpt><trkpt lat="46.49771857285353" lon="19.410141306602544"><ele>128.5</ele><time>2026-04-05T10:16:36.999Z</time></trkpt><trkpt lat="46.49761489678062" lon="19.41028597588978"><ele>128.0</ele><time>2026-04-05T10:16:37.999Z</time></trkpt><trkpt lat="46.49750953606984" lon="19.410434783499888"><ele>128.0</ele><time>2026-04-05T10:16:38.999Z</time></trkpt><trkpt lat="46.497395700926006" lon="19.410590073715895"><ele>128.0</ele><time>2026-04-05T10:16:39.999Z</time></trkpt><trkpt lat="46.497280955759734" lon="19.410732464273245"><ele>128.0</ele><time>2026-04-05T10:16:40.999Z</time></trkpt><trkpt lat="46.49718832612504" lon="19.410862264825784"><ele>128.0</ele><time>2026-04-05T10:16:41.999Z</time></trkpt><trkpt lat="46.49709282367991" lon="19.410995804741958"><ele>128.20000000000002</ele><time>2026-04-05T10:16:42.999Z</time></trkpt><trkpt lat="46.49700842520675" lon="19.411100036204346"><ele>128.4</ele><time>2026-04-05T10:16:43.999Z</time></trkpt><trkpt lat="46.49692192307089" lon="19.41119563361943"><ele>128.60000000000002</ele><time>2026-04-05T10:16:44.999Z</time></trkpt><trkpt lat="46.49684122338601" lon="19.41130384949277"><ele>128.8</ele><time>2026-04-05T10:16:45.999Z</time></trkpt><trkpt lat="46.496761044605485" lon="19.41139823847696"><ele>129.0</ele><time>2026-04-05T10:16:46.999Z</time></trkpt><trkpt lat="46.49668545322127" lon="19.411482558818523"><ele>129.0</ele><time>2026-04-05T10:16:47.999Z</time></trkpt><trkpt lat="46.49661136193737" lon="19.41157374292498"><ele>129.0</ele><time>2026-04-05T10:16:48.999Z</time></trkpt><trkpt lat="46.496537298791985" lon="19.411668392146257"><ele>129.0</ele><time>2026-04-05T10:16:49.999Z</time></trkpt><trkpt lat="46.49645451066321" lon="19.411749990276153"><ele>129.0</ele><time>2026-04-05T10:16:50.999Z</time></trkpt><trkpt lat="46.49635781117065" lon="19.411849829749993"><ele>129.0</ele><time>2026-04-05T10:16:51.999Z</time></trkpt><trkpt lat="46.49629026264104" lon="19.411938094034422"><ele>128.8</ele><time>2026-04-05T10:16:52.999Z</time></trkpt><trkpt lat="46.49622205098753" lon="19.412013978547463"><ele>128.60000000000002</ele><time>2026-04-05T10:16:53.999Z</time></trkpt><trkpt lat="46.49614453053204" lon="19.41211889642786"><ele>128.4</ele><time>2026-04-05T10:16:54.999Z</time></trkpt><trkpt lat="46.49606217598886" lon="19.412220721555276"><ele>128.20000000000002</ele><time>2026-04-05T10:16:55.999Z</time></trkpt><trkpt lat="46.495984071589795" lon="19.412308391399026"><ele>128.0</ele><time>2026-04-05T10:16:56.999Z</time></trkpt><trkpt lat="46.495929636526846" lon="19.41238951406802"><ele>128.0</ele><time>2026-04-05T10:16:57.999Z</time></trkpt><trkpt lat="46.49585503794524" lon="19.41246321860831"><ele>128.0</ele><time>2026-04-05T10:16:58.999Z</time></trkpt><trkpt lat="46.495782313548986" lon="19.41252545648415"><ele>128.0</ele><time>2026-04-05T10:16:59.999Z</time></trkpt><trkpt lat="46.49569019317921" lon="19.412647480713858"><ele>128.0</ele><time>2026-04-05T10:17:00.999Z</time></trkpt><trkpt lat="46.49559205512553" lon="19.41279375216963"><ele>128.0</ele><time>2026-04-05T10:17:01.999Z</time></trkpt><trkpt lat="46.49548765881347" lon="19.412916049495074"><ele>128.25</ele><time>2026-04-05T10:17:02.999Z</time></trkpt><trkpt lat="46.49538647973378" lon="19.413041679900328"><ele>128.5</ele><time>2026-04-05T10:17:03.999Z</time></trkpt><trkpt lat="46.4952811931345" lon="19.413171379447117"><ele>128.75</ele><time>2026-04-05T10:17:04.999Z</time></trkpt><trkpt lat="46.49518861314687" lon="19.413288860955948"><ele>129.0</ele><time>2026-04-05T10:17:05.999Z</time></trkpt><trkpt lat="46.49510846578607" lon="19.41339359597153"><ele>129.0</ele><time>2026-04-05T10:17:06.999Z</time></trkpt><trkpt lat="46.49502334458167" lon="19.413503335279014"><ele>129.0</ele><time>2026-04-05T10:17:07.999Z</time></trkpt><trkpt lat="46.49494097904759" lon="19.41362525927245"><ele>129.0</ele><time>2026-04-05T10:17:08.999Z</time></trkpt><trkpt lat="46.494851776909826" lon="19.413737977093877"><ele>129.0</ele><time>2026-04-05T10:17:09.999Z</time></trkpt><trkpt lat="46.49476019102129" lon="19.41385157344335"><ele>129.0</ele><time>2026-04-05T10:17:10.999Z</time></trkpt><trkpt lat="46.49466751663917" lon="19.413976867876524"><ele>129.0</ele><time>2026-04-05T10:17:11.999Z</time></trkpt><trkpt lat="46.494567418615354" lon="19.41408762087542"><ele>129.0</ele><time>2026-04-05T10:17:12.999Z</time></trkpt><trkpt lat="46.4944743344001" lon="19.41420728592624"><ele>129.0</ele><time>2026-04-05T10:17:13.999Z</time></trkpt><trkpt lat="46.4943921743814" lon="19.414323082042714"><ele>129.0</ele><time>2026-04-05T10:17:14.999Z</time></trkpt><trkpt lat="46.494308828095086" lon="19.41444327651463"><ele>129.0</ele><time>2026-04-05T10:17:15.999Z</time></trkpt><trkpt lat="46.49423849650912" lon="19.414549067116084"><ele>129.0</ele><time>2026-04-05T10:17:16.999Z</time></trkpt><trkpt lat="46.494166879738486" lon="19.414657951304317"><ele>129.0</ele><time>2026-04-05T10:17:17.999Z</time></trkpt><trkpt lat="46.49407098822347" lon="19.41475321803831"><ele>129.0</ele><time>2026-04-05T10:17:18.999Z</time></trkpt><trkpt lat="46.49398251531669" lon="19.414852990383164"><ele>129.0</ele><time>2026-04-05T10:17:19.999Z</time></trkpt><trkpt lat="46.49391199763182" lon="19.414963848263767"><ele>129.0</ele><time>2026-04-05T10:17:20.999Z</time></trkpt><trkpt lat="46.49384931133579" lon="19.41505795369992"><ele>129.0</ele><time>2026-04-05T10:17:21.999Z</time></trkpt><trkpt lat="46.493769020003825" lon="19.41512923955262"><ele>129.0</ele><time>2026-04-05T10:17:22.999Z</time></trkpt><trkpt lat="46.493683902552064" lon="19.41521532797217"><ele>129.0</ele><time>2026-04-05T10:17:23.999Z</time></trkpt><trkpt lat="46.49363023245931" lon="19.415302934579955"><ele>129.33333333333334</ele><time>2026-04-05T10:17:24.999Z</time></trkpt><trkpt lat="46.49354637872798" lon="19.415421394082724"><ele>129.66666666666666</ele><time>2026-04-05T10:17:26.999Z</time></trkpt><trkpt lat="46.493450911350195" lon="19.415427075141945"><ele>130.0</ele><time>2026-04-05T10:17:28.999Z</time></trkpt><trkpt lat="46.493392371772245" lon="19.415372973490758"><ele>130.33333333333331</ele><time>2026-04-05T10:17:29.999Z</time></trkpt><trkpt lat="46.4933523671087" lon="19.415290287692514"><ele>130.66666666666666</ele><time>2026-04-05T10:17:30.999Z</time></trkpt><trkpt lat="46.49330712328504" lon="19.41518718578439"><ele>131.0</ele><time>2026-04-05T10:17:31.999Z</time></trkpt><trkpt lat="46.49323157851704" lon="19.415079957322494"><ele>131.0</ele><time>2026-04-05T10:17:32.999Z</time></trkpt><trkpt lat="46.49316256520341" lon="19.414955530785985"><ele>131.0</ele><time>2026-04-05T10:17:33.999Z</time></trkpt><trkpt lat="46.493084977657084" lon="19.414816241939125"><ele>131.0</ele><time>2026-04-05T10:17:35Z</time></trkpt><trkpt lat="46.4930031568585" lon="19.414679218029637"><ele>131.0</ele><time>2026-04-05T10:17:36Z</time></trkpt><trkpt lat="46.49292157022115" lon="19.414552937452182"><ele>130.5</ele><time>2026-04-05T10:17:37Z</time></trkpt><trkpt lat="46.492833491590524" lon="19.414427502272893"><ele>130.0</ele><time>2026-04-05T10:17:38Z</time></trkpt><trkpt lat="46.492751249024145" lon="19.414284980473905"><ele>129.5</ele><time>2026-04-05T10:17:39Z</time></trkpt><trkpt lat="46.49266721586772" lon="19.414130619284315"><ele>129.0</ele><time>2026-04-05T10:17:40Z</time></trkpt><trkpt lat="46.49258370235177" lon="19.413975684385086"><ele>129.0</ele><time>2026-04-05T10:17:41Z</time></trkpt><trkpt lat="46.492512343037816" lon="19.413822989094875"><ele>129.0</ele><time>2026-04-05T10:17:42Z</time></trkpt><trkpt lat="46.49242077110417" lon="19.413672748031853"><ele>129.0</ele><time>2026-04-05T10:17:43Z</time></trkpt><trkpt lat="46.49233069206779" lon="19.41351961653575"><ele>129.0</ele><time>2026-04-05T10:17:44Z</time></trkpt><trkpt lat="46.492239675604715" lon="19.413365050398102"><ele>129.0</ele><time>2026-04-05T10:17:45Z</time></trkpt><trkpt lat="46.49214316713213" lon="19.413204878749593"><ele>129.0</ele><time>2026-04-05T10:17:46Z</time></trkpt><trkpt lat="46.49205412060965" lon="19.413051362405163"><ele>129.0</ele><time>2026-04-05T10:17:47Z</time></trkpt><trkpt lat="46.49195456205098" lon="19.412904990733647"><ele>129.0</ele><time>2026-04-05T10:17:48Z</time></trkpt><trkpt lat="46.491859378336905" lon="19.412742354810213"><ele>129.25</ele><time>2026-04-05T10:17:49Z</time></trkpt><trkpt lat="46.49176183350976" lon="19.41257899643447"><ele>129.5</ele><time>2026-04-05T10:17:50Z</time></trkpt><trkpt lat="46.49165713546382" lon="19.412423582230424"><ele>129.75</ele><time>2026-04-05T10:17:51Z</time></trkpt><trkpt lat="46.4915913793218" lon="19.412235159188246"><ele>130.0</ele><time>2026-04-05T10:17:52Z</time></trkpt><trkpt lat="46.49150163928291" lon="19.412082468898788"><ele>130.0</ele><time>2026-04-05T10:17:53Z</time></trkpt><trkpt lat="46.49141173093585" lon="19.411930749007084"><ele>130.0</ele><time>2026-04-05T10:17:54Z</time></trkpt><trkpt lat="46.491322648836025" lon="19.41177997009023"><ele>130.0</ele><time>2026-04-05T10:17:55Z</time></trkpt><trkpt lat="46.4912386882057" lon="19.41163842490007"><ele>130.0</ele><time>2026-04-05T10:17:56Z</time></trkpt><trkpt lat="46.49115966193538" lon="19.41150471199627"><ele>130.0</ele><time>2026-04-05T10:17:57Z</time></trkpt><trkpt lat="46.49107586842287" lon="19.41136283738473"><ele>130.0</ele><time>2026-04-05T10:17:58Z</time></trkpt><trkpt lat="46.49099098922184" lon="19.411221370550454"><ele>130.0</ele><time>2026-04-05T10:17:59Z</time></trkpt><trkpt lat="46.49091506391245" lon="19.411093916286934"><ele>130.0</ele><time>2026-04-05T10:18:00Z</time></trkpt><trkpt lat="46.49084521486836" lon="19.41097582917316"><ele>130.5</ele><time>2026-04-05T10:18:01Z</time></trkpt><trkpt lat="46.490770304048766" lon="19.41085007380803"><ele>131.0</ele><time>2026-04-05T10:18:02Z</time></trkpt><trkpt lat="46.490688236184496" lon="19.4107137306951"><ele>131.5</ele><time>2026-04-05T10:18:03Z</time></trkpt><trkpt lat="46.49060370751063" lon="19.4105728685349"><ele>132.0</ele><time>2026-04-05T10:18:04Z</time></trkpt><trkpt lat="46.490498727313096" lon="19.410444798364196"><ele>131.75</ele><time>2026-04-05T10:18:05Z</time></trkpt><trkpt lat="46.49042039569219" lon="19.41029193623853"><ele>131.5</ele><time>2026-04-05T10:18:06Z</time></trkpt><trkpt lat="46.49033130369969" lon="19.410132638625107"><ele>131.25</ele><time>2026-04-05T10:18:07Z</time></trkpt><trkpt lat="46.490233658802545" lon="19.409987632915723"><ele>131.0</ele><time>2026-04-05T10:18:08Z</time></trkpt><trkpt lat="46.490142853971875" lon="19.40983026270464"><ele>131.0</ele><time>2026-04-05T10:18:09Z</time></trkpt><trkpt lat="46.49005248774216" lon="19.409674058417867"><ele>131.0</ele><time>2026-04-05T10:18:10Z</time></trkpt><trkpt lat="46.48996344784966" lon="19.40953369702332"><ele>131.0</ele><time>2026-04-05T10:18:11Z</time></trkpt><trkpt lat="46.4898714686166" lon="19.40938846150605"><ele>131.0</ele><time>2026-04-05T10:18:12Z</time></trkpt><trkpt lat="46.489780944382765" lon="19.409233353898813"><ele>131.0</ele><time>2026-04-05T10:18:13Z</time></trkpt><trkpt lat="46.48968847677273" lon="19.409079037115266"><ele>131.0</ele><time>2026-04-05T10:18:14Z</time></trkpt><trkpt lat="46.489587852726565" lon="19.408927269153967"><ele>131.0</ele><time>2026-04-05T10:18:15Z</time></trkpt><trkpt lat="46.48949545636013" lon="19.408768710722764"><ele>131.0</ele><time>2026-04-05T10:18:16Z</time></trkpt><trkpt lat="46.489405614913494" lon="19.408600309906205"><ele>131.0</ele><time>2026-04-05T10:18:17Z</time></trkpt><trkpt lat="46.48930687109798" lon="19.408423288225887"><ele>131.0</ele><time>2026-04-05T10:18:18Z</time></trkpt><trkpt lat="46.48920308324418" lon="19.408260158702728"><ele>131.0</ele><time>2026-04-05T10:18:18.999Z</time></trkpt><trkpt lat="46.4890970380101" lon="19.40810517073201"><ele>131.33333333333331</ele><time>2026-04-05T10:18:19.999Z</time></trkpt><trkpt lat="46.488994674777956" lon="19.407938263940743"><ele>131.66666666666666</ele><time>2026-04-05T10:18:20.999Z</time></trkpt><trkpt lat="46.48888506605167" lon="19.40776834394011"><ele>132.0</ele><time>2026-04-05T10:18:21.999Z</time></trkpt><trkpt lat="46.48877395795587" lon="19.40759814688918"><ele>132.0</ele><time>2026-04-05T10:18:22.999Z</time></trkpt><trkpt lat="46.48866756749135" lon="19.40744972638424"><ele>132.0</ele><time>2026-04-05T10:18:23.999Z</time></trkpt><trkpt lat="46.488568351206276" lon="19.407272831983207"><ele>132.0</ele><time>2026-04-05T10:18:24.999Z</time></trkpt><trkpt lat="46.48846957255108" lon="19.407098762636778"><ele>132.0</ele><time>2026-04-05T10:18:25.999Z</time></trkpt><trkpt lat="46.488373237917315" lon="19.40693959755311"><ele>132.0</ele><time>2026-04-05T10:18:26.999Z</time></trkpt><trkpt lat="46.48827972286972" lon="19.406776916956716"><ele>132.0</ele><time>2026-04-05T10:18:27.999Z</time></trkpt><trkpt lat="46.48818942815271" lon="19.40660862822304"><ele>132.0</ele><time>2026-04-05T10:18:28.999Z</time></trkpt><trkpt lat="46.48809536269671" lon="19.406437544900104"><ele>132.25</ele><time>2026-04-05T10:18:29.999Z</time></trkpt><trkpt lat="46.487993475969084" lon="19.406296601357734"><ele>132.5</ele><time>2026-04-05T10:18:30.999Z</time></trkpt><trkpt lat="46.487901378468884" lon="19.406126136462312"><ele>132.75</ele><time>2026-04-05T10:18:31.999Z</time></trkpt><trkpt lat="46.48780141699835" lon="19.405963437848843"><ele>133.0</ele><time>2026-04-05T10:18:32.999Z</time></trkpt><trkpt lat="46.48770366506559" lon="19.405804616147712"><ele>133.25</ele><time>2026-04-05T10:18:33.999Z</time></trkpt><trkpt lat="46.48760819551093" lon="19.40565726645897"><ele>133.5</ele><time>2026-04-05T10:18:34.999Z</time></trkpt><trkpt lat="46.48751149472322" lon="19.405499171128685"><ele>133.75</ele><time>2026-04-05T10:18:35.999Z</time></trkpt><trkpt lat="46.487405907558916" lon="19.405345721204547"><ele>134.0</ele><time>2026-04-05T10:18:36.999Z</time></trkpt><trkpt lat="46.48730358196093" lon="19.40518643122029"><ele>134.0</ele><time>2026-04-05T10:18:37.999Z</time></trkpt><trkpt lat="46.48721195589494" lon="19.40501494561066"><ele>134.0</ele><time>2026-04-05T10:18:38.999Z</time></trkpt><trkpt lat="46.487109440478214" lon="19.40484645058334"><ele>134.0</ele><time>2026-04-05T10:18:39.999Z</time></trkpt><trkpt lat="46.48700681233756" lon="19.404671696578706"><ele>133.75</ele><time>2026-04-05T10:18:40.999Z</time></trkpt><trkpt lat="46.48690693176037" lon="19.404507467173786"><ele>133.5</ele><time>2026-04-05T10:18:41.999Z</time></trkpt><trkpt lat="46.48680681568785" lon="19.404351833903576"><ele>133.25</ele><time>2026-04-05T10:18:42.999Z</time></trkpt><trkpt lat="46.486709062328856" lon="19.404184384413615"><ele>133.0</ele><time>2026-04-05T10:18:43.999Z</time></trkpt><trkpt lat="46.486612852286854" lon="19.404022891107616"><ele>133.0</ele><time>2026-04-05T10:18:44.999Z</time></trkpt><trkpt lat="46.48651537842089" lon="19.403856238814292"><ele>133.0</ele><time>2026-04-05T10:18:45.999Z</time></trkpt><trkpt lat="46.48641564507325" lon="19.403698894316737"><ele>133.0</ele><time>2026-04-05T10:18:46.999Z</time></trkpt><trkpt lat="46.48631357502227" lon="19.40353750492193"><ele>133.0</ele><time>2026-04-05T10:18:47.999Z</time></trkpt><trkpt lat="46.486217993752476" lon="19.40337754273544"><ele>132.5</ele><time>2026-04-05T10:18:48.999Z</time></trkpt><trkpt lat="46.48610738954659" lon="19.403214616646554"><ele>132.0</ele><time>2026-04-05T10:18:49.999Z</time></trkpt><trkpt lat="46.48600215710087" lon="19.403065584035204"><ele>131.5</ele><time>2026-04-05T10:18:50.999Z</time></trkpt><trkpt lat="46.4859148623201" lon="19.402940507086953"><ele>131.0</ele><time>2026-04-05T10:18:51.999Z</time></trkpt><trkpt lat="46.48581401569458" lon="19.40277174122103"><ele>129.66666666666666</ele><time>2026-04-05T10:18:52.999Z</time></trkpt><trkpt lat="46.485716205154645" lon="19.402584777681366"><ele>128.33333333333334</ele><time>2026-04-05T10:18:53.999Z</time></trkpt><trkpt lat="46.485624513746444" lon="19.402398628804796"><ele>127.0</ele><time>2026-04-05T10:18:54.999Z</time></trkpt><trkpt lat="46.48553305870163" lon="19.40223383349029"><ele>127.0</ele><time>2026-04-05T10:18:55.999Z</time></trkpt><trkpt lat="46.48543288681883" lon="19.40208763177772"><ele>127.0</ele><time>2026-04-05T10:18:56.999Z</time></trkpt><trkpt lat="46.48531428362958" lon="19.40190667582554"><ele>127.0</ele><time>2026-04-05T10:18:57.999Z</time></trkpt><trkpt lat="46.48520014576631" lon="19.401738335148373"><ele>127.0</ele><time>2026-04-05T10:18:58.999Z</time></trkpt><trkpt lat="46.485095528688" lon="19.401579474908292"><ele>127.0</ele><time>2026-04-05T10:18:59.999Z</time></trkpt><trkpt lat="46.48497839929838" lon="19.401427788840966"><ele>127.0</ele><time>2026-04-05T10:19:00.999Z</time></trkpt><trkpt lat="46.484874746055766" lon="19.401289061019973"><ele>127.0</ele><time>2026-04-05T10:19:01.999Z</time></trkpt><trkpt lat="46.48479136733241" lon="19.40115848286736"><ele>127.0</ele><time>2026-04-05T10:19:02.999Z</time></trkpt><trkpt lat="46.48471726576806" lon="19.401006613441233"><ele>127.0</ele><time>2026-04-05T10:19:03.999Z</time></trkpt><trkpt lat="46.484629680341925" lon="19.400853302250738"><ele>127.0</ele><time>2026-04-05T10:19:04.999Z</time></trkpt><trkpt lat="46.484553001332564" lon="19.4006732386556"><ele>127.0</ele><time>2026-04-05T10:19:05.999Z</time></trkpt><trkpt lat="46.484480597421225" lon="19.40051582844135"><ele>126.66666666666667</ele><time>2026-04-05T10:19:06.999Z</time></trkpt><trkpt lat="46.48437540463739" lon="19.40036601627091"><ele>126.33333333333334</ele><time>2026-04-05T10:19:07.999Z</time></trkpt><trkpt lat="46.48425754258171" lon="19.400205401673038"><ele>126.0</ele><time>2026-04-05T10:19:08.999Z</time></trkpt><trkpt lat="46.484150833088314" lon="19.400030927669267"><ele>126.0</ele><time>2026-04-05T10:19:09.999Z</time></trkpt><trkpt lat="46.4840316216989" lon="19.39984006862172"><ele>126.0</ele><time>2026-04-05T10:19:10.999Z</time></trkpt><trkpt lat="46.48393628524059" lon="19.39966839216182"><ele>126.0</ele><time>2026-04-05T10:19:11.999Z</time></trkpt><trkpt lat="46.48384178112766" lon="19.39951266647979"><ele>125.5</ele><time>2026-04-05T10:19:12.999Z</time></trkpt><trkpt lat="46.48375488542649" lon="19.399371479349867"><ele>125.0</ele><time>2026-04-05T10:19:13.999Z</time></trkpt><trkpt lat="46.48366323325142" lon="19.3992493451069"><ele>124.5</ele><time>2026-04-05T10:19:14.999Z</time></trkpt><trkpt lat="46.48358681939363" lon="19.399129514826715"><ele>124.0</ele><time>2026-04-05T10:19:15.999Z</time></trkpt><trkpt lat="46.48351553267151" lon="19.39899810438555"><ele>124.0</ele><time>2026-04-05T10:19:16.999Z</time></trkpt><trkpt lat="46.483447740227774" lon="19.39886031666299"><ele>124.0</ele><time>2026-04-05T10:19:17.999Z</time></trkpt><trkpt lat="46.483376826507346" lon="19.398730453938516"><ele>124.0</ele><time>2026-04-05T10:19:18.999Z</time></trkpt><trkpt lat="46.48330088070049" lon="19.398590232429473"><ele>124.0</ele><time>2026-04-05T10:19:19.999Z</time></trkpt><trkpt lat="46.4832162649288" lon="19.398453395185378"><ele>124.25</ele><time>2026-04-05T10:19:20.999Z</time></trkpt><trkpt lat="46.483137265245546" lon="19.39830127315252"><ele>124.5</ele><time>2026-04-05T10:19:21.999Z</time></trkpt><trkpt lat="46.48303929512494" lon="19.398153601511893"><ele>124.75</ele><time>2026-04-05T10:19:22.999Z</time></trkpt><trkpt lat="46.48294639083711" lon="19.398023098916628"><ele>125.0</ele><time>2026-04-05T10:19:23.999Z</time></trkpt><trkpt lat="46.48285886919076" lon="19.397897175676217"><ele>124.5</ele><time>2026-04-05T10:19:24.999Z</time></trkpt><trkpt lat="46.482762172772105" lon="19.397764403377664"><ele>124.0</ele><time>2026-04-05T10:19:25.999Z</time></trkpt><trkpt lat="46.48269517149646" lon="19.39760920670672"><ele>123.5</ele><time>2026-04-05T10:19:26.999Z</time></trkpt><trkpt lat="46.48259717124266" lon="19.397466123227527"><ele>123.0</ele><time>2026-04-05T10:19:27.999Z</time></trkpt><trkpt lat="46.482489426423456" lon="19.397318766769338"><ele>123.75</ele><time>2026-04-05T10:19:28.999Z</time></trkpt><trkpt lat="46.482389717492985" lon="19.39714434960858"><ele>124.5</ele><time>2026-04-05T10:19:29.999Z</time></trkpt><trkpt lat="46.482294615292" lon="19.39701624256842"><ele>125.25</ele><time>2026-04-05T10:19:30.999Z</time></trkpt><trkpt lat="46.48220763758222" lon="19.396863140465626"><ele>126.0</ele><time>2026-04-05T10:19:31.999Z</time></trkpt><trkpt lat="46.48212435048741" lon="19.39669366524842"><ele>126.5</ele><time>2026-04-05T10:19:32.999Z</time></trkpt><trkpt lat="46.48203785469909" lon="19.396540706797424"><ele>127.0</ele><time>2026-04-05T10:19:33.999Z</time></trkpt><trkpt lat="46.4819516885443" lon="19.396422654257158"><ele>127.5</ele><time>2026-04-05T10:19:34.999Z</time></trkpt><trkpt lat="46.48187077604664" lon="19.3963295660133"><ele>128.0</ele><time>2026-04-05T10:19:35.999Z</time></trkpt><trkpt lat="46.48178238181475" lon="19.396230261552077"><ele>128.4</ele><time>2026-04-05T10:19:36.999Z</time></trkpt><trkpt lat="46.48171248669247" lon="19.39609793247706"><ele>128.8</ele><time>2026-04-05T10:19:37.999Z</time></trkpt><trkpt lat="46.48165181604014" lon="19.395971023540298"><ele>129.2</ele><time>2026-04-05T10:19:38.999Z</time></trkpt><trkpt lat="46.481586997365945" lon="19.395865718781184"><ele>129.6</ele><time>2026-04-05T10:19:39.999Z</time></trkpt><trkpt lat="46.4815200953542" lon="19.395762149228798"><ele>130.0</ele><time>2026-04-05T10:19:41Z</time></trkpt><trkpt lat="46.481464675240744" lon="19.395682426545445"><ele>130.0</ele><time>2026-04-05T10:19:42Z</time></trkpt><trkpt lat="46.481419156602676" lon="19.39557809857306"><ele>130.0</ele><time>2026-04-05T10:19:44Z</time></trkpt><trkpt lat="46.4813374951879" lon="19.395448890557372"><ele>130.0</ele><time>2026-04-05T10:19:46Z</time></trkpt><trkpt lat="46.48127752946332" lon="19.395343526175285"><ele>130.0</ele><time>2026-04-05T10:19:47Z</time></trkpt><trkpt lat="46.48121075266874" lon="19.395230680390956"><ele>130.0</ele><time>2026-04-05T10:19:48Z</time></trkpt><trkpt lat="46.48113461037998" lon="19.395123142423703"><ele>129.0</ele><time>2026-04-05T10:19:49Z</time></trkpt><trkpt lat="46.481057947782595" lon="19.39499427304125"><ele>128.0</ele><time>2026-04-05T10:19:50Z</time></trkpt><trkpt lat="46.480988725315356" lon="19.39486110580886"><ele>127.0</ele><time>2026-04-05T10:19:51Z</time></trkpt><trkpt lat="46.4809055119788" lon="19.3947287060628"><ele>126.0</ele><time>2026-04-05T10:19:52Z</time></trkpt><trkpt lat="46.48082160334228" lon="19.39458606824047"><ele>126.0</ele><time>2026-04-05T10:19:53Z</time></trkpt><trkpt lat="46.480736627790755" lon="19.394431794229856"><ele>126.0</ele><time>2026-04-05T10:19:54Z</time></trkpt><trkpt lat="46.48066210765721" lon="19.39427784533358"><ele>126.0</ele><time>2026-04-05T10:19:55Z</time></trkpt><trkpt lat="46.48059636939278" lon="19.3941476943068"><ele>126.0</ele><time>2026-04-05T10:19:56Z</time></trkpt><trkpt lat="46.48051827282733" lon="19.39403193062764"><ele>126.25</ele><time>2026-04-05T10:19:57Z</time></trkpt><trkpt lat="46.48043287469876" lon="19.393944484746225"><ele>126.5</ele><time>2026-04-05T10:19:58Z</time></trkpt><trkpt lat="46.4803539021561" lon="19.39381246851685"><ele>126.75</ele><time>2026-04-05T10:19:59Z</time></trkpt><trkpt lat="46.480266930921104" lon="19.393663002860144"><ele>127.0</ele><time>2026-04-05T10:20:00Z</time></trkpt><trkpt lat="46.480181496326665" lon="19.393519115789747"><ele>127.0</ele><time>2026-04-05T10:20:01Z</time></trkpt><trkpt lat="46.48009389326981" lon="19.393366769140332"><ele>127.0</ele><time>2026-04-05T10:20:02Z</time></trkpt><trkpt lat="46.47998818333907" lon="19.393218100834307"><ele>127.0</ele><time>2026-04-05T10:20:03Z</time></trkpt><trkpt lat="46.47988283640918" lon="19.39306217337169"><ele>127.0</ele><time>2026-04-05T10:20:04Z</time></trkpt><trkpt lat="46.47978256025478" lon="19.39290648419729"><ele>126.75</ele><time>2026-04-05T10:20:05Z</time></trkpt><trkpt lat="46.479681089227476" lon="19.392749592661144"><ele>126.5</ele><time>2026-04-05T10:20:06Z</time></trkpt><trkpt lat="46.479584060947126" lon="19.39259984913806"><ele>126.25</ele><time>2026-04-05T10:20:07Z</time></trkpt><trkpt lat="46.47950320219909" lon="19.392443200809875"><ele>126.0</ele><time>2026-04-05T10:20:08Z</time></trkpt><trkpt lat="46.47942381730995" lon="19.39230608791351"><ele>126.0</ele><time>2026-04-05T10:20:09Z</time></trkpt><trkpt lat="46.47931863278035" lon="19.392175664143974"><ele>126.0</ele><time>2026-04-05T10:20:10Z</time></trkpt><trkpt lat="46.47922105075988" lon="19.392034218993505"><ele>126.0</ele><time>2026-04-05T10:20:11Z</time></trkpt><trkpt lat="46.479140515921934" lon="19.391892480507888"><ele>126.0</ele><time>2026-04-05T10:20:12Z</time></trkpt><trkpt lat="46.4790701532194" lon="19.391736356590787"><ele>126.0</ele><time>2026-04-05T10:20:13Z</time></trkpt><trkpt lat="46.478990153202766" lon="19.391601435693193"><ele>126.0</ele><time>2026-04-05T10:20:14Z</time></trkpt><trkpt lat="46.478918128041116" lon="19.391488756532464"><ele>126.0</ele><time>2026-04-05T10:20:15Z</time></trkpt><trkpt lat="46.47885386563914" lon="19.391390129221048"><ele>126.0</ele><time>2026-04-05T10:20:16Z</time></trkpt><trkpt lat="46.47879764260972" lon="19.391270491065697"><ele>126.0</ele><time>2026-04-05T10:20:17Z</time></trkpt><trkpt lat="46.47873006773925" lon="19.391182587818545"><ele>126.8</ele><time>2026-04-05T10:20:18Z</time></trkpt><trkpt lat="46.478674032949776" lon="19.391139255731552"><ele>127.6</ele><time>2026-04-05T10:20:19Z</time></trkpt><trkpt lat="46.478588374577086" lon="19.391004874291838"><ele>128.4</ele><time>2026-04-05T10:20:21Z</time></trkpt><trkpt lat="46.478553958422644" lon="19.39090972109023"><ele>129.2</ele><time>2026-04-05T10:20:22Z</time></trkpt><trkpt lat="46.478463389420234" lon="19.39082163392696"><ele>130.0</ele><time>2026-04-05T10:20:24Z</time></trkpt><trkpt lat="46.47837245511015" lon="19.39093140296356"><ele>130.0</ele><time>2026-04-05T10:20:26Z</time></trkpt><trkpt lat="46.47832632721654" lon="19.39100267246223"><ele>130.0</ele><time>2026-04-05T10:20:27Z</time></trkpt><trkpt lat="46.47825956620953" lon="19.391011421829816"><ele>130.0</ele><time>2026-04-05T10:20:28Z</time></trkpt><trkpt lat="46.47817712868669" lon="19.39100845170974"><ele>130.0</ele><time>2026-04-05T10:20:29Z</time></trkpt><trkpt lat="46.478079797309704" lon="19.390994784067743"><ele>130.0</ele><time>2026-04-05T10:20:30Z</time></trkpt><trkpt lat="46.47799626435579" lon="19.39092994805661"><ele>130.0</ele><time>2026-04-05T10:20:31Z</time></trkpt><trkpt lat="46.47791020819269" lon="19.39083821478751"><ele>130.0</ele><time>2026-04-05T10:20:32Z</time></trkpt><trkpt lat="46.47781879156554" lon="19.39072926941581"><ele>130.0</ele><time>2026-04-05T10:20:33Z</time></trkpt><trkpt lat="46.47771287539884" lon="19.390639039814182"><ele>130.0</ele><time>2026-04-05T10:20:34Z</time></trkpt><trkpt lat="46.477587055334766" lon="19.39055986577765"><ele>130.0</ele><time>2026-04-05T10:20:35Z</time></trkpt><trkpt lat="46.47744705974792" lon="19.390485180532824"><ele>130.25</ele><time>2026-04-05T10:20:36Z</time></trkpt><trkpt lat="46.47731026644812" lon="19.390403325392853"><ele>130.5</ele><time>2026-04-05T10:20:37Z</time></trkpt><trkpt lat="46.47720148406501" lon="19.39032542897037"><ele>130.75</ele><time>2026-04-05T10:20:38Z</time></trkpt><trkpt lat="46.47711491814117" lon="19.390232491711252"><ele>131.0</ele><time>2026-04-05T10:20:39Z</time></trkpt><trkpt lat="46.477042061257826" lon="19.39015238767424"><ele>131.5</ele><time>2026-04-05T10:20:40Z</time></trkpt><trkpt lat="46.47697960196844" lon="19.390083403660466"><ele>132.0</ele><time>2026-04-05T10:20:41Z</time></trkpt><trkpt lat="46.47691202626745" lon="19.390027282848763"><ele>132.5</ele><time>2026-04-05T10:20:42Z</time></trkpt><trkpt lat="46.476834133864735" lon="19.39000711314545"><ele>133.0</ele><time>2026-04-05T10:20:43Z</time></trkpt><trkpt lat="46.47675878048102" lon="19.390008124383623"><ele>133.5</ele><time>2026-04-05T10:20:44Z</time></trkpt><trkpt lat="46.47668332320232" lon="19.390029699993814"><ele>134.0</ele><time>2026-04-05T10:20:45Z</time></trkpt><trkpt lat="46.47662791560861" lon="19.390099031146118"><ele>134.0</ele><time>2026-04-05T10:20:46Z</time></trkpt><trkpt lat="46.47657677628398" lon="19.390178393062804"><ele>134.0</ele><time>2026-04-05T10:20:46.999Z</time></trkpt><trkpt lat="46.47651614734492" lon="19.39026011467842"><ele>134.0</ele><time>2026-04-05T10:20:47.999Z</time></trkpt><trkpt lat="46.47644951587024" lon="19.39034285378339"><ele>134.0</ele><time>2026-04-05T10:20:48.999Z</time></trkpt><trkpt lat="46.47638806011692" lon="19.390415296726385"><ele>134.0</ele><time>2026-04-05T10:20:49.999Z</time></trkpt><trkpt lat="46.47633398606262" lon="19.390502992731236"><ele>134.0</ele><time>2026-04-05T10:20:50.999Z</time></trkpt><trkpt lat="46.476275045895" lon="19.39057305525691"><ele>134.16666666666666</ele><time>2026-04-05T10:20:51.999Z</time></trkpt><trkpt lat="46.47621214304764" lon="19.390646853673985"><ele>134.33333333333331</ele><time>2026-04-05T10:20:52.999Z</time></trkpt><trkpt lat="46.47615032049052" lon="19.39070711212332"><ele>134.5</ele><time>2026-04-05T10:20:53.999Z</time></trkpt><trkpt lat="46.47609082722586" lon="19.390741898265194"><ele>134.66666666666666</ele><time>2026-04-05T10:20:54.999Z</time></trkpt><trkpt lat="46.47601926958244" lon="19.390771905652723"><ele>134.83333333333334</ele><time>2026-04-05T10:20:55.999Z</time></trkpt><trkpt lat="46.47590758621555" lon="19.390828378770397"><ele>135.0</ele><time>2026-04-05T10:20:57.999Z</time></trkpt><trkpt lat="46.47585754320686" lon="19.39090578202215"><ele>135.0</ele><time>2026-04-05T10:20:58.999Z</time></trkpt><trkpt lat="46.475794624184765" lon="19.39098163889399"><ele>135.0</ele><time>2026-04-05T10:20:59.999Z</time></trkpt><trkpt lat="46.47572434310568" lon="19.39103811749175"><ele>135.0</ele><time>2026-04-05T10:21:00.999Z</time></trkpt><trkpt lat="46.47564051560347" lon="19.3910861924549"><ele>135.0</ele><time>2026-04-05T10:21:01.999Z</time></trkpt><trkpt lat="46.47554209672712" lon="19.39110332628821"><ele>135.0</ele><time>2026-04-05T10:21:02.999Z</time></trkpt><trkpt lat="46.4754416751106" lon="19.391133213593633"><ele>135.16666666666666</ele><time>2026-04-05T10:21:03.999Z</time></trkpt><trkpt lat="46.475341743625215" lon="19.39116634622188"><ele>135.33333333333334</ele><time>2026-04-05T10:21:04.999Z</time></trkpt><trkpt lat="46.47524270631882" lon="19.39119829092162"><ele>135.5</ele><time>2026-04-05T10:21:05.999Z</time></trkpt><trkpt lat="46.475145526129666" lon="19.39121007531079"><ele>135.66666666666669</ele><time>2026-04-05T10:21:06.999Z</time></trkpt><trkpt lat="46.47506611571716" lon="19.391221053470684"><ele>135.83333333333334</ele><time>2026-04-05T10:21:07.999Z</time></trkpt><trkpt lat="46.475002854878284" lon="19.391243402495906"><ele>136.0</ele><time>2026-04-05T10:21:08.999Z</time></trkpt><trkpt lat="46.47494435012776" lon="19.391302302485048"><ele>135.83333333333334</ele><time>2026-04-05T10:21:09.999Z</time></trkpt><trkpt lat="46.474878706826324" lon="19.391382290956795"><ele>135.66666666666669</ele><time>2026-04-05T10:21:10.999Z</time></trkpt><trkpt lat="46.47481394600261" lon="19.391457799789407"><ele>135.5</ele><time>2026-04-05T10:21:11.999Z</time></trkpt><trkpt lat="46.474761005759035" lon="19.3915337936484"><ele>135.33333333333334</ele><time>2026-04-05T10:21:12.999Z</time></trkpt><trkpt lat="46.47469360064252" lon="19.39155868222479"><ele>135.16666666666666</ele><time>2026-04-05T10:21:13.999Z</time></trkpt><trkpt lat="46.47459865176765" lon="19.391492149581417"><ele>135.0</ele><time>2026-04-05T10:21:15.999Z</time></trkpt><trkpt lat="46.474543144311234" lon="19.391397088277525"><ele>134.8</ele><time>2026-04-05T10:21:17.999Z</time></trkpt><trkpt lat="46.474490710796104" lon="19.39130334460235"><ele>134.6</ele><time>2026-04-05T10:21:19.999Z</time></trkpt><trkpt lat="46.47445765328391" lon="19.391210016783834"><ele>134.4</ele><time>2026-04-05T10:21:21.999Z</time></trkpt><trkpt lat="46.47438772593828" lon="19.391134234273768"><ele>134.2</ele><time>2026-04-05T10:21:24.999Z</time></trkpt><trkpt lat="46.474305697856565" lon="19.391123403086503"><ele>134.0</ele><time>2026-04-05T10:21:26.999Z</time></trkpt><trkpt lat="46.474175877880164" lon="19.39112214967361"><ele>134.0</ele><time>2026-04-05T10:21:28.999Z</time></trkpt><trkpt lat="46.474110588896544" lon="19.391244392213594"><ele>134.0</ele><time>2026-04-05T10:21:29.999Z</time></trkpt><trkpt lat="46.47405070534546" lon="19.391361446209395"><ele>134.0</ele><time>2026-04-05T10:21:30.999Z</time></trkpt><trkpt lat="46.4739893776143" lon="19.39152369042441"><ele>134.0</ele><time>2026-04-05T10:21:31.999Z</time></trkpt><trkpt lat="46.47392853378296" lon="19.39160677826921"><ele>134.0</ele><time>2026-04-05T10:21:32.999Z</time></trkpt><trkpt lat="46.47387947853528" lon="19.391686001272408"><ele>134.16666666666666</ele><time>2026-04-05T10:21:33.999Z</time></trkpt><trkpt lat="46.473826236089785" lon="19.391768918899736"><ele>134.33333333333331</ele><time>2026-04-05T10:21:35.999Z</time></trkpt><trkpt lat="46.47377206344679" lon="19.391820444251938"><ele>134.5</ele><time>2026-04-05T10:21:39.999Z</time></trkpt><trkpt lat="46.47370926002468" lon="19.391860332442054"><ele>134.66666666666666</ele><time>2026-04-05T10:21:44.999Z</time></trkpt><trkpt lat="46.473652220864686" lon="19.391899391011943"><ele>134.83333333333334</ele><time>2026-04-05T10:22:19Z</time></trkpt><trkpt lat="46.47355924869091" lon="19.391719024148124"><ele>135.0</ele><time>2026-04-05T10:22:35Z</time></trkpt><trkpt lat="46.47352243149662" lon="19.391628731836466"><ele>134.8</ele><time>2026-04-05T10:22:36Z</time></trkpt><trkpt lat="46.47347099919445" lon="19.391525622846615"><ele>134.6</ele><time>2026-04-05T10:22:37Z</time></trkpt><trkpt lat="46.473402319623716" lon="19.391416070710694"><ele>134.4</ele><time>2026-04-05T10:22:38Z</time></trkpt><trkpt lat="46.473326925818874" lon="19.39130299509236"><ele>134.2</ele><time>2026-04-05T10:22:39Z</time></trkpt><trkpt lat="46.47325741749785" lon="19.391174909390045"><ele>134.0</ele><time>2026-04-05T10:22:40Z</time></trkpt><trkpt lat="46.47317495778963" lon="19.391048513657907"><ele>134.0</ele><time>2026-04-05T10:22:41Z</time></trkpt><trkpt lat="46.473090063206826" lon="19.390914200639507"><ele>134.0</ele><time>2026-04-05T10:22:42Z</time></trkpt><trkpt lat="46.473010467922336" lon="19.390772403978172"><ele>134.0</ele><time>2026-04-05T10:22:43Z</time></trkpt><trkpt lat="46.47293469407272" lon="19.390622570117017"><ele>134.0</ele><time>2026-04-05T10:22:44Z</time></trkpt><trkpt lat="46.47287241440539" lon="19.39052170954962"><ele>134.0</ele><time>2026-04-05T10:22:45Z</time></trkpt><trkpt lat="46.47282538824553" lon="19.390383354947584"><ele>134.0</ele><time>2026-04-05T10:22:47Z</time></trkpt><trkpt lat="46.472790294662616" lon="19.390303780050417"><ele>134.0</ele><time>2026-04-05T10:22:48Z</time></trkpt><trkpt lat="46.47274689624529" lon="19.390207794061244"><ele>134.0</ele><time>2026-04-05T10:22:49Z</time></trkpt><trkpt lat="46.47270930371845" lon="19.390107866630814"><ele>134.0</ele><time>2026-04-05T10:22:50Z</time></trkpt><trkpt lat="46.47267747666563" lon="19.390016145304717"><ele>134.0</ele><time>2026-04-05T10:22:51Z</time></trkpt><trkpt lat="46.47266727886731" lon="19.38992034202675"><ele>134.0</ele><time>2026-04-05T10:22:53Z</time></trkpt><trkpt lat="46.47269675526619" lon="19.389800483502075"><ele>134.0</ele><time>2026-04-05T10:22:54.999Z</time></trkpt><trkpt lat="46.47274100607624" lon="19.389730484407263"><ele>134.0</ele><time>2026-04-05T10:22:55.999Z</time></trkpt><trkpt lat="46.472791152346886" lon="19.389646731595654"><ele>134.0</ele><time>2026-04-05T10:22:57.999Z</time></trkpt><trkpt lat="46.47279810881292" lon="19.389500173600638"><ele>134.0</ele><time>2026-04-05T10:22:59.999Z</time></trkpt><trkpt lat="46.472780783398974" lon="19.38931902411131"><ele>133.66666666666666</ele><time>2026-04-05T10:23:01.999Z</time></trkpt><trkpt lat="46.47280353494797" lon="19.3892124947751"><ele>133.33333333333331</ele><time>2026-04-05T10:23:02.999Z</time></trkpt><trkpt lat="46.472779153426366" lon="19.389105063239445"><ele>133.0</ele><time>2026-04-05T10:23:03.999Z</time></trkpt><trkpt lat="46.472720336296" lon="19.3890266556562"><ele>132.66666666666666</ele><time>2026-04-05T10:23:04.999Z</time></trkpt><trkpt lat="46.47267279088341" lon="19.38894050693368"><ele>132.33333333333334</ele><time>2026-04-05T10:23:05.999Z</time></trkpt><trkpt lat="46.47262587436003" lon="19.388855715785837"><ele>132.0</ele><time>2026-04-05T10:23:06.999Z</time></trkpt><trkpt lat="46.47260536627384" lon="19.38876486546091"><ele>131.5</ele><time>2026-04-05T10:23:07.999Z</time></trkpt><trkpt lat="46.47260020524301" lon="19.38859408181909"><ele>131.0</ele><time>2026-04-05T10:23:09.999Z</time></trkpt><trkpt lat="46.47259020642251" lon="19.38849381987975"><ele>130.5</ele><time>2026-04-05T10:23:10.999Z</time></trkpt><trkpt lat="46.472542614168596" lon="19.388406187054333"><ele>130.0</ele><time>2026-04-05T10:23:11.999Z</time></trkpt><trkpt lat="46.47247758637881" lon="19.388319521889507"><ele>129.5</ele><time>2026-04-05T10:23:12.999Z</time></trkpt><trkpt lat="46.47243783549319" lon="19.38819537994663"><ele>129.0</ele><time>2026-04-05T10:23:13.999Z</time></trkpt><trkpt lat="46.47240338872211" lon="19.388080873549846"><ele>129.16666666666666</ele><time>2026-04-05T10:23:14.999Z</time></trkpt><trkpt lat="46.4723642906062" lon="19.387985803400433"><ele>129.33333333333334</ele><time>2026-04-05T10:23:15.999Z</time></trkpt><trkpt lat="46.47230129384397" lon="19.387888886404124"><ele>129.5</ele><time>2026-04-05T10:23:17.999Z</time></trkpt><trkpt lat="46.47226372474797" lon="19.387809574359885"><ele>129.66666666666669</ele><time>2026-04-05T10:23:19.999Z</time></trkpt><trkpt lat="46.472215003461436" lon="19.387716073377767"><ele>129.83333333333334</ele><time>2026-04-05T10:23:21.999Z</time></trkpt><trkpt lat="46.47216011787374" lon="19.387649297392848"><ele>130.0</ele><time>2026-04-05T10:23:25.999Z</time></trkpt><trkpt lat="46.47208796621136" lon="19.3876223906816"><ele>130.5</ele><time>2026-04-05T10:23:29.999Z</time></trkpt><trkpt lat="46.47207467920079" lon="19.387513662468912"><ele>131.0</ele><time>2026-04-05T10:23:32.999Z</time></trkpt><trkpt lat="46.472099644629324" lon="19.3874259020934"><ele>131.5</ele><time>2026-04-05T10:23:43.999Z</time></trkpt><trkpt lat="46.47210219576787" lon="19.387289876160445"><ele>132.0</ele><time>2026-04-05T10:23:48.999Z</time></trkpt><trkpt lat="46.47208990003068" lon="19.387156463950184"><ele>132.5</ele><time>2026-04-05T10:23:51.999Z</time></trkpt><trkpt lat="46.47204388794864" lon="19.38704825550299"><ele>133.0</ele><time>2026-04-05T10:23:54Z</time></trkpt><trkpt lat="46.471957943744535" lon="19.38693886230387"><ele>133.0</ele><time>2026-04-05T10:23:56Z</time></trkpt><trkpt lat="46.4719189374441" lon="19.38678546883777"><ele>133.0</ele><time>2026-04-05T10:23:58Z</time></trkpt><trkpt lat="46.47184791119483" lon="19.386686543003556"><ele>133.0</ele><time>2026-04-05T10:24:00Z</time></trkpt><trkpt lat="46.47177742826115" lon="19.38659255396446"><ele>133.0</ele><time>2026-04-05T10:24:02Z</time></trkpt><trkpt lat="46.47171921967922" lon="19.386476451220627"><ele>133.0</ele><time>2026-04-05T10:24:04Z</time></trkpt><trkpt lat="46.47168779966547" lon="19.386392521942987"><ele>133.0</ele><time>2026-04-05T10:24:06Z</time></trkpt><trkpt lat="46.471621286406965" lon="19.386373520897425"><ele>133.0</ele><time>2026-04-05T10:24:08Z</time></trkpt><trkpt lat="46.47153851429235" lon="19.38623301535889"><ele>133.0</ele><time>2026-04-05T10:24:11Z</time></trkpt><trkpt lat="46.47146952612696" lon="19.386138453493054"><ele>133.0</ele><time>2026-04-05T10:24:13Z</time></trkpt><trkpt lat="46.47149247280629" lon="19.38601474160653"><ele>133.0</ele><time>2026-04-05T10:24:16Z</time></trkpt><trkpt lat="46.47154375109737" lon="19.38587618129046"><ele>133.0</ele><time>2026-04-05T10:24:18Z</time></trkpt><trkpt lat="46.47159142839846" lon="19.38579017279925"><ele>133.0</ele><time>2026-04-05T10:24:19Z</time></trkpt><trkpt lat="46.47165975607775" lon="19.385715264916296"><ele>133.0</ele><time>2026-04-05T10:24:20Z</time></trkpt><trkpt lat="46.471705643417515" lon="19.385622562548246"><ele>133.0</ele><time>2026-04-05T10:24:21Z</time></trkpt><trkpt lat="46.471743961103854" lon="19.38551736032204"><ele>133.0</ele><time>2026-04-05T10:24:22Z</time></trkpt><trkpt lat="46.471795275041416" lon="19.385429254613978"><ele>133.0</ele><time>2026-04-05T10:24:23Z</time></trkpt><trkpt lat="46.47184248957401" lon="19.385336984791948"><ele>133.0</ele><time>2026-04-05T10:24:24Z</time></trkpt><trkpt lat="46.471902597360376" lon="19.385245059166937"><ele>133.0</ele><time>2026-04-05T10:24:25Z</time></trkpt><trkpt lat="46.471966208991105" lon="19.385144167086835"><ele>133.0</ele><time>2026-04-05T10:24:26Z</time></trkpt><trkpt lat="46.47202367477892" lon="19.38503092031862"><ele>133.0</ele><time>2026-04-05T10:24:27Z</time></trkpt><trkpt lat="46.4720753386562" lon="19.38493228761723"><ele>133.0</ele><time>2026-04-05T10:24:28Z</time></trkpt><trkpt lat="46.47212781183259" lon="19.384806163993403"><ele>132.8</ele><time>2026-04-05T10:24:30Z</time></trkpt><trkpt lat="46.472062181665315" lon="19.384677619846826"><ele>132.60000000000002</ele><time>2026-04-05T10:24:33Z</time></trkpt><trkpt lat="46.471996092552324" lon="19.38462046296302"><ele>132.39999999999998</ele><time>2026-04-05T10:24:34Z</time></trkpt><trkpt lat="46.47191213953656" lon="19.384552475000753"><ele>132.2</ele><time>2026-04-05T10:24:35Z</time></trkpt><trkpt lat="46.47181790820675" lon="19.384465732579624"><ele>132.0</ele><time>2026-04-05T10:24:36Z</time></trkpt><trkpt lat="46.47171127746154" lon="19.384359793167103"><ele>132.0</ele><time>2026-04-05T10:24:37Z</time></trkpt><trkpt lat="46.47159708547571" lon="19.384245793974475"><ele>132.0</ele><time>2026-04-05T10:24:38Z</time></trkpt><trkpt lat="46.471487691396355" lon="19.384145147250493"><ele>132.0</ele><time>2026-04-05T10:24:39Z</time></trkpt><trkpt lat="46.47138964069312" lon="19.384065982907256"><ele>132.0</ele><time>2026-04-05T10:24:40Z</time></trkpt><trkpt lat="46.47129326155248" lon="19.38398352671362"><ele>132.25</ele><time>2026-04-05T10:24:41Z</time></trkpt><trkpt lat="46.471184628187935" lon="19.38391369553807"><ele>132.5</ele><time>2026-04-05T10:24:42Z</time></trkpt><trkpt lat="46.47106384510052" lon="19.38384709950631"><ele>132.75</ele><time>2026-04-05T10:24:43Z</time></trkpt><trkpt lat="46.47092983607394" lon="19.383796210141437"><ele>133.0</ele><time>2026-04-05T10:24:44Z</time></trkpt><trkpt lat="46.47080586570765" lon="19.383750000291634"><ele>133.0</ele><time>2026-04-05T10:24:45Z</time></trkpt><trkpt lat="46.47071052767299" lon="19.383714898550732"><ele>133.0</ele><time>2026-04-05T10:24:46Z</time></trkpt><trkpt lat="46.47059129615338" lon="19.38371118971653"><ele>133.0</ele><time>2026-04-05T10:24:48Z</time></trkpt><trkpt lat="46.47054527464346" lon="19.38381432226566"><ele>133.0</ele><time>2026-04-05T10:24:49Z</time></trkpt><trkpt lat="46.47047265426371" lon="19.38393542281734"><ele>133.0</ele><time>2026-04-05T10:24:50Z</time></trkpt><trkpt lat="46.470397225311025" lon="19.384059357766663"><ele>133.25</ele><time>2026-04-05T10:24:51Z</time></trkpt><trkpt lat="46.4703044772408" lon="19.38416385693639"><ele>133.5</ele><time>2026-04-05T10:24:52Z</time></trkpt><trkpt lat="46.4702138133945" lon="19.384278619838433"><ele>133.75</ele><time>2026-04-05T10:24:53Z</time></trkpt><trkpt lat="46.47012362426903" lon="19.384408495010153"><ele>134.0</ele><time>2026-04-05T10:24:54Z</time></trkpt><trkpt lat="46.470030732193635" lon="19.38454157644791"><ele>134.0</ele><time>2026-04-05T10:24:55Z</time></trkpt><trkpt lat="46.46993193921236" lon="19.384657285007666"><ele>134.0</ele><time>2026-04-05T10:24:56Z</time></trkpt><trkpt lat="46.46984288099524" lon="19.384777567602356"><ele>134.0</ele><time>2026-04-05T10:24:57Z</time></trkpt><trkpt lat="46.46976694591082" lon="19.384869123487963"><ele>134.0</ele><time>2026-04-05T10:24:58Z</time></trkpt><trkpt lat="46.46970987784756" lon="19.38494389244189"><ele>134.0</ele><time>2026-04-05T10:24:59Z</time></trkpt><trkpt lat="46.4696586988785" lon="19.385010960644554"><ele>133.8</ele><time>2026-04-05T10:25:00Z</time></trkpt><trkpt lat="46.469594076327034" lon="19.385007834450256"><ele>133.60000000000002</ele><time>2026-04-05T10:25:02Z</time></trkpt><trkpt lat="46.4695492431444" lon="19.384914165614173"><ele>133.4</ele><time>2026-04-05T10:25:03Z</time></trkpt><trkpt lat="46.4695054164355" lon="19.38479215870865"><ele>133.20000000000002</ele><time>2026-04-05T10:25:03.999Z</time></trkpt><trkpt lat="46.46944251680228" lon="19.38465658183116"><ele>133.0</ele><time>2026-04-05T10:25:04.999Z</time></trkpt><trkpt lat="46.46936579463255" lon="19.384510644322084"><ele>133.0</ele><time>2026-04-05T10:25:05.999Z</time></trkpt><trkpt lat="46.469285791442" lon="19.384359543501944"><ele>133.0</ele><time>2026-04-05T10:25:06.999Z</time></trkpt><trkpt lat="46.46919802195451" lon="19.384202574506343"><ele>133.0</ele><time>2026-04-05T10:25:07.999Z</time></trkpt><trkpt lat="46.46910241662447" lon="19.38406416445986"><ele>133.0</ele><time>2026-04-05T10:25:08.999Z</time></trkpt><trkpt lat="46.46901827850254" lon="19.38393945387706"><ele>132.25</ele><time>2026-04-05T10:25:09.999Z</time></trkpt><trkpt lat="46.46894914580161" lon="19.383802697126526"><ele>131.5</ele><time>2026-04-05T10:25:10.999Z</time></trkpt><trkpt lat="46.468888724205904" lon="19.38363827511293"><ele>130.75</ele><time>2026-04-05T10:25:11.999Z</time></trkpt><trkpt lat="46.46883254311785" lon="19.383464999783484"><ele>130.0</ele><time>2026-04-05T10:25:12.999Z</time></trkpt><trkpt lat="46.468779654329396" lon="19.383328502227133"><ele>130.0</ele><time>2026-04-05T10:25:13.999Z</time></trkpt><trkpt lat="46.46872634729775" lon="19.38322086229422"><ele>130.0</ele><time>2026-04-05T10:25:14.999Z</time></trkpt><trkpt lat="46.46866264085406" lon="19.38312272921931"><ele>130.0</ele><time>2026-04-05T10:25:16.999Z</time></trkpt><trkpt lat="46.46872197368702" lon="19.383037807805646"><ele>130.0</ele><time>2026-04-05T10:25:21.999Z</time></trkpt><trkpt lat="46.46882132174338" lon="19.382924950196106"><ele>130.0</ele><time>2026-04-05T10:25:23.999Z</time></trkpt><trkpt lat="46.46889383620013" lon="19.382836645995532"><ele>130.2</ele><time>2026-04-05T10:25:24.999Z</time></trkpt><trkpt lat="46.46896824836433" lon="19.382742332140097"><ele>130.4</ele><time>2026-04-05T10:25:25.999Z</time></trkpt><trkpt lat="46.469050736274696" lon="19.38263964865753"><ele>130.6</ele><time>2026-04-05T10:25:26.999Z</time></trkpt><trkpt lat="46.469141001731884" lon="19.382533968128605"><ele>130.8</ele><time>2026-04-05T10:25:27.999Z</time></trkpt><trkpt lat="46.46923242010722" lon="19.382426933839618"><ele>131.0</ele><time>2026-04-05T10:25:28.999Z</time></trkpt><trkpt lat="46.46932340831579" lon="19.38232761684435"><ele>131.0</ele><time>2026-04-05T10:25:29.999Z</time></trkpt><trkpt lat="46.46940407529656" lon="19.38219846668264"><ele>131.0</ele><time>2026-04-05T10:25:30.999Z</time></trkpt><trkpt lat="46.46949665069022" lon="19.382068984054396"><ele>131.0</ele><time>2026-04-05T10:25:31.999Z</time></trkpt><trkpt lat="46.46960098323892" lon="19.381949037507365"><ele>131.0</ele><time>2026-04-05T10:25:32.999Z</time></trkpt><trkpt lat="46.46968012269043" lon="19.381855253398324"><ele>131.16666666666666</ele><time>2026-04-05T10:25:33.999Z</time></trkpt><trkpt lat="46.4697227809661" lon="19.381768112501742"><ele>131.33333333333331</ele><time>2026-04-05T10:25:34.999Z</time></trkpt><trkpt lat="46.46972510082078" lon="19.381665540077833"><ele>131.5</ele><time>2026-04-05T10:25:35.999Z</time></trkpt><trkpt lat="46.469692231112504" lon="19.381568596603866"><ele>131.66666666666666</ele><time>2026-04-05T10:25:36.999Z</time></trkpt><trkpt lat="46.46965335005504" lon="19.381464502963116"><ele>131.83333333333334</ele><time>2026-04-05T10:25:37.999Z</time></trkpt><trkpt lat="46.469572039767876" lon="19.381350941124857"><ele>132.0</ele><time>2026-04-05T10:25:38.999Z</time></trkpt><trkpt lat="46.46953627130729" lon="19.381268352097273"><ele>132.25</ele><time>2026-04-05T10:25:39.999Z</time></trkpt><trkpt lat="46.469480968591" lon="19.381101664540772"><ele>132.5</ele><time>2026-04-05T10:25:41.999Z</time></trkpt><trkpt lat="46.469468005877694" lon="19.38091250582901"><ele>132.75</ele><time>2026-04-05T10:25:43.999Z</time></trkpt><trkpt lat="46.46958722915713" lon="19.38078487293586"><ele>133.0</ele><time>2026-04-05T10:25:45.999Z</time></trkpt><trkpt lat="46.46968822679775" lon="19.380706373394865"><ele>133.0</ele><time>2026-04-05T10:25:46.999Z</time></trkpt><trkpt lat="46.469785113676416" lon="19.3806498475685"><ele>133.0</ele><time>2026-04-05T10:25:47.999Z</time></trkpt><trkpt lat="46.46985361676307" lon="19.38060686917481"><ele>133.0</ele><time>2026-04-05T10:25:48.999Z</time></trkpt><trkpt lat="46.46986755756878" lon="19.380454835210475"><ele>133.0</ele><time>2026-04-05T10:25:50.999Z</time></trkpt><trkpt lat="46.46983639306478" lon="19.380331589442157"><ele>133.0</ele><time>2026-04-05T10:25:51.999Z</time></trkpt><trkpt lat="46.4697857691293" lon="19.380238278620578"><ele>132.8</ele><time>2026-04-05T10:25:52.999Z</time></trkpt><trkpt lat="46.46974077893494" lon="19.380101905322707"><ele>132.60000000000002</ele><time>2026-04-05T10:25:54.999Z</time></trkpt><trkpt lat="46.46966614210597" lon="19.379945180097312"><ele>132.39999999999998</ele><time>2026-04-05T10:25:56.999Z</time></trkpt><trkpt lat="46.46963130484851" lon="19.37986405354184"><ele>132.2</ele><time>2026-04-05T10:25:57.999Z</time></trkpt><trkpt lat="46.46962293883134" lon="19.37973443965318"><ele>132.0</ele><time>2026-04-05T10:26:00Z</time></trkpt><trkpt lat="46.469713744522046" lon="19.379653915692952"><ele>132.0</ele><time>2026-04-05T10:26:02Z</time></trkpt><trkpt lat="46.46977954976593" lon="19.37965175936587"><ele>132.0</ele><time>2026-04-05T10:26:03Z</time></trkpt><trkpt lat="46.46984911235625" lon="19.379653030002924"><ele>132.0</ele><time>2026-04-05T10:26:04Z</time></trkpt><trkpt lat="46.46992576102763" lon="19.379663739581353"><ele>132.0</ele><time>2026-04-05T10:26:05Z</time></trkpt><trkpt lat="46.46999089207126" lon="19.3796955536569"><ele>132.0</ele><time>2026-04-05T10:26:06Z</time></trkpt><trkpt lat="46.470080442462006" lon="19.379807808046298"><ele>132.0</ele><time>2026-04-05T10:26:08Z</time></trkpt><trkpt lat="46.47014206494891" lon="19.37985668221141"><ele>132.0</ele><time>2026-04-05T10:26:09Z</time></trkpt><trkpt lat="46.470201626327906" lon="19.379892324194255"><ele>132.0</ele><time>2026-04-05T10:26:10Z</time></trkpt><trkpt lat="46.47026284477988" lon="19.379923041410553"><ele>132.0</ele><time>2026-04-05T10:26:11Z</time></trkpt><trkpt lat="46.470344773730474" lon="19.37991074634081"><ele>132.0</ele><time>2026-04-05T10:26:13Z</time></trkpt><trkpt lat="46.47042454000952" lon="19.379823666673648"><ele>132.0</ele><time>2026-04-05T10:26:15Z</time></trkpt><trkpt lat="46.47050059968426" lon="19.379694406463216"><ele>132.0</ele><time>2026-04-05T10:26:17Z</time></trkpt><trkpt lat="46.47057603354461" lon="19.379553080343527"><ele>132.0</ele><time>2026-04-05T10:26:19Z</time></trkpt><trkpt lat="46.4706318333962" lon="19.37947650858533"><ele>132.0</ele><time>2026-04-05T10:26:20Z</time></trkpt><trkpt lat="46.47069574009561" lon="19.379395348496676"><ele>132.0</ele><time>2026-04-05T10:26:21Z</time></trkpt><trkpt lat="46.47076014830111" lon="19.379293333865263"><ele>132.0</ele><time>2026-04-05T10:26:22Z</time></trkpt><trkpt lat="46.47082304503373" lon="19.379194328961496"><ele>132.0</ele><time>2026-04-05T10:26:23Z</time></trkpt><trkpt lat="46.47088999387614" lon="19.379091718305364"><ele>132.0</ele><time>2026-04-05T10:26:24Z</time></trkpt><trkpt lat="46.4709646246504" lon="19.378995352429413"><ele>132.0</ele><time>2026-04-05T10:26:25Z</time></trkpt><trkpt lat="46.47103350601868" lon="19.378886672034756"><ele>132.0</ele><time>2026-04-05T10:26:26Z</time></trkpt><trkpt lat="46.471090023529506" lon="19.378784414104786"><ele>132.0</ele><time>2026-04-05T10:26:27Z</time></trkpt><trkpt lat="46.471138965412386" lon="19.378720136037565"><ele>132.0</ele><time>2026-04-05T10:26:28Z</time></trkpt><trkpt lat="46.47118122623859" lon="19.37863185432634"><ele>132.0</ele><time>2026-04-05T10:26:30Z</time></trkpt><trkpt lat="46.47113895306998" lon="19.3785480928961"><ele>132.0</ele><time>2026-04-05T10:26:32Z</time></trkpt><trkpt lat="46.4711811188434" lon="19.37864674512829"><ele>133.0</ele><time>2026-04-05T10:26:37Z</time></trkpt></trkseg><trkseg><trkpt lat="46.44528949271229" lon="19.3541560736979"><ele>126.0</ele><time>2026-04-05T10:38:36Z</time></trkpt><trkpt lat="46.44523553655203" lon="19.354073968598257"><ele>126.0</ele><time>2026-04-05T10:38:37Z</time></trkpt><trkpt lat="46.44517816475267" lon="19.35397752575866"><ele>126.0</ele><time>2026-04-05T10:38:38Z</time></trkpt><trkpt lat="46.44512345721005" lon="19.35387708268684"><ele>126.0</ele><time>2026-04-05T10:38:39Z</time></trkpt><trkpt lat="46.445055899564395" lon="19.353777300716196"><ele>126.0</ele><time>2026-04-05T10:38:40Z</time></trkpt><trkpt lat="46.444981740907636" lon="19.3536746589991"><ele>126.0</ele><time>2026-04-05T10:38:41Z</time></trkpt><trkpt lat="46.44490187185676" lon="19.353561734010118"><ele>126.0</ele><time>2026-04-05T10:38:42Z</time></trkpt><trkpt lat="46.444835690896426" lon="19.353437819879886"><ele>126.0</ele><time>2026-04-05T10:38:43Z</time></trkpt><trkpt lat="46.44475028451354" lon="19.353306502339382"><ele>126.0</ele><time>2026-04-05T10:38:44Z</time></trkpt><trkpt lat="46.44466449425654" lon="19.353180224957057"><ele>126.5</ele><time>2026-04-05T10:38:45Z</time></trkpt><trkpt lat="46.44458428546887" lon="19.353034986355336"><ele>127.0</ele><time>2026-04-05T10:38:46Z</time></trkpt><trkpt lat="46.44450260838424" lon="19.35288821842094"><ele>127.5</ele><time>2026-04-05T10:38:47Z</time></trkpt><trkpt lat="46.44441967224796" lon="19.352733114699905"><ele>128.0</ele><time>2026-04-05T10:38:48Z</time></trkpt><trkpt lat="46.44433540016775" lon="19.352599668730562"><ele>128.0</ele><time>2026-04-05T10:38:49Z</time></trkpt><trkpt lat="46.444240843918024" lon="19.352451174297624"><ele>128.0</ele><time>2026-04-05T10:38:49.999Z</time></trkpt><trkpt lat="46.44414800167097" lon="19.352306499808716"><ele>128.0</ele><time>2026-04-05T10:38:50.999Z</time></trkpt><trkpt lat="46.44405212748988" lon="19.35215622683333"><ele>128.0</ele><time>2026-04-05T10:38:51.999Z</time></trkpt><trkpt lat="46.443954893404914" lon="19.35200784258655"><ele>127.75</ele><time>2026-04-05T10:38:52.999Z</time></trkpt><trkpt lat="46.44386005836171" lon="19.35185740107896"><ele>127.5</ele><time>2026-04-05T10:38:53.999Z</time></trkpt><trkpt lat="46.44376990033451" lon="19.35170512363634"><ele>127.25</ele><time>2026-04-05T10:38:54.999Z</time></trkpt><trkpt lat="46.4436766267261" lon="19.351550748051935"><ele>127.0</ele><time>2026-04-05T10:38:55.999Z</time></trkpt><trkpt lat="46.443578795574474" lon="19.351413283061714"><ele>126.75</ele><time>2026-04-05T10:38:56.999Z</time></trkpt><trkpt lat="46.44348886218668" lon="19.35126241568154"><ele>126.5</ele><time>2026-04-05T10:38:57.999Z</time></trkpt><trkpt lat="46.4434007413655" lon="19.351115727145114"><ele>126.25</ele><time>2026-04-05T10:38:58.999Z</time></trkpt><trkpt lat="46.44330652223996" lon="19.350959624911898"><ele>126.0</ele><time>2026-04-05T10:38:59.999Z</time></trkpt><trkpt lat="46.44321042396006" lon="19.35080294336416"><ele>126.0</ele><time>2026-04-05T10:39:00.999Z</time></trkpt><trkpt lat="46.443118320655664" lon="19.350656002370776"><ele>126.0</ele><time>2026-04-05T10:39:01.999Z</time></trkpt><trkpt lat="46.44302953941018" lon="19.350496605974016"><ele>126.0</ele><time>2026-04-05T10:39:02.999Z</time></trkpt><trkpt lat="46.442940914458376" lon="19.350334662254205"><ele>126.0</ele><time>2026-04-05T10:39:03.999Z</time></trkpt><trkpt lat="46.44284653115264" lon="19.350185062079905"><ele>126.0</ele><time>2026-04-05T10:39:04.999Z</time></trkpt><trkpt lat="46.44274894172478" lon="19.350033458915103"><ele>126.0</ele><time>2026-04-05T10:39:05.999Z</time></trkpt><trkpt lat="46.44265599602591" lon="19.349873074033376"><ele>126.0</ele><time>2026-04-05T10:39:06.999Z</time></trkpt><trkpt lat="46.44256418770637" lon="19.34972433359649"><ele>126.0</ele><time>2026-04-05T10:39:07.999Z</time></trkpt><trkpt lat="46.44247601910909" lon="19.349565263669525"><ele>125.25</ele><time>2026-04-05T10:39:08.999Z</time></trkpt><trkpt lat="46.44238260657224" lon="19.349419865874335"><ele>124.5</ele><time>2026-04-05T10:39:09.999Z</time></trkpt><trkpt lat="46.44229245178846" lon="19.34926788848526"><ele>123.75</ele><time>2026-04-05T10:39:10.999Z</time></trkpt><trkpt lat="46.442205071550994" lon="19.34912744172339"><ele>123.0</ele><time>2026-04-05T10:39:11.999Z</time></trkpt><trkpt lat="46.44210965687024" lon="19.34897816026119"><ele>123.5</ele><time>2026-04-05T10:39:12.999Z</time></trkpt><trkpt lat="46.4420177926682" lon="19.34882870619238"><ele>124.0</ele><time>2026-04-05T10:39:13.999Z</time></trkpt><trkpt lat="46.441929144894814" lon="19.348673221735574"><ele>124.5</ele><time>2026-04-05T10:39:14.999Z</time></trkpt><trkpt lat="46.441826775273775" lon="19.348522149308014"><ele>125.0</ele><time>2026-04-05T10:39:15.999Z</time></trkpt><trkpt lat="46.44172961499697" lon="19.348382125559052"><ele>125.0</ele><time>2026-04-05T10:39:16.999Z</time></trkpt><trkpt lat="46.441643559880816" lon="19.34823930571527"><ele>125.0</ele><time>2026-04-05T10:39:17.999Z</time></trkpt><trkpt lat="46.4415630490814" lon="19.348094100007142"><ele>125.0</ele><time>2026-04-05T10:39:18.999Z</time></trkpt><trkpt lat="46.44146730514563" lon="19.34798573809743"><ele>125.0</ele><time>2026-04-05T10:39:19.999Z</time></trkpt><trkpt lat="46.44137680228537" lon="19.347828651116334"><ele>125.0</ele><time>2026-04-05T10:39:20.999Z</time></trkpt><trkpt lat="46.44128494013943" lon="19.347679654312586"><ele>125.0</ele><time>2026-04-05T10:39:21.999Z</time></trkpt><trkpt lat="46.44120405238228" lon="19.347523193003102"><ele>125.0</ele><time>2026-04-05T10:39:22.999Z</time></trkpt><trkpt lat="46.44111906845998" lon="19.347357077466953"><ele>125.0</ele><time>2026-04-05T10:39:23.999Z</time></trkpt><trkpt lat="46.44103396219899" lon="19.347195836445838"><ele>124.5</ele><time>2026-04-05T10:39:24.999Z</time></trkpt><trkpt lat="46.44093410405843" lon="19.34704352481339"><ele>124.0</ele><time>2026-04-05T10:39:25.999Z</time></trkpt><trkpt lat="46.44084206967054" lon="19.346890141451976"><ele>123.5</ele><time>2026-04-05T10:39:26.999Z</time></trkpt><trkpt lat="46.44074502686656" lon="19.346737356582643"><ele>123.0</ele><time>2026-04-05T10:39:27.999Z</time></trkpt><trkpt lat="46.44064566583984" lon="19.346564950604627"><ele>123.0</ele><time>2026-04-05T10:39:28.999Z</time></trkpt><trkpt lat="46.440548928120336" lon="19.34640551033598"><ele>123.0</ele><time>2026-04-05T10:39:29.998Z</time></trkpt><trkpt lat="46.44045200891765" lon="19.346252389354326"><ele>123.0</ele><time>2026-04-05T10:39:30.998Z</time></trkpt><trkpt lat="46.44035506786703" lon="19.346102046904623"><ele>123.0</ele><time>2026-04-05T10:39:31.998Z</time></trkpt><trkpt lat="46.44025557583603" lon="19.34594489408867"><ele>123.25</ele><time>2026-04-05T10:39:32.998Z</time></trkpt><trkpt lat="46.44016140662206" lon="19.345782269663268"><ele>123.5</ele><time>2026-04-05T10:39:33.998Z</time></trkpt><trkpt lat="46.44007096620062" lon="19.345644174634"><ele>123.75</ele><time>2026-04-05T10:39:34.998Z</time></trkpt><trkpt lat="46.43998677764015" lon="19.345527269721362"><ele>124.0</ele><time>2026-04-05T10:39:35.998Z</time></trkpt><trkpt lat="46.439923834378035" lon="19.345414671654957"><ele>124.0</ele><time>2026-04-05T10:39:36.998Z</time></trkpt><trkpt lat="46.439852524120326" lon="19.345295303793336"><ele>124.0</ele><time>2026-04-05T10:39:37.998Z</time></trkpt><trkpt lat="46.439774274127494" lon="19.345164128175526"><ele>124.0</ele><time>2026-04-05T10:39:38.998Z</time></trkpt><trkpt lat="46.439697610564366" lon="19.345018919409913"><ele>124.0</ele><time>2026-04-05T10:39:39.998Z</time></trkpt><trkpt lat="46.439615797372845" lon="19.344868675266554"><ele>124.25</ele><time>2026-04-05T10:39:40.998Z</time></trkpt><trkpt lat="46.43953192640055" lon="19.34473333824576"><ele>124.5</ele><time>2026-04-05T10:39:41.998Z</time></trkpt><trkpt lat="46.43943782102259" lon="19.344620941223308"><ele>124.75</ele><time>2026-04-05T10:39:42.998Z</time></trkpt><trkpt lat="46.43935088515582" lon="19.34448803217493"><ele>125.0</ele><time>2026-04-05T10:39:43.998Z</time></trkpt><trkpt lat="46.43926513258863" lon="19.344350614408402"><ele>125.0</ele><time>2026-04-05T10:39:44.998Z</time></trkpt><trkpt lat="46.43918235423865" lon="19.344211897736503"><ele>125.0</ele><time>2026-04-05T10:39:45.998Z</time></trkpt><trkpt lat="46.43910533224757" lon="19.344072844670375"><ele>125.0</ele><time>2026-04-05T10:39:46.998Z</time></trkpt><trkpt lat="46.43902019515849" lon="19.343943301442398"><ele>125.0</ele><time>2026-04-05T10:39:47.998Z</time></trkpt><trkpt lat="46.43893821372806" lon="19.343808752359266"><ele>124.75</ele><time>2026-04-05T10:39:48.998Z</time></trkpt><trkpt lat="46.4388506809066" lon="19.343669531921986"><ele>124.5</ele><time>2026-04-05T10:39:49.998Z</time></trkpt><trkpt lat="46.43876916497527" lon="19.343536865198985"><ele>124.25</ele><time>2026-04-05T10:39:50.998Z</time></trkpt><trkpt lat="46.438691627319265" lon="19.343408895419312"><ele>124.0</ele><time>2026-04-05T10:39:51.998Z</time></trkpt><trkpt lat="46.43861593903965" lon="19.343283617810584"><ele>124.50000000000001</ele><time>2026-04-05T10:39:52.998Z</time></trkpt><trkpt lat="46.438536521396195" lon="19.343184467257625"><ele>125.0</ele><time>2026-04-05T10:39:53.998Z</time></trkpt><trkpt lat="46.43847076596788" lon="19.343089542773033"><ele>125.5</ele><time>2026-04-05T10:39:54.998Z</time></trkpt><trkpt lat="46.43841997163184" lon="19.342995110452193"><ele>126.0</ele><time>2026-04-05T10:39:55.998Z</time></trkpt><trkpt lat="46.43837601255687" lon="19.342896053629364"><ele>126.50000000000001</ele><time>2026-04-05T10:39:56.998Z</time></trkpt><trkpt lat="46.43832399773281" lon="19.34281757680241"><ele>127.0</ele><time>2026-04-05T10:39:57.998Z</time></trkpt><trkpt lat="46.43819367294701" lon="19.342818287038945"><ele>127.0</ele><time>2026-04-05T10:39:59.998Z</time></trkpt><trkpt lat="46.438111977440414" lon="19.34284385408962"><ele>126.99999999999999</ele><time>2026-04-05T10:40:00.998Z</time></trkpt><trkpt lat="46.43802932036419" lon="19.34285129248767"><ele>126.99999999999999</ele><time>2026-04-05T10:40:01.998Z</time></trkpt><trkpt lat="46.43793589362234" lon="19.342829905396496"><ele>127.0</ele><time>2026-04-05T10:40:02.998Z</time></trkpt><trkpt lat="46.437848607199584" lon="19.342768735214356"><ele>127.0</ele><time>2026-04-05T10:40:03.998Z</time></trkpt><trkpt lat="46.43775045718068" lon="19.34272148014373"><ele>127.0</ele><time>2026-04-05T10:40:04.998Z</time></trkpt><trkpt lat="46.43764854634706" lon="19.34267090063106"><ele>127.0</ele><time>2026-04-05T10:40:05.998Z</time></trkpt><trkpt lat="46.43752596402289" lon="19.342632809945858"><ele>127.0</ele><time>2026-04-05T10:40:06.998Z</time></trkpt><trkpt lat="46.43741175122196" lon="19.34260393168816"><ele>127.0</ele><time>2026-04-05T10:40:07.999Z</time></trkpt><trkpt lat="46.43730088883429" lon="19.342577974679315"><ele>127.0</ele><time>2026-04-05T10:40:08.999Z</time></trkpt><trkpt lat="46.4371661584297" lon="19.342558628930984"><ele>127.0</ele><time>2026-04-05T10:40:09.999Z</time></trkpt><trkpt lat="46.43703731722805" lon="19.342542620739763"><ele>127.0</ele><time>2026-04-05T10:40:10.999Z</time></trkpt><trkpt lat="46.43690959690936" lon="19.342525613793647"><ele>127.0</ele><time>2026-04-05T10:40:11.999Z</time></trkpt><trkpt lat="46.43677758519745" lon="19.342506662303116"><ele>126.5</ele><time>2026-04-05T10:40:12.999Z</time></trkpt><trkpt lat="46.43664351374646" lon="19.34248553036685"><ele>126.0</ele><time>2026-04-05T10:40:13.999Z</time></trkpt><trkpt lat="46.43650616138486" lon="19.342471774909274"><ele>125.5</ele><time>2026-04-05T10:40:14.999Z</time></trkpt><trkpt lat="46.436363919260174" lon="19.342464578628675"><ele>125.0</ele><time>2026-04-05T10:40:15.999Z</time></trkpt><trkpt lat="46.43622113682527" lon="19.34245564264097"><ele>124.75</ele><time>2026-04-05T10:40:16.999Z</time></trkpt><trkpt lat="46.436090429568175" lon="19.342444724483226"><ele>124.5</ele><time>2026-04-05T10:40:17.999Z</time></trkpt><trkpt lat="46.4359719097757" lon="19.342437748701407"><ele>124.25</ele><time>2026-04-05T10:40:18.999Z</time></trkpt><trkpt lat="46.43585476632669" lon="19.342411599002673"><ele>124.0</ele><time>2026-04-05T10:40:19.999Z</time></trkpt><trkpt lat="46.43573625462035" lon="19.342382414417745"><ele>124.0</ele><time>2026-04-05T10:40:20.999Z</time></trkpt><trkpt lat="46.43560662864354" lon="19.342364101993383"><ele>124.0</ele><time>2026-04-05T10:40:21.999Z</time></trkpt><trkpt lat="46.43547678968347" lon="19.34234004425403"><ele>124.0</ele><time>2026-04-05T10:40:22.999Z</time></trkpt><trkpt lat="46.43534565124706" lon="19.342316986358302"><ele>124.0</ele><time>2026-04-05T10:40:23.999Z</time></trkpt><trkpt lat="46.43521872156394" lon="19.34230120055585"><ele>124.25</ele><time>2026-04-05T10:40:24.999Z</time></trkpt><trkpt lat="46.43508822896883" lon="19.342290209319657"><ele>124.5</ele><time>2026-04-05T10:40:25.999Z</time></trkpt><trkpt lat="46.43495734595319" lon="19.342275375389246"><ele>124.75</ele><time>2026-04-05T10:40:26.999Z</time></trkpt><trkpt lat="46.43481907820352" lon="19.342258933002416"><ele>125.0</ele><time>2026-04-05T10:40:27.999Z</time></trkpt><trkpt lat="46.434682031715056" lon="19.342261228255232"><ele>125.25</ele><time>2026-04-05T10:40:28.999Z</time></trkpt><trkpt lat="46.43455351607372" lon="19.342248400245683"><ele>125.5</ele><time>2026-04-05T10:40:29.999Z</time></trkpt><trkpt lat="46.434424967959814" lon="19.342235830652186"><ele>125.75</ele><time>2026-04-05T10:40:30.999Z</time></trkpt><trkpt lat="46.43430094638506" lon="19.34222322633373"><ele>126.0</ele><time>2026-04-05T10:40:31.999Z</time></trkpt><trkpt lat="46.43417712440095" lon="19.342203208661772"><ele>125.75</ele><time>2026-04-05T10:40:32.999Z</time></trkpt><trkpt lat="46.43405847128645" lon="19.342175144073252"><ele>125.5</ele><time>2026-04-05T10:40:33.999Z</time></trkpt><trkpt lat="46.43393978812738" lon="19.342128458519596"><ele>125.25</ele><time>2026-04-05T10:40:34.999Z</time></trkpt><trkpt lat="46.43382997711282" lon="19.34205733633507"><ele>125.0</ele><time>2026-04-05T10:40:35.999Z</time></trkpt><trkpt lat="46.4337295866678" lon="19.341978957265777"><ele>125.0</ele><time>2026-04-05T10:40:36.999Z</time></trkpt><trkpt lat="46.433623710189664" lon="19.34190947675246"><ele>125.0</ele><time>2026-04-05T10:40:37.999Z</time></trkpt><trkpt lat="46.433520788308634" lon="19.3418641067929"><ele>125.0</ele><time>2026-04-05T10:40:38.999Z</time></trkpt><trkpt lat="46.433430412571255" lon="19.34182200330586"><ele>125.0</ele><time>2026-04-05T10:40:39.999Z</time></trkpt><trkpt lat="46.43335723935888" lon="19.341747394945976"><ele>125.0</ele><time>2026-04-05T10:40:40.999Z</time></trkpt><trkpt lat="46.43328441250901" lon="19.341655324159184"><ele>125.0</ele><time>2026-04-05T10:40:41.999Z</time></trkpt><trkpt lat="46.43321545814021" lon="19.34154767130592"><ele>125.0</ele><time>2026-04-05T10:40:42.999Z</time></trkpt><trkpt lat="46.43314567276667" lon="19.341437333948594"><ele>125.0</ele><time>2026-04-05T10:40:43.999Z</time></trkpt><trkpt lat="46.433091027653624" lon="19.341319601829834"><ele>125.0</ele><time>2026-04-05T10:40:44.999Z</time></trkpt><trkpt lat="46.433025339546646" lon="19.341208797474508"><ele>125.0</ele><time>2026-04-05T10:40:45.999Z</time></trkpt><trkpt lat="46.43295871812636" lon="19.341093545467363"><ele>126.25</ele><time>2026-04-05T10:40:46.999Z</time></trkpt><trkpt lat="46.43288257792121" lon="19.340977051702268"><ele>127.5</ele><time>2026-04-05T10:40:47.999Z</time></trkpt><trkpt lat="46.432802161750786" lon="19.340865621238923"><ele>128.75</ele><time>2026-04-05T10:40:48.999Z</time></trkpt><trkpt lat="46.43271579266768" lon="19.340753080074535"><ele>130.0</ele><time>2026-04-05T10:40:49.999Z</time></trkpt><trkpt lat="46.43262153622909" lon="19.340640879940963"><ele>130.0</ele><time>2026-04-05T10:40:50.999Z</time></trkpt><trkpt lat="46.43252636438164" lon="19.340525069680066"><ele>130.0</ele><time>2026-04-05T10:40:51.999Z</time></trkpt><trkpt lat="46.43242440094764" lon="19.34041187441073"><ele>130.0</ele><time>2026-04-05T10:40:52.999Z</time></trkpt><trkpt lat="46.43232441875293" lon="19.340295751515914"><ele>130.0</ele><time>2026-04-05T10:40:53.999Z</time></trkpt><trkpt lat="46.43222389672932" lon="19.34017069775858"><ele>130.5</ele><time>2026-04-05T10:40:54.999Z</time></trkpt><trkpt lat="46.432122970155795" lon="19.340053028626965"><ele>131.0</ele><time>2026-04-05T10:40:55.999Z</time></trkpt><trkpt lat="46.432037262092415" lon="19.33993491851115"><ele>131.5</ele><time>2026-04-05T10:40:56.999Z</time></trkpt><trkpt lat="46.431950310823574" lon="19.33981897740829"><ele>132.0</ele><time>2026-04-05T10:40:57.999Z</time></trkpt><trkpt lat="46.431866258298136" lon="19.339707689926335"><ele>132.0</ele><time>2026-04-05T10:40:58.999Z</time></trkpt><trkpt lat="46.431774135855164" lon="19.339596212762114"><ele>132.0</ele><time>2026-04-05T10:40:59.999Z</time></trkpt><trkpt lat="46.431689936804574" lon="19.339469575122838"><ele>132.0</ele><time>2026-04-05T10:41:00.999Z</time></trkpt><trkpt lat="46.43160094251637" lon="19.339338928944432"><ele>132.0</ele><time>2026-04-05T10:41:01.999Z</time></trkpt><trkpt lat="46.431508471269346" lon="19.33921617347929"><ele>132.0</ele><time>2026-04-05T10:41:02.999Z</time></trkpt><trkpt lat="46.4314098950667" lon="19.339090501778532"><ele>132.0</ele><time>2026-04-05T10:41:03.999Z</time></trkpt><trkpt lat="46.43132025214969" lon="19.338954557526424"><ele>132.0</ele><time>2026-04-05T10:41:04.999Z</time></trkpt><trkpt lat="46.43122264910825" lon="19.338828116114787"><ele>132.0</ele><time>2026-04-05T10:41:05.999Z</time></trkpt><trkpt lat="46.431121846460876" lon="19.33870997237827"><ele>131.5</ele><time>2026-04-05T10:41:06.999Z</time></trkpt><trkpt lat="46.431027396905826" lon="19.338576519075822"><ele>131.0</ele><time>2026-04-05T10:41:07.999Z</time></trkpt><trkpt lat="46.430936509619805" lon="19.338450369339007"><ele>130.5</ele><time>2026-04-05T10:41:08.999Z</time></trkpt><trkpt lat="46.43085249670968" lon="19.338335898807372"><ele>130.0</ele><time>2026-04-05T10:41:09.999Z</time></trkpt><trkpt lat="46.430762376957176" lon="19.338228160798625"><ele>130.0</ele><time>2026-04-05T10:41:10.999Z</time></trkpt><trkpt lat="46.430670795241944" lon="19.338111922429583"><ele>130.0</ele><time>2026-04-05T10:41:11.999Z</time></trkpt><trkpt lat="46.430580448791304" lon="19.337991296427187"><ele>130.0</ele><time>2026-04-05T10:41:12.999Z</time></trkpt><trkpt lat="46.43048996940837" lon="19.33786683668907"><ele>130.0</ele><time>2026-04-05T10:41:13.999Z</time></trkpt><trkpt lat="46.43039631862235" lon="19.337741058552453"><ele>130.0</ele><time>2026-04-05T10:41:14.999Z</time></trkpt><trkpt lat="46.43030275294665" lon="19.337614174184566"><ele>130.0</ele><time>2026-04-05T10:41:15.999Z</time></trkpt><trkpt lat="46.43020952925155" lon="19.337488487169814"><ele>130.0</ele><time>2026-04-05T10:41:16.999Z</time></trkpt><trkpt lat="46.43011859133547" lon="19.337354421729028"><ele>130.0</ele><time>2026-04-05T10:41:17.999Z</time></trkpt><trkpt lat="46.430015119023" lon="19.337221680747703"><ele>130.25</ele><time>2026-04-05T10:41:18.999Z</time></trkpt><trkpt lat="46.429915881412775" lon="19.33708749908504"><ele>130.5</ele><time>2026-04-05T10:41:19.999Z</time></trkpt><trkpt lat="46.42982330065779" lon="19.336955134097046"><ele>130.75</ele><time>2026-04-05T10:41:20.999Z</time></trkpt><trkpt lat="46.429727856034624" lon="19.33682455157098"><ele>131.0</ele><time>2026-04-05T10:41:21.999Z</time></trkpt><trkpt lat="46.429630613643724" lon="19.336693888101166"><ele>131.25</ele><time>2026-04-05T10:41:22.999Z</time></trkpt><trkpt lat="46.429526621634025" lon="19.33657146612974"><ele>131.5</ele><time>2026-04-05T10:41:23.999Z</time></trkpt><trkpt lat="46.42942053215616" lon="19.336450342874933"><ele>131.75</ele><time>2026-04-05T10:41:24.999Z</time></trkpt><trkpt lat="46.42932960074015" lon="19.336328316685808"><ele>132.0</ele><time>2026-04-05T10:41:25.999Z</time></trkpt><trkpt lat="46.42925519016964" lon="19.336211178220374"><ele>132.2</ele><time>2026-04-05T10:41:26.999Z</time></trkpt><trkpt lat="46.429180090696384" lon="19.336105628148797"><ele>132.39999999999998</ele><time>2026-04-05T10:41:27.999Z</time></trkpt><trkpt lat="46.42912710437137" lon="19.33600055365302"><ele>132.60000000000002</ele><time>2026-04-05T10:41:28.998Z</time></trkpt><trkpt lat="46.429070684545025" lon="19.3358819282597"><ele>132.8</ele><time>2026-04-05T10:41:29.998Z</time></trkpt><trkpt lat="46.429006152288046" lon="19.33577548612848"><ele>133.0</ele><time>2026-04-05T10:41:30.998Z</time></trkpt><trkpt lat="46.42891676919772" lon="19.33567842698733"><ele>133.0</ele><time>2026-04-05T10:41:31.998Z</time></trkpt><trkpt lat="46.42883039317269" lon="19.33558795501581"><ele>133.0</ele><time>2026-04-05T10:41:32.998Z</time></trkpt><trkpt lat="46.42875575191954" lon="19.335478070157635"><ele>133.0</ele><time>2026-04-05T10:41:33.998Z</time></trkpt><trkpt lat="46.42867261614984" lon="19.335359496060356"><ele>133.0</ele><time>2026-04-05T10:41:34.998Z</time></trkpt><trkpt lat="46.42858045392431" lon="19.33524878525001"><ele>133.0</ele><time>2026-04-05T10:41:35.998Z</time></trkpt><trkpt lat="46.42849266203173" lon="19.33513669084403"><ele>132.5</ele><time>2026-04-05T10:41:36.998Z</time></trkpt><trkpt lat="46.42840035608876" lon="19.335022259990154"><ele>132.0</ele><time>2026-04-05T10:41:37.998Z</time></trkpt><trkpt lat="46.42832030211219" lon="19.334881109051928"><ele>131.5</ele><time>2026-04-05T10:41:38.998Z</time></trkpt><trkpt lat="46.428233001201164" lon="19.334736939211542"><ele>131.0</ele><time>2026-04-05T10:41:39.998Z</time></trkpt><trkpt lat="46.42814694568313" lon="19.334601018959493"><ele>131.0</ele><time>2026-04-05T10:41:40.998Z</time></trkpt><trkpt lat="46.42805907960971" lon="19.334462930263516"><ele>131.0</ele><time>2026-04-05T10:41:41.998Z</time></trkpt><trkpt lat="46.427971398406505" lon="19.334330406263433"><ele>131.0</ele><time>2026-04-05T10:41:42.998Z</time></trkpt><trkpt lat="46.427870129895446" lon="19.33422329768357"><ele>131.0</ele><time>2026-04-05T10:41:43.998Z</time></trkpt><trkpt lat="46.427776156277886" lon="19.33412246386664"><ele>131.0</ele><time>2026-04-05T10:41:44.998Z</time></trkpt><trkpt lat="46.42768240509405" lon="19.334000145702777"><ele>131.0</ele><time>2026-04-05T10:41:45.998Z</time></trkpt><trkpt lat="46.427614617889205" lon="19.33387130693515"><ele>131.0</ele><time>2026-04-05T10:41:46.998Z</time></trkpt><trkpt lat="46.427553634359896" lon="19.333755313621772"><ele>131.0</ele><time>2026-04-05T10:41:47.998Z</time></trkpt><trkpt lat="46.42745999876045" lon="19.333658778062485"><ele>131.25</ele><time>2026-04-05T10:41:48.998Z</time></trkpt><trkpt lat="46.427370694087706" lon="19.333566984970602"><ele>131.5</ele><time>2026-04-05T10:41:49.998Z</time></trkpt><trkpt lat="46.4272782967112" lon="19.333428992564006"><ele>131.75</ele><time>2026-04-05T10:41:50.998Z</time></trkpt><trkpt lat="46.42718630043727" lon="19.333277794127977"><ele>132.0</ele><time>2026-04-05T10:41:51.998Z</time></trkpt><trkpt lat="46.42708627450585" lon="19.333145582764484"><ele>132.0</ele><time>2026-04-05T10:41:52.998Z</time></trkpt><trkpt lat="46.42699356829292" lon="19.333027090395547"><ele>132.0</ele><time>2026-04-05T10:41:53.998Z</time></trkpt><trkpt lat="46.42688996893592" lon="19.33291573333006"><ele>132.0</ele><time>2026-04-05T10:41:54.998Z</time></trkpt><trkpt lat="46.426791360274" lon="19.332758641155458"><ele>132.0</ele><time>2026-04-05T10:41:55.998Z</time></trkpt><trkpt lat="46.42670957151083" lon="19.33262851101879"><ele>132.0</ele><time>2026-04-05T10:41:56.998Z</time></trkpt><trkpt lat="46.42660844511943" lon="19.332487770649646"><ele>132.0</ele><time>2026-04-05T10:41:57.998Z</time></trkpt><trkpt lat="46.42650592383976" lon="19.332358629746192"><ele>132.0</ele><time>2026-04-05T10:41:58.998Z</time></trkpt><trkpt lat="46.4263897014834" lon="19.332232028852662"><ele>132.0</ele><time>2026-04-05T10:41:59.998Z</time></trkpt><trkpt lat="46.42629730265203" lon="19.3321102978229"><ele>132.5</ele><time>2026-04-05T10:42:00.998Z</time></trkpt><trkpt lat="46.42619579582411" lon="19.33199023261739"><ele>133.0</ele><time>2026-04-05T10:42:01.998Z</time></trkpt><trkpt lat="46.426095264423665" lon="19.33187986054692"><ele>133.5</ele><time>2026-04-05T10:42:02.998Z</time></trkpt><trkpt lat="46.4260054918742" lon="19.33177685292217"><ele>134.0</ele><time>2026-04-05T10:42:03.998Z</time></trkpt><trkpt lat="46.42592749644683" lon="19.331628817053158"><ele>134.0</ele><time>2026-04-05T10:42:04.998Z</time></trkpt><trkpt lat="46.42583769207981" lon="19.331491116922177"><ele>134.0</ele><time>2026-04-05T10:42:05.998Z</time></trkpt><trkpt lat="46.425738869451045" lon="19.331355638285373"><ele>134.0</ele><time>2026-04-05T10:42:06.998Z</time></trkpt><trkpt lat="46.42564587460645" lon="19.331218583910434"><ele>134.0</ele><time>2026-04-05T10:42:07.998Z</time></trkpt><trkpt lat="46.4255450343126" lon="19.33108094304115"><ele>133.75</ele><time>2026-04-05T10:42:08.998Z</time></trkpt><trkpt lat="46.42542795165631" lon="19.330967380912675"><ele>133.5</ele><time>2026-04-05T10:42:09.998Z</time></trkpt><trkpt lat="46.42532872675453" lon="19.33084494850461"><ele>133.25</ele><time>2026-04-05T10:42:10.998Z</time></trkpt><trkpt lat="46.425241660622056" lon="19.33071296931511"><ele>133.0</ele><time>2026-04-05T10:42:11.998Z</time></trkpt><trkpt lat="46.42515372016534" lon="19.330579468423835"><ele>133.25</ele><time>2026-04-05T10:42:12.998Z</time></trkpt><trkpt lat="46.42506773717965" lon="19.330427769828876"><ele>133.5</ele><time>2026-04-05T10:42:13.999Z</time></trkpt><trkpt lat="46.42499297130825" lon="19.330281037912997"><ele>133.75</ele><time>2026-04-05T10:42:14.999Z</time></trkpt><trkpt lat="46.424908568920735" lon="19.330170500123355"><ele>134.0</ele><time>2026-04-05T10:42:15.999Z</time></trkpt><trkpt lat="46.424803994414866" lon="19.3300560591286"><ele>134.0</ele><time>2026-04-05T10:42:16.999Z</time></trkpt><trkpt lat="46.42471376337922" lon="19.329930078554796"><ele>134.0</ele><time>2026-04-05T10:42:17.999Z</time></trkpt><trkpt lat="46.424613635666695" lon="19.329782904337982"><ele>134.0</ele><time>2026-04-05T10:42:18.999Z</time></trkpt><trkpt lat="46.42452187239559" lon="19.329636681733085"><ele>134.0</ele><time>2026-04-05T10:42:19.999Z</time></trkpt><trkpt lat="46.42442799522428" lon="19.329512551543377"><ele>133.5</ele><time>2026-04-05T10:42:20.999Z</time></trkpt><trkpt lat="46.42433726377755" lon="19.329389130569556"><ele>133.0</ele><time>2026-04-05T10:42:21.999Z</time></trkpt><trkpt lat="46.424254172488915" lon="19.329262324206315"><ele>132.5</ele><time>2026-04-05T10:42:22.999Z</time></trkpt><trkpt lat="46.42417293205727" lon="19.329141744185385"><ele>132.0</ele><time>2026-04-05T10:42:23.999Z</time></trkpt><trkpt lat="46.4240906636794" lon="19.329021547850985"><ele>132.0</ele><time>2026-04-05T10:42:24.999Z</time></trkpt><trkpt lat="46.42400487553112" lon="19.328905437421223"><ele>132.0</ele><time>2026-04-05T10:42:25.999Z</time></trkpt><trkpt lat="46.42392027402248" lon="19.328787610668876"><ele>132.0</ele><time>2026-04-05T10:42:26.999Z</time></trkpt><trkpt lat="46.4238342052388" lon="19.328669312564255"><ele>132.0</ele><time>2026-04-05T10:42:27.999Z</time></trkpt><trkpt lat="46.42374296144978" lon="19.328559694095777"><ele>132.0</ele><time>2026-04-05T10:42:28.999Z</time></trkpt><trkpt lat="46.423646382272686" lon="19.32846066316294"><ele>132.0</ele><time>2026-04-05T10:42:29.999Z</time></trkpt><trkpt lat="46.4235535676109" lon="19.328352943279356"><ele>132.0</ele><time>2026-04-05T10:42:30.999Z</time></trkpt><trkpt lat="46.423468026736444" lon="19.328234153211323"><ele>132.0</ele><time>2026-04-05T10:42:31.999Z</time></trkpt><trkpt lat="46.423376778015104" lon="19.328101597301"><ele>132.0</ele><time>2026-04-05T10:42:32.999Z</time></trkpt><trkpt lat="46.423291881772535" lon="19.327971939454905"><ele>132.0</ele><time>2026-04-05T10:42:33.999Z</time></trkpt><trkpt lat="46.423238607586256" lon="19.327893552248504"><ele>132.0</ele><time>2026-04-05T10:42:34.999Z</time></trkpt><trkpt lat="46.423150027462974" lon="19.327766967936086"><ele>132.0</ele><time>2026-04-05T10:42:35.999Z</time></trkpt><trkpt lat="46.42306395153686" lon="19.327638159798443"><ele>132.0</ele><time>2026-04-05T10:42:36.999Z</time></trkpt><trkpt lat="46.42296995402914" lon="19.327537480183846"><ele>132.0</ele><time>2026-04-05T10:42:37.999Z</time></trkpt><trkpt lat="46.4229002596956" lon="19.327396415599896"><ele>132.0</ele><time>2026-04-05T10:42:38.999Z</time></trkpt><trkpt lat="46.42281400591819" lon="19.32726362329351"><ele>132.0</ele><time>2026-04-05T10:42:39.999Z</time></trkpt><trkpt lat="46.42271754157129" lon="19.327139813958173"><ele>132.0</ele><time>2026-04-05T10:42:40.999Z</time></trkpt><trkpt lat="46.422628760177574" lon="19.32701823819781"><ele>131.75</ele><time>2026-04-05T10:42:41.999Z</time></trkpt><trkpt lat="46.422540713282245" lon="19.326900879493966"><ele>131.5</ele><time>2026-04-05T10:42:42.999Z</time></trkpt><trkpt lat="46.422458007017276" lon="19.3267609641484"><ele>131.25</ele><time>2026-04-05T10:42:43.999Z</time></trkpt><trkpt lat="46.42237271399174" lon="19.326635175774573"><ele>131.0</ele><time>2026-04-05T10:42:44.999Z</time></trkpt><trkpt lat="46.422295646658675" lon="19.326501144444993"><ele>131.0</ele><time>2026-04-05T10:42:45.999Z</time></trkpt><trkpt lat="46.42219940296844" lon="19.32638536320808"><ele>131.0</ele><time>2026-04-05T10:42:46.999Z</time></trkpt><trkpt lat="46.42210525413255" lon="19.326259011292827"><ele>131.0</ele><time>2026-04-05T10:42:47.999Z</time></trkpt><trkpt lat="46.42201136175423" lon="19.326125034025907"><ele>131.0</ele><time>2026-04-05T10:42:48.999Z</time></trkpt><trkpt lat="46.421930747783506" lon="19.325985923966932"><ele>131.0</ele><time>2026-04-05T10:42:49.999Z</time></trkpt><trkpt lat="46.421842457680576" lon="19.325872089176038"><ele>131.0</ele><time>2026-04-05T10:42:50.999Z</time></trkpt><trkpt lat="46.421747832783566" lon="19.325755420300183"><ele>131.0</ele><time>2026-04-05T10:42:51.999Z</time></trkpt><trkpt lat="46.42164198324184" lon="19.325636905364487"><ele>131.0</ele><time>2026-04-05T10:42:52.999Z</time></trkpt><trkpt lat="46.42153340359065" lon="19.325512963098785"><ele>131.5</ele><time>2026-04-05T10:42:53.999Z</time></trkpt><trkpt lat="46.421433658626924" lon="19.325382473126403"><ele>132.0</ele><time>2026-04-05T10:42:54.999Z</time></trkpt><trkpt lat="46.4213364039515" lon="19.325247746936693"><ele>132.5</ele><time>2026-04-05T10:42:55.999Z</time></trkpt><trkpt lat="46.421242125926554" lon="19.325115068252018"><ele>133.0</ele><time>2026-04-05T10:42:56.999Z</time></trkpt><trkpt lat="46.42114703799532" lon="19.325000138940585"><ele>133.5</ele><time>2026-04-05T10:42:57.999Z</time></trkpt><trkpt lat="46.421047919113235" lon="19.32487894490232"><ele>134.0</ele><time>2026-04-05T10:42:58.999Z</time></trkpt><trkpt lat="46.42096399811882" lon="19.32474953661709"><ele>134.5</ele><time>2026-04-05T10:42:59.999Z</time></trkpt><trkpt lat="46.42088489361623" lon="19.324623393840362"><ele>135.0</ele><time>2026-04-05T10:43:00.999Z</time></trkpt><trkpt lat="46.42078787597558" lon="19.324500124057337"><ele>135.0</ele><time>2026-04-05T10:43:01.999Z</time></trkpt><trkpt lat="46.420687090836715" lon="19.32435215349947"><ele>135.0</ele><time>2026-04-05T10:43:02.999Z</time></trkpt><trkpt lat="46.420600572450496" lon="19.324229689174913"><ele>135.0</ele><time>2026-04-05T10:43:03.999Z</time></trkpt><trkpt lat="46.42052019262382" lon="19.3241234072138"><ele>135.0</ele><time>2026-04-05T10:43:04.999Z</time></trkpt><trkpt lat="46.4204441709514" lon="19.3240124210401"><ele>134.75</ele><time>2026-04-05T10:43:05.999Z</time></trkpt><trkpt lat="46.420374566740854" lon="19.323899356663247"><ele>134.5</ele><time>2026-04-05T10:43:06.999Z</time></trkpt><trkpt lat="46.420310320472765" lon="19.32375715639461"><ele>134.25</ele><time>2026-04-05T10:43:07.999Z</time></trkpt><trkpt lat="46.42025055978187" lon="19.323597549015048"><ele>134.0</ele><time>2026-04-05T10:43:08.999Z</time></trkpt><trkpt lat="46.420188910360935" lon="19.32345095645871"><ele>134.0</ele><time>2026-04-05T10:43:09.999Z</time></trkpt><trkpt lat="46.42011430632913" lon="19.323312698549323"><ele>134.0</ele><time>2026-04-05T10:43:10.999Z</time></trkpt><trkpt lat="46.420037421334094" lon="19.32318202065559"><ele>134.0</ele><time>2026-04-05T10:43:11.999Z</time></trkpt><trkpt lat="46.41994708762421" lon="19.323059714004284"><ele>134.0</ele><time>2026-04-05T10:43:12.999Z</time></trkpt><trkpt lat="46.419859495237596" lon="19.32294219409535"><ele>134.5</ele><time>2026-04-05T10:43:13.999Z</time></trkpt><trkpt lat="46.419769226394955" lon="19.322823122267376"><ele>135.0</ele><time>2026-04-05T10:43:14.999Z</time></trkpt><trkpt lat="46.419682359389775" lon="19.322696094818923"><ele>135.5</ele><time>2026-04-05T10:43:15.999Z</time></trkpt><trkpt lat="46.41959770335975" lon="19.3225649069769"><ele>136.0</ele><time>2026-04-05T10:43:16.999Z</time></trkpt><trkpt lat="46.41950727080045" lon="19.322452899705976"><ele>136.0</ele><time>2026-04-05T10:43:17.999Z</time></trkpt><trkpt lat="46.41941493259144" lon="19.322331180389867"><ele>136.0</ele><time>2026-04-05T10:43:18.999Z</time></trkpt><trkpt lat="46.419320204567185" lon="19.32220280758276"><ele>136.0</ele><time>2026-04-05T10:43:19.999Z</time></trkpt><trkpt lat="46.41924273801219" lon="19.322115888987508"><ele>136.0</ele><time>2026-04-05T10:43:20.999Z</time></trkpt><trkpt lat="46.419171811915405" lon="19.32204379632567"><ele>136.0</ele><time>2026-04-05T10:43:21.999Z</time></trkpt><trkpt lat="46.419092806400926" lon="19.321998253881237"><ele>136.0</ele><time>2026-04-05T10:43:22.999Z</time></trkpt><trkpt lat="46.41902856348403" lon="19.321908796561434"><ele>136.0</ele><time>2026-04-05T10:43:23.999Z</time></trkpt><trkpt lat="46.4189523791835" lon="19.32179578296428"><ele>136.0</ele><time>2026-04-05T10:43:24.999Z</time></trkpt><trkpt lat="46.41888013156973" lon="19.321679544038023"><ele>136.0</ele><time>2026-04-05T10:43:25.999Z</time></trkpt><trkpt lat="46.41879014031877" lon="19.321558926122492"><ele>136.0</ele><time>2026-04-05T10:43:26.999Z</time></trkpt><trkpt lat="46.41868685496723" lon="19.321439564275614"><ele>136.0</ele><time>2026-04-05T10:43:27.999Z</time></trkpt><trkpt lat="46.41858276163747" lon="19.321308987141226"><ele>136.0</ele><time>2026-04-05T10:43:28.999Z</time></trkpt><trkpt lat="46.41847669318774" lon="19.321177180567574"><ele>136.0</ele><time>2026-04-05T10:43:29.999Z</time></trkpt><trkpt lat="46.41836462187684" lon="19.321045236037136"><ele>136.0</ele><time>2026-04-05T10:43:30.999Z</time></trkpt><trkpt lat="46.418243244844675" lon="19.320895133628312"><ele>136.0</ele><time>2026-04-05T10:43:31.999Z</time></trkpt><trkpt lat="46.418121299385895" lon="19.320740699522865"><ele>136.0</ele><time>2026-04-05T10:43:32.999Z</time></trkpt><trkpt lat="46.41801128517124" lon="19.32060158587176"><ele>136.0</ele><time>2026-04-05T10:43:33.999Z</time></trkpt><trkpt lat="46.41791230342208" lon="19.320471981530087"><ele>136.0</ele><time>2026-04-05T10:43:34.999Z</time></trkpt><trkpt lat="46.4178323138318" lon="19.320377611684517"><ele>135.75</ele><time>2026-04-05T10:43:35.999Z</time></trkpt><trkpt lat="46.41774758898318" lon="19.320268454929796"><ele>135.5</ele><time>2026-04-05T10:43:36.999Z</time></trkpt><trkpt lat="46.41765438813114" lon="19.320166556055263"><ele>135.25</ele><time>2026-04-05T10:43:37.999Z</time></trkpt><trkpt lat="46.417555601034536" lon="19.320054738939298"><ele>135.0</ele><time>2026-04-05T10:43:38.999Z</time></trkpt><trkpt lat="46.4174531434244" lon="19.3199361671066"><ele>135.0</ele><time>2026-04-05T10:43:39.998Z</time></trkpt><trkpt lat="46.41736397551384" lon="19.31981383473124"><ele>135.0</ele><time>2026-04-05T10:43:40.998Z</time></trkpt><trkpt lat="46.41726528735796" lon="19.319684190331355"><ele>135.0</ele><time>2026-04-05T10:43:41.998Z</time></trkpt><trkpt lat="46.41717423472725" lon="19.319561874138547"><ele>135.0</ele><time>2026-04-05T10:43:42.998Z</time></trkpt><trkpt lat="46.41707425093908" lon="19.31945289831669"><ele>135.0</ele><time>2026-04-05T10:43:43.998Z</time></trkpt><trkpt lat="46.4169931315771" lon="19.3193557250714"><ele>135.0</ele><time>2026-04-05T10:43:44.998Z</time></trkpt><trkpt lat="46.41690115439317" lon="19.31927228009231"><ele>135.0</ele><time>2026-04-05T10:43:45.998Z</time></trkpt><trkpt lat="46.416810781452654" lon="19.31919328679691"><ele>135.0</ele><time>2026-04-05T10:43:46.998Z</time></trkpt><trkpt lat="46.416735556945696" lon="19.31909321607153"><ele>135.0</ele><time>2026-04-05T10:43:47.998Z</time></trkpt><trkpt lat="46.41665416001822" lon="19.31896679744495"><ele>135.0</ele><time>2026-04-05T10:43:48.998Z</time></trkpt><trkpt lat="46.41657437656263" lon="19.318826183452583"><ele>135.0</ele><time>2026-04-05T10:43:49.998Z</time></trkpt><trkpt lat="46.41648360362998" lon="19.318697196441775"><ele>135.0</ele><time>2026-04-05T10:43:50.998Z</time></trkpt><trkpt lat="46.41640480754234" lon="19.318576738529533"><ele>135.0</ele><time>2026-04-05T10:43:51.998Z</time></trkpt><trkpt lat="46.41631877967079" lon="19.318435504333184"><ele>135.4</ele><time>2026-04-05T10:43:52.998Z</time></trkpt><trkpt lat="46.41622596802541" lon="19.3182975983418"><ele>135.8</ele><time>2026-04-05T10:43:53.998Z</time></trkpt><trkpt lat="46.41614345048119" lon="19.31817606384743"><ele>136.2</ele><time>2026-04-05T10:43:54.998Z</time></trkpt><trkpt lat="46.41606820620497" lon="19.318088127119143"><ele>136.6</ele><time>2026-04-05T10:43:55.998Z</time></trkpt><trkpt lat="46.41599720468535" lon="19.318000535743334"><ele>137.0</ele><time>2026-04-05T10:43:56.998Z</time></trkpt><trkpt lat="46.41592188898912" lon="19.317888298364927"><ele>137.0</ele><time>2026-04-05T10:43:57.998Z</time></trkpt><trkpt lat="46.415854328034676" lon="19.31776535334603"><ele>137.0</ele><time>2026-04-05T10:43:58.998Z</time></trkpt><trkpt lat="46.415782600540716" lon="19.317651628829154"><ele>137.0</ele><time>2026-04-05T10:43:59.998Z</time></trkpt><trkpt lat="46.41569494031224" lon="19.317547415553413"><ele>137.0</ele><time>2026-04-05T10:44:00.998Z</time></trkpt><trkpt lat="46.41561638444169" lon="19.317420325570932"><ele>137.0</ele><time>2026-04-05T10:44:01.998Z</time></trkpt><trkpt lat="46.41552069164603" lon="19.31728582669067"><ele>137.0</ele><time>2026-04-05T10:44:02.998Z</time></trkpt><trkpt lat="46.41542001515808" lon="19.317155309942123"><ele>137.0</ele><time>2026-04-05T10:44:03.998Z</time></trkpt><trkpt lat="46.41530750530888" lon="19.317029008976032"><ele>137.0</ele><time>2026-04-05T10:44:04.998Z</time></trkpt><trkpt lat="46.415212214905026" lon="19.31688760109644"><ele>137.0</ele><time>2026-04-05T10:44:05.998Z</time></trkpt><trkpt lat="46.415122020669614" lon="19.316751715331186"><ele>137.0</ele><time>2026-04-05T10:44:06.998Z</time></trkpt><trkpt lat="46.41503061548551" lon="19.31662880340968"><ele>137.0</ele><time>2026-04-05T10:44:07.998Z</time></trkpt><trkpt lat="46.414958284126804" lon="19.316509367699954"><ele>137.0</ele><time>2026-04-05T10:44:08.998Z</time></trkpt><trkpt lat="46.4148852932276" lon="19.31639351041779"><ele>137.0</ele><time>2026-04-05T10:44:09.998Z</time></trkpt><trkpt lat="46.414807211653425" lon="19.31627287510205"><ele>136.75</ele><time>2026-04-05T10:44:10.998Z</time></trkpt><trkpt lat="46.41472567096386" lon="19.316158004278495"><ele>136.5</ele><time>2026-04-05T10:44:11.998Z</time></trkpt><trkpt lat="46.41463510939663" lon="19.316040379156817"><ele>136.25</ele><time>2026-04-05T10:44:12.998Z</time></trkpt><trkpt lat="46.414551812847684" lon="19.3159185423538"><ele>136.0</ele><time>2026-04-05T10:44:13.998Z</time></trkpt><trkpt lat="46.414468740562484" lon="19.315798385786934"><ele>136.0</ele><time>2026-04-05T10:44:14.998Z</time></trkpt><trkpt lat="46.41438104387728" lon="19.3156871771911"><ele>136.0</ele><time>2026-04-05T10:44:15.998Z</time></trkpt><trkpt lat="46.414299275704664" lon="19.31554750659345"><ele>136.0</ele><time>2026-04-05T10:44:16.998Z</time></trkpt><trkpt lat="46.41420574780622" lon="19.315404808958252"><ele>136.0</ele><time>2026-04-05T10:44:17.998Z</time></trkpt><trkpt lat="46.41411883477843" lon="19.315273974544912"><ele>136.0</ele><time>2026-04-05T10:44:18.998Z</time></trkpt><trkpt lat="46.41401239043858" lon="19.3151473545905"><ele>136.0</ele><time>2026-04-05T10:44:19.999Z</time></trkpt><trkpt lat="46.41391697598038" lon="19.315005254841793"><ele>136.0</ele><time>2026-04-05T10:44:20.999Z</time></trkpt><trkpt lat="46.413817395585006" lon="19.314871891307174"><ele>136.0</ele><time>2026-04-05T10:44:21.999Z</time></trkpt><trkpt lat="46.413728686741536" lon="19.31473526211511"><ele>136.0</ele><time>2026-04-05T10:44:22.999Z</time></trkpt><trkpt lat="46.41362801881655" lon="19.31461048044393"><ele>136.0</ele><time>2026-04-05T10:44:23.999Z</time></trkpt><trkpt lat="46.41353250181128" lon="19.31449679909882"><ele>136.0</ele><time>2026-04-05T10:44:24.999Z</time></trkpt><trkpt lat="46.413450524819154" lon="19.314379093118212"><ele>136.0</ele><time>2026-04-05T10:44:25.999Z</time></trkpt><trkpt lat="46.413349709638325" lon="19.314257872241175"><ele>136.0</ele><time>2026-04-05T10:44:26.999Z</time></trkpt><trkpt lat="46.41326385838929" lon="19.314130160396836"><ele>136.0</ele><time>2026-04-05T10:44:27.999Z</time></trkpt><trkpt lat="46.41319107571493" lon="19.313996852911536"><ele>136.0</ele><time>2026-04-05T10:44:28.999Z</time></trkpt><trkpt lat="46.41309838189455" lon="19.313863819801888"><ele>136.0</ele><time>2026-04-05T10:44:29.999Z</time></trkpt><trkpt lat="46.41299772633739" lon="19.313747925919824"><ele>136.5</ele><time>2026-04-05T10:44:30.999Z</time></trkpt><trkpt lat="46.41290092707977" lon="19.31361828599424"><ele>137.0</ele><time>2026-04-05T10:44:31.999Z</time></trkpt><trkpt lat="46.41280217598107" lon="19.313480651614743"><ele>137.5</ele><time>2026-04-05T10:44:33Z</time></trkpt><trkpt lat="46.41271060690841" lon="19.313353161397696"><ele>138.0</ele><time>2026-04-05T10:44:34Z</time></trkpt><trkpt lat="46.41261992778774" lon="19.31325229116932"><ele>138.0</ele><time>2026-04-05T10:44:35Z</time></trkpt><trkpt lat="46.41253548322755" lon="19.31314393577534"><ele>138.0</ele><time>2026-04-05T10:44:36Z</time></trkpt><trkpt lat="46.41245211091931" lon="19.31302773938604"><ele>138.0</ele><time>2026-04-05T10:44:37Z</time></trkpt><trkpt lat="46.412373959874806" lon="19.31290949825411"><ele>138.0</ele><time>2026-04-05T10:44:38Z</time></trkpt><trkpt lat="46.41229298090558" lon="19.31280290741234"><ele>138.25</ele><time>2026-04-05T10:44:39Z</time></trkpt><trkpt lat="46.41220072239925" lon="19.312693177703178"><ele>138.5</ele><time>2026-04-05T10:44:39.999Z</time></trkpt><trkpt lat="46.41211656432024" lon="19.312560931184613"><ele>138.75</ele><time>2026-04-05T10:44:40.999Z</time></trkpt><trkpt lat="46.41202802010795" lon="19.312436561943986"><ele>139.0</ele><time>2026-04-05T10:44:41.999Z</time></trkpt><trkpt lat="46.41193847153871" lon="19.312316116760897"><ele>138.0</ele><time>2026-04-05T10:44:42.999Z</time></trkpt><trkpt lat="46.41185213105989" lon="19.312196252732335"><ele>137.0</ele><time>2026-04-05T10:44:43.999Z</time></trkpt><trkpt lat="46.41175980438802" lon="19.312063210520854"><ele>136.0</ele><time>2026-04-05T10:44:44.999Z</time></trkpt><trkpt lat="46.41167198284298" lon="19.31192229719921"><ele>135.0</ele><time>2026-04-05T10:44:45.999Z</time></trkpt><trkpt lat="46.41158399043577" lon="19.311794450845813"><ele>135.0</ele><time>2026-04-05T10:44:46.999Z</time></trkpt><trkpt lat="46.4115000227042" lon="19.31167132714528"><ele>135.0</ele><time>2026-04-05T10:44:47.999Z</time></trkpt><trkpt lat="46.41141472206483" lon="19.31156642587091"><ele>135.0</ele><time>2026-04-05T10:44:48.999Z</time></trkpt><trkpt lat="46.411328442660306" lon="19.311435137509537"><ele>135.0</ele><time>2026-04-05T10:44:49.999Z</time></trkpt><trkpt lat="46.411245386864145" lon="19.311304497054383"><ele>135.5</ele><time>2026-04-05T10:44:50.999Z</time></trkpt><trkpt lat="46.411157567734485" lon="19.31117947542594"><ele>136.0</ele><time>2026-04-05T10:44:51.999Z</time></trkpt><trkpt lat="46.41106690100891" lon="19.31106782496841"><ele>136.5</ele><time>2026-04-05T10:44:52.999Z</time></trkpt><trkpt lat="46.410978679597726" lon="19.310953607078527"><ele>137.0</ele><time>2026-04-05T10:44:53.999Z</time></trkpt><trkpt lat="46.410891192295345" lon="19.310836026980233"><ele>137.0</ele><time>2026-04-05T10:44:54.999Z</time></trkpt><trkpt lat="46.410804575089166" lon="19.310714893200807"><ele>137.0</ele><time>2026-04-05T10:44:55.999Z</time></trkpt><trkpt lat="46.41072006196172" lon="19.310587183735233"><ele>137.0</ele><time>2026-04-05T10:44:56.999Z</time></trkpt><trkpt lat="46.4106405083219" lon="19.310448564559838"><ele>137.0</ele><time>2026-04-05T10:44:57.999Z</time></trkpt><trkpt lat="46.41055365136949" lon="19.31032286267195"><ele>137.5</ele><time>2026-04-05T10:44:58.999Z</time></trkpt><trkpt lat="46.41046899968407" lon="19.310207108108337"><ele>138.0</ele><time>2026-04-05T10:44:59.999Z</time></trkpt><trkpt lat="46.410387139022866" lon="19.310094761731317"><ele>138.5</ele><time>2026-04-05T10:45:00.999Z</time></trkpt><trkpt lat="46.410307744001344" lon="19.309980225401663"><ele>139.0</ele><time>2026-04-05T10:45:01.999Z</time></trkpt><trkpt lat="46.410225427905566" lon="19.309859681357374"><ele>138.5</ele><time>2026-04-05T10:45:02.999Z</time></trkpt><trkpt lat="46.410138381434535" lon="19.309730973102585"><ele>138.0</ele><time>2026-04-05T10:45:03.999Z</time></trkpt><trkpt lat="46.410043282050275" lon="19.309591522246905"><ele>137.5</ele><time>2026-04-05T10:45:04.999Z</time></trkpt><trkpt lat="46.40996099317269" lon="19.309465891028818"><ele>137.0</ele><time>2026-04-05T10:45:05.999Z</time></trkpt><trkpt lat="46.40988063998308" lon="19.30935073668781"><ele>137.0</ele><time>2026-04-05T10:45:06.999Z</time></trkpt><trkpt lat="46.40980234917729" lon="19.309238531756982"><ele>137.0</ele><time>2026-04-05T10:45:07.999Z</time></trkpt><trkpt lat="46.40972473884909" lon="19.309122045995547"><ele>137.0</ele><time>2026-04-05T10:45:08.999Z</time></trkpt><trkpt lat="46.4096354265529" lon="19.309004430620853"><ele>137.0</ele><time>2026-04-05T10:45:09.999Z</time></trkpt><trkpt lat="46.40954401056867" lon="19.308874101764722"><ele>137.5</ele><time>2026-04-05T10:45:10.999Z</time></trkpt><trkpt lat="46.40945903510365" lon="19.308751492503895"><ele>138.0</ele><time>2026-04-05T10:45:11.999Z</time></trkpt><trkpt lat="46.409359673788856" lon="19.308631245100084"><ele>138.5</ele><time>2026-04-05T10:45:12.999Z</time></trkpt><trkpt lat="46.40926694667663" lon="19.308496878028347"><ele>139.0</ele><time>2026-04-05T10:45:13.999Z</time></trkpt><trkpt lat="46.409178108875324" lon="19.308348199341136"><ele>139.0</ele><time>2026-04-05T10:45:14.999Z</time></trkpt><trkpt lat="46.40908815348324" lon="19.308215207690715"><ele>139.0</ele><time>2026-04-05T10:45:15.999Z</time></trkpt><trkpt lat="46.408996835285656" lon="19.30807496277122"><ele>139.0</ele><time>2026-04-05T10:45:16.999Z</time></trkpt><trkpt lat="46.408900428619035" lon="19.30794334280234"><ele>139.0</ele><time>2026-04-05T10:45:17.999Z</time></trkpt><trkpt lat="46.40880048258496" lon="19.307811852957723"><ele>139.25</ele><time>2026-04-05T10:45:18.999Z</time></trkpt><trkpt lat="46.408716384158176" lon="19.307670357012363"><ele>139.5</ele><time>2026-04-05T10:45:19.999Z</time></trkpt><trkpt lat="46.40862800125085" lon="19.307539492345285"><ele>139.75</ele><time>2026-04-05T10:45:20.999Z</time></trkpt><trkpt lat="46.40853947471993" lon="19.307420506283616"><ele>140.0</ele><time>2026-04-05T10:45:21.999Z</time></trkpt><trkpt lat="46.40844671045379" lon="19.30730137507297"><ele>139.75</ele><time>2026-04-05T10:45:22.999Z</time></trkpt><trkpt lat="46.408353372293874" lon="19.30717028702581"><ele>139.5</ele><time>2026-04-05T10:45:23.999Z</time></trkpt><trkpt lat="46.40827021572042" lon="19.30704123730985"><ele>139.25</ele><time>2026-04-05T10:45:24.999Z</time></trkpt><trkpt lat="46.40819305180447" lon="19.306909982409344"><ele>139.0</ele><time>2026-04-05T10:45:25.999Z</time></trkpt><trkpt lat="46.40811575691274" lon="19.306789678884925"><ele>139.0</ele><time>2026-04-05T10:45:26.999Z</time></trkpt><trkpt lat="46.40803834138258" lon="19.30667839017559"><ele>139.0</ele><time>2026-04-05T10:45:27.999Z</time></trkpt><trkpt lat="46.40795015297716" lon="19.306570557111748"><ele>139.0</ele><time>2026-04-05T10:45:28.999Z</time></trkpt><trkpt lat="46.407873940439266" lon="19.306473824731732"><ele>139.0</ele><time>2026-04-05T10:45:29.999Z</time></trkpt><trkpt lat="46.40781333581623" lon="19.30637698471645"><ele>139.0</ele><time>2026-04-05T10:45:30.999Z</time></trkpt><trkpt lat="46.407758209554224" lon="19.306267555267507"><ele>138.4</ele><time>2026-04-05T10:45:31.999Z</time></trkpt><trkpt lat="46.40770628897118" lon="19.30615965863608"><ele>137.8</ele><time>2026-04-05T10:45:32.999Z</time></trkpt><trkpt lat="46.40763437631931" lon="19.306059525732046"><ele>137.2</ele><time>2026-04-05T10:45:33.999Z</time></trkpt><trkpt lat="46.40756597811998" lon="19.30595710461433"><ele>136.6</ele><time>2026-04-05T10:45:34.999Z</time></trkpt><trkpt lat="46.407477430815675" lon="19.30587247640649"><ele>136.0</ele><time>2026-04-05T10:45:35.999Z</time></trkpt><trkpt lat="46.4074021216262" lon="19.305779972280092"><ele>136.0</ele><time>2026-04-05T10:45:36.999Z</time></trkpt><trkpt lat="46.40732651650788" lon="19.305666841831158"><ele>136.0</ele><time>2026-04-05T10:45:37.999Z</time></trkpt><trkpt lat="46.40725927166788" lon="19.305551348312964"><ele>136.0</ele><time>2026-04-05T10:45:38.999Z</time></trkpt><trkpt lat="46.40718602729401" lon="19.305419800950645"><ele>136.0</ele><time>2026-04-05T10:45:39.999Z</time></trkpt><trkpt lat="46.40710883716806" lon="19.305293225986173"><ele>136.0</ele><time>2026-04-05T10:45:40.999Z</time></trkpt><trkpt lat="46.40702512497627" lon="19.305168898592157"><ele>136.2</ele><time>2026-04-05T10:45:41.999Z</time></trkpt><trkpt lat="46.40694478308312" lon="19.305047342048454"><ele>136.39999999999998</ele><time>2026-04-05T10:45:42.999Z</time></trkpt><trkpt lat="46.40686043182474" lon="19.304945408261265"><ele>136.6</ele><time>2026-04-05T10:45:43.999Z</time></trkpt><trkpt lat="46.406783124855984" lon="19.30484402297907"><ele>136.79999999999998</ele><time>2026-04-05T10:45:44.999Z</time></trkpt><trkpt lat="46.40669993157491" lon="19.304751644963726"><ele>137.0</ele><time>2026-04-05T10:45:45.999Z</time></trkpt><trkpt lat="46.406623929665024" lon="19.304666545026173"><ele>136.66666666666666</ele><time>2026-04-05T10:45:46.999Z</time></trkpt><trkpt lat="46.40655361595494" lon="19.304587621833043"><ele>136.33333333333331</ele><time>2026-04-05T10:45:47.999Z</time></trkpt><trkpt lat="46.40649951108096" lon="19.304512511832666"><ele>136.0</ele><time>2026-04-05T10:45:48.999Z</time></trkpt><trkpt lat="46.40645089296006" lon="19.30441022988821"><ele>135.66666666666666</ele><time>2026-04-05T10:45:49.999Z</time></trkpt><trkpt lat="46.40639415927134" lon="19.304306627581155"><ele>135.33333333333334</ele><time>2026-04-05T10:45:50.999Z</time></trkpt><trkpt lat="46.406316477141196" lon="19.304199597347246"><ele>135.0</ele><time>2026-04-05T10:45:51.999Z</time></trkpt><trkpt lat="46.40622965984382" lon="19.3041164752165"><ele>135.8</ele><time>2026-04-05T10:45:52.999Z</time></trkpt><trkpt lat="46.40614160562006" lon="19.304030422495774"><ele>136.6</ele><time>2026-04-05T10:45:53.999Z</time></trkpt><trkpt lat="46.40605047640281" lon="19.30393980907663"><ele>137.4</ele><time>2026-04-05T10:45:54.999Z</time></trkpt><trkpt lat="46.405969608484426" lon="19.30384083279843"><ele>138.2</ele><time>2026-04-05T10:45:55.999Z</time></trkpt><trkpt lat="46.405898171502315" lon="19.303749781315325"><ele>139.0</ele><time>2026-04-05T10:45:56.999Z</time></trkpt><trkpt lat="46.40582121024409" lon="19.30366010363882"><ele>139.0</ele><time>2026-04-05T10:45:57.999Z</time></trkpt><trkpt lat="46.4057386750962" lon="19.303569619070686"><ele>139.0</ele><time>2026-04-05T10:45:58.999Z</time></trkpt><trkpt lat="46.40565545335046" lon="19.30348391343433"><ele>139.0</ele><time>2026-04-05T10:45:59.999Z</time></trkpt><trkpt lat="46.40557448713688" lon="19.30339538145089"><ele>139.0</ele><time>2026-04-05T10:46:00.999Z</time></trkpt><trkpt lat="46.40549926803644" lon="19.303303417461713"><ele>139.0</ele><time>2026-04-05T10:46:01.999Z</time></trkpt><trkpt lat="46.40542854315925" lon="19.303200716253333"><ele>139.0</ele><time>2026-04-05T10:46:02.998Z</time></trkpt><trkpt lat="46.40534944882184" lon="19.30309696577748"><ele>139.0</ele><time>2026-04-05T10:46:03.998Z</time></trkpt><trkpt lat="46.405268732041215" lon="19.30299352239424"><ele>139.0</ele><time>2026-04-05T10:46:04.998Z</time></trkpt><trkpt lat="46.40520438967093" lon="19.302894998214175"><ele>139.0</ele><time>2026-04-05T10:46:05.998Z</time></trkpt><trkpt lat="46.40512656314703" lon="19.30280388798077"><ele>139.0</ele><time>2026-04-05T10:46:06.998Z</time></trkpt><trkpt lat="46.40505767366557" lon="19.302723937045826"><ele>138.8</ele><time>2026-04-05T10:46:07.998Z</time></trkpt><trkpt lat="46.40498930765277" lon="19.302644544013294"><ele>138.60000000000002</ele><time>2026-04-05T10:46:08.998Z</time></trkpt><trkpt lat="46.40490285866335" lon="19.302586166502635"><ele>138.4</ele><time>2026-04-05T10:46:09.998Z</time></trkpt><trkpt lat="46.404826430629285" lon="19.30251352455478"><ele>138.20000000000002</ele><time>2026-04-05T10:46:10.998Z</time></trkpt><trkpt lat="46.40473321873512" lon="19.30243707038825"><ele>138.0</ele><time>2026-04-05T10:46:11.998Z</time></trkpt><trkpt lat="46.404638048190904" lon="19.30234724744959"><ele>138.20000000000002</ele><time>2026-04-05T10:46:12.998Z</time></trkpt><trkpt lat="46.40454750428873" lon="19.302275368396323"><ele>138.4</ele><time>2026-04-05T10:46:13.998Z</time></trkpt><trkpt lat="46.404433331573166" lon="19.30221783142435"><ele>138.60000000000002</ele><time>2026-04-05T10:46:14.998Z</time></trkpt><trkpt lat="46.40434066059034" lon="19.302141867438124"><ele>138.8</ele><time>2026-04-05T10:46:15.998Z</time></trkpt><trkpt lat="46.40426028966796" lon="19.302062970848052"><ele>139.0</ele><time>2026-04-05T10:46:16.998Z</time></trkpt><trkpt lat="46.404174720752856" lon="19.30199966282509"><ele>139.0</ele><time>2026-04-05T10:46:17.998Z</time></trkpt><trkpt lat="46.4040995890442" lon="19.301917683579397"><ele>139.0</ele><time>2026-04-05T10:46:18.998Z</time></trkpt><trkpt lat="46.40401802665135" lon="19.301849916734998"><ele>139.0</ele><time>2026-04-05T10:46:19.998Z</time></trkpt><trkpt lat="46.40393657640984" lon="19.30178562780605"><ele>139.0</ele><time>2026-04-05T10:46:20.998Z</time></trkpt><trkpt lat="46.40384756593258" lon="19.30171139560486"><ele>139.0</ele><time>2026-04-05T10:46:21.998Z</time></trkpt><trkpt lat="46.40376901559737" lon="19.30165652414615"><ele>139.2</ele><time>2026-04-05T10:46:22.998Z</time></trkpt><trkpt lat="46.40368639169541" lon="19.30157563943998"><ele>139.4</ele><time>2026-04-05T10:46:23.998Z</time></trkpt><trkpt lat="46.40359442654536" lon="19.30150168584701"><ele>139.6</ele><time>2026-04-05T10:46:24.998Z</time></trkpt><trkpt lat="46.40350108701452" lon="19.301421761356657"><ele>139.8</ele><time>2026-04-05T10:46:26Z</time></trkpt><trkpt lat="46.403406456751114" lon="19.301339072069403"><ele>140.0</ele><time>2026-04-05T10:46:27Z</time></trkpt><trkpt lat="46.40332277884163" lon="19.30124971043671"><ele>140.0</ele><time>2026-04-05T10:46:28Z</time></trkpt><trkpt lat="46.40322224685772" lon="19.301160180314515"><ele>140.0</ele><time>2026-04-05T10:46:29Z</time></trkpt><trkpt lat="46.403119865113844" lon="19.301078517442644"><ele>140.0</ele><time>2026-04-05T10:46:30Z</time></trkpt><trkpt lat="46.40302771639272" lon="19.301006415592344"><ele>140.0</ele><time>2026-04-05T10:46:31Z</time></trkpt><trkpt lat="46.40293450413569" lon="19.300949333746875"><ele>140.0</ele><time>2026-04-05T10:46:32Z</time></trkpt><trkpt lat="46.40283445557567" lon="19.30089851683903"><ele>139.5</ele><time>2026-04-05T10:46:33Z</time></trkpt><trkpt lat="46.402731425223465" lon="19.30085897900821"><ele>139.0</ele><time>2026-04-05T10:46:34Z</time></trkpt><trkpt lat="46.40262215731544" lon="19.30080326695757"><ele>138.5</ele><time>2026-04-05T10:46:35Z</time></trkpt><trkpt lat="46.402514055531164" lon="19.300722176009494"><ele>138.0</ele><time>2026-04-05T10:46:36Z</time></trkpt><trkpt lat="46.402412055119974" lon="19.300643108950975"><ele>138.0</ele><time>2026-04-05T10:46:37Z</time></trkpt><trkpt lat="46.402310551769986" lon="19.300567708693823"><ele>138.0</ele><time>2026-04-05T10:46:38Z</time></trkpt><trkpt lat="46.402220399285724" lon="19.30049695244051"><ele>138.0</ele><time>2026-04-05T10:46:39Z</time></trkpt><trkpt lat="46.402140285901034" lon="19.30042517317346"><ele>138.0</ele><time>2026-04-05T10:46:40Z</time></trkpt><trkpt lat="46.40208306328661" lon="19.300378046551604"><ele>138.0</ele><time>2026-04-05T10:46:42Z</time></trkpt><trkpt lat="46.40199659818013" lon="19.300362597232407"><ele>138.0</ele><time>2026-04-05T10:46:45Z</time></trkpt><trkpt lat="46.40196326963663" lon="19.300268421910445"><ele>138.0</ele><time>2026-04-05T10:46:48Z</time></trkpt><trkpt lat="46.40194612884147" lon="19.30015093903192"><ele>138.0</ele><time>2026-04-05T10:46:51Z</time></trkpt><trkpt lat="46.40189380890405" lon="19.300075237614365"><ele>138.0</ele><time>2026-04-05T10:46:54Z</time></trkpt><trkpt lat="46.401812252679186" lon="19.300006256953633"><ele>138.0</ele><time>2026-04-05T10:46:56Z</time></trkpt><trkpt lat="46.40168549333264" lon="19.29992408575967"><ele>138.0</ele><time>2026-04-05T10:46:59Z</time></trkpt><trkpt lat="46.40161195900431" lon="19.299876272803964"><ele>138.0</ele><time>2026-04-05T10:47:00Z</time></trkpt><trkpt lat="46.40154585262783" lon="19.299799769852303"><ele>138.0</ele><time>2026-04-05T10:47:01Z</time></trkpt><trkpt lat="46.40150214685479" lon="19.29971885737609"><ele>138.0</ele><time>2026-04-05T10:47:02Z</time></trkpt><trkpt lat="46.40145386088769" lon="19.29963707877295"><ele>138.0</ele><time>2026-04-05T10:47:03Z</time></trkpt><trkpt lat="46.40142136021612" lon="19.299542451485014"><ele>138.0</ele><time>2026-04-05T10:47:04Z</time></trkpt><trkpt lat="46.40141130760772" lon="19.29942741440586"><ele>138.16666666666666</ele><time>2026-04-05T10:47:05Z</time></trkpt><trkpt lat="46.40141078236534" lon="19.2993204667978"><ele>138.33333333333334</ele><time>2026-04-05T10:47:06Z</time></trkpt><trkpt lat="46.401415919560556" lon="19.299219606834342"><ele>138.5</ele><time>2026-04-05T10:47:07Z</time></trkpt><trkpt lat="46.40141095026829" lon="19.299125448016984"><ele>138.66666666666669</ele><time>2026-04-05T10:47:08Z</time></trkpt><trkpt lat="46.40138774761653" lon="19.299011399819268"><ele>138.83333333333334</ele><time>2026-04-05T10:47:09Z</time></trkpt><trkpt lat="46.40135784259392" lon="19.29889434492186"><ele>139.0</ele><time>2026-04-05T10:47:10Z</time></trkpt><trkpt lat="46.40133340196506" lon="19.298774559883586"><ele>138.5</ele><time>2026-04-05T10:47:11Z</time></trkpt><trkpt lat="46.40129435540317" lon="19.298668480118888"><ele>138.0</ele><time>2026-04-05T10:47:12Z</time></trkpt><trkpt lat="46.40125678087165" lon="19.29856776735732"><ele>137.5</ele><time>2026-04-05T10:47:13Z</time></trkpt><trkpt lat="46.401239876757934" lon="19.29845641333656"><ele>137.0</ele><time>2026-04-05T10:47:14Z</time></trkpt><trkpt lat="46.40122097857478" lon="19.298347663442783"><ele>136.5</ele><time>2026-04-05T10:47:15Z</time></trkpt><trkpt lat="46.401176894778324" lon="19.29821036351373"><ele>136.0</ele><time>2026-04-05T10:47:17Z</time></trkpt><trkpt lat="46.40107422585118" lon="19.298151487892653"><ele>136.0</ele><time>2026-04-05T10:47:19Z</time></trkpt><trkpt lat="46.40097215299854" lon="19.298234023564866"><ele>136.0</ele><time>2026-04-05T10:47:20.999Z</time></trkpt><trkpt lat="46.40089223798081" lon="19.298341931969922"><ele>136.0</ele><time>2026-04-05T10:47:21.999Z</time></trkpt><trkpt lat="46.40081762882992" lon="19.298417680732054"><ele>136.0</ele><time>2026-04-05T10:47:22.999Z</time></trkpt><trkpt lat="46.40075821742759" lon="19.298517452710694"><ele>136.0</ele><time>2026-04-05T10:47:23.999Z</time></trkpt><trkpt lat="46.400697072754774" lon="19.298642803760906"><ele>136.0</ele><time>2026-04-05T10:47:24.999Z</time></trkpt><trkpt lat="46.40062767125162" lon="19.298756368050054"><ele>136.0</ele><time>2026-04-05T10:47:25.999Z</time></trkpt><trkpt lat="46.40055176434503" lon="19.298863715535436"><ele>136.0</ele><time>2026-04-05T10:47:26.999Z</time></trkpt><trkpt lat="46.40046690189953" lon="19.298958058116614"><ele>136.0</ele><time>2026-04-05T10:47:27.999Z</time></trkpt><trkpt lat="46.400390666239474" lon="19.299039007093857"><ele>136.0</ele><time>2026-04-05T10:47:28.999Z</time></trkpt><trkpt lat="46.40033077756861" lon="19.299121742591478"><ele>136.16666666666669</ele><time>2026-04-05T10:47:29.999Z</time></trkpt><trkpt lat="46.400276946312005" lon="19.299217686272403"><ele>136.33333333333334</ele><time>2026-04-05T10:47:30.999Z</time></trkpt><trkpt lat="46.40021789073875" lon="19.299308924969434"><ele>136.5</ele><time>2026-04-05T10:47:31.999Z</time></trkpt><trkpt lat="46.40015985821844" lon="19.29938125940226"><ele>136.66666666666666</ele><time>2026-04-05T10:47:32.999Z</time></trkpt><trkpt lat="46.40010325042596" lon="19.29946165120119"><ele>136.83333333333331</ele><time>2026-04-05T10:47:33.999Z</time></trkpt><trkpt lat="46.400052253041764" lon="19.299547018416952"><ele>137.0</ele><time>2026-04-05T10:47:34.999Z</time></trkpt><trkpt lat="46.399999557117496" lon="19.299660815228126"><ele>137.2</ele><time>2026-04-05T10:47:35.999Z</time></trkpt><trkpt lat="46.39995147331168" lon="19.299765248136122"><ele>137.39999999999998</ele><time>2026-04-05T10:47:36.999Z</time></trkpt><trkpt lat="46.3998991362223" lon="19.299882841382992"><ele>137.60000000000002</ele><time>2026-04-05T10:47:37.999Z</time></trkpt><trkpt lat="46.39985559556421" lon="19.299969440558332"><ele>137.8</ele><time>2026-04-05T10:47:38.999Z</time></trkpt><trkpt lat="46.3997541145167" lon="19.300049993875252"><ele>138.0</ele><time>2026-04-05T10:47:40.999Z</time></trkpt><trkpt lat="46.39965010608478" lon="19.30000648737791"><ele>138.0</ele><time>2026-04-05T10:47:42.999Z</time></trkpt><trkpt lat="46.39958579725751" lon="19.299953131499276"><ele>138.0</ele><time>2026-04-05T10:47:43.999Z</time></trkpt><trkpt lat="46.39952776014107" lon="19.299881608779337"><ele>138.0</ele><time>2026-04-05T10:47:44.999Z</time></trkpt><trkpt lat="46.399458822070194" lon="19.299793452586798"><ele>138.0</ele><time>2026-04-05T10:47:45.999Z</time></trkpt><trkpt lat="46.39940611914181" lon="19.2996968737196"><ele>138.0</ele><time>2026-04-05T10:47:46.999Z</time></trkpt><trkpt lat="46.399345482074196" lon="19.29951909470301"><ele>137.8</ele><time>2026-04-05T10:47:48.999Z</time></trkpt><trkpt lat="46.399283555790525" lon="19.299426366231454"><ele>137.60000000000002</ele><time>2026-04-05T10:47:49.999Z</time></trkpt><trkpt lat="46.39921597894028" lon="19.299317011657617"><ele>137.39999999999998</ele><time>2026-04-05T10:47:50.999Z</time></trkpt><trkpt lat="46.39914561858334" lon="19.299218331865823"><ele>137.2</ele><time>2026-04-05T10:47:51.999Z</time></trkpt><trkpt lat="46.39908614179573" lon="19.299107132057557"><ele>137.0</ele><time>2026-04-05T10:47:52.999Z</time></trkpt><trkpt lat="46.39902150838663" lon="19.29900734220266"><ele>137.2</ele><time>2026-04-05T10:47:53.999Z</time></trkpt><trkpt lat="46.39894845315577" lon="19.298895132526162"><ele>137.39999999999998</ele><time>2026-04-05T10:47:54.999Z</time></trkpt><trkpt lat="46.39887286367379" lon="19.298796434305647"><ele>137.60000000000002</ele><time>2026-04-05T10:47:55.999Z</time></trkpt><trkpt lat="46.398802832260095" lon="19.298720724622235"><ele>137.8</ele><time>2026-04-05T10:47:56.999Z</time></trkpt><trkpt lat="46.398728494434245" lon="19.298664548670413"><ele>138.0</ele><time>2026-04-05T10:47:57.999Z</time></trkpt><trkpt lat="46.39865248507097" lon="19.298594825439704"><ele>138.0</ele><time>2026-04-05T10:47:58.999Z</time></trkpt><trkpt lat="46.39857255885568" lon="19.298500612762663"><ele>138.0</ele><time>2026-04-05T10:47:59.999Z</time></trkpt><trkpt lat="46.39851392395559" lon="19.298402149599777"><ele>138.0</ele><time>2026-04-05T10:48:00.999Z</time></trkpt><trkpt lat="46.39847653189944" lon="19.298304000573623"><ele>138.0</ele><time>2026-04-05T10:48:01.999Z</time></trkpt><trkpt lat="46.39843861992742" lon="19.298199376613354"><ele>138.0</ele><time>2026-04-05T10:48:02.999Z</time></trkpt><trkpt lat="46.39839944758716" lon="19.2980884125121"><ele>138.0</ele><time>2026-04-05T10:48:03.999Z</time></trkpt><trkpt lat="46.39834389131139" lon="19.297987098374076"><ele>138.4</ele><time>2026-04-05T10:48:04.999Z</time></trkpt><trkpt lat="46.39827910447561" lon="19.297882501059274"><ele>138.8</ele><time>2026-04-05T10:48:05.999Z</time></trkpt><trkpt lat="46.39821416633679" lon="19.297762109805582"><ele>139.2</ele><time>2026-04-05T10:48:06.999Z</time></trkpt><trkpt lat="46.39814309479409" lon="19.297635860860513"><ele>139.6</ele><time>2026-04-05T10:48:07.999Z</time></trkpt><trkpt lat="46.39806245427166" lon="19.297513682094387"><ele>140.0</ele><time>2026-04-05T10:48:08.999Z</time></trkpt><trkpt lat="46.39798581548444" lon="19.29739178815027"><ele>139.5</ele><time>2026-04-05T10:48:09.999Z</time></trkpt><trkpt lat="46.39790609001353" lon="19.297255447132812"><ele>139.0</ele><time>2026-04-05T10:48:10.999Z</time></trkpt><trkpt lat="46.39782502638723" lon="19.297115469183762"><ele>138.5</ele><time>2026-04-05T10:48:11.999Z</time></trkpt><trkpt lat="46.397739249266756" lon="19.296977281717787"><ele>138.0</ele><time>2026-04-05T10:48:12.999Z</time></trkpt><trkpt lat="46.39764970912204" lon="19.296856554061378"><ele>138.0</ele><time>2026-04-05T10:48:13.999Z</time></trkpt><trkpt lat="46.39756065422628" lon="19.29674605432424"><ele>138.0</ele><time>2026-04-05T10:48:14.999Z</time></trkpt><trkpt lat="46.39748083684017" lon="19.29664106646246"><ele>138.0</ele><time>2026-04-05T10:48:15.999Z</time></trkpt><trkpt lat="46.39740472083231" lon="19.29652980984548"><ele>138.0</ele><time>2026-04-05T10:48:16.999Z</time></trkpt><trkpt lat="46.39732200446592" lon="19.296415296757495"><ele>138.0</ele><time>2026-04-05T10:48:17.999Z</time></trkpt><trkpt lat="46.39724100302992" lon="19.29630020004155"><ele>137.8</ele><time>2026-04-05T10:48:18.999Z</time></trkpt><trkpt lat="46.39718317032267" lon="19.29618781293992"><ele>137.60000000000002</ele><time>2026-04-05T10:48:19.999Z</time></trkpt><trkpt lat="46.397142996384915" lon="19.29607579499053"><ele>137.39999999999998</ele><time>2026-04-05T10:48:20.999Z</time></trkpt><trkpt lat="46.39708388476041" lon="19.295975114045504"><ele>137.2</ele><time>2026-04-05T10:48:21.999Z</time></trkpt><trkpt lat="46.397007271531066" lon="19.29589888408646"><ele>137.0</ele><time>2026-04-05T10:48:22.999Z</time></trkpt><trkpt lat="46.39693653065777" lon="19.29581188558373"><ele>136.0</ele><time>2026-04-05T10:48:23.999Z</time></trkpt><trkpt lat="46.39685896899408" lon="19.295697556709737"><ele>135.0</ele><time>2026-04-05T10:48:24.999Z</time></trkpt><trkpt lat="46.39677705698041" lon="19.29557457793242"><ele>134.0</ele><time>2026-04-05T10:48:25.999Z</time></trkpt><trkpt lat="46.39669054298255" lon="19.295451942888977"><ele>133.0</ele><time>2026-04-05T10:48:26.999Z</time></trkpt><trkpt lat="46.396601876805754" lon="19.295332011549895"><ele>133.0</ele><time>2026-04-05T10:48:27.999Z</time></trkpt><trkpt lat="46.396509763514466" lon="19.29521636100808"><ele>133.0</ele><time>2026-04-05T10:48:28.999Z</time></trkpt><trkpt lat="46.39642594114833" lon="19.29510904351455"><ele>133.0</ele><time>2026-04-05T10:48:29.998Z</time></trkpt><trkpt lat="46.396335801488924" lon="19.295001050486622"><ele>133.0</ele><time>2026-04-05T10:48:30.998Z</time></trkpt><trkpt lat="46.39624715914817" lon="19.29490302611599"><ele>133.20000000000002</ele><time>2026-04-05T10:48:32Z</time></trkpt><trkpt lat="46.39617006993975" lon="19.294801977354282"><ele>133.4</ele><time>2026-04-05T10:48:33Z</time></trkpt><trkpt lat="46.396097104711586" lon="19.29471519382902"><ele>133.60000000000002</ele><time>2026-04-05T10:48:34Z</time></trkpt><trkpt lat="46.39602019188979" lon="19.294622958506167"><ele>133.8</ele><time>2026-04-05T10:48:35Z</time></trkpt><trkpt lat="46.39594761871241" lon="19.294520513238773"><ele>134.0</ele><time>2026-04-05T10:48:36Z</time></trkpt><trkpt lat="46.39586271558134" lon="19.294419654703027"><ele>134.2</ele><time>2026-04-05T10:48:37Z</time></trkpt><trkpt lat="46.39577485239666" lon="19.294313165835902"><ele>134.4</ele><time>2026-04-05T10:48:38Z</time></trkpt><trkpt lat="46.39569536130724" lon="19.294217028131417"><ele>134.6</ele><time>2026-04-05T10:48:39Z</time></trkpt><trkpt lat="46.39562677741982" lon="19.29413482355535"><ele>134.8</ele><time>2026-04-05T10:48:40Z</time></trkpt><trkpt lat="46.39555017742481" lon="19.294065283225503"><ele>135.0</ele><time>2026-04-05T10:48:41Z</time></trkpt><trkpt lat="46.39547020711614" lon="19.293992548934668"><ele>135.4</ele><time>2026-04-05T10:48:42Z</time></trkpt><trkpt lat="46.39538467365233" lon="19.293929619614204"><ele>135.8</ele><time>2026-04-05T10:48:43Z</time></trkpt><trkpt lat="46.39530374286481" lon="19.293858048119503"><ele>136.2</ele><time>2026-04-05T10:48:44Z</time></trkpt><trkpt lat="46.395231299367794" lon="19.29376290748747"><ele>136.6</ele><time>2026-04-05T10:48:45Z</time></trkpt><trkpt lat="46.39515072196571" lon="19.293661505906453"><ele>137.0</ele><time>2026-04-05T10:48:46Z</time></trkpt><trkpt lat="46.39506683845534" lon="19.293553446303886"><ele>136.79999999999998</ele><time>2026-04-05T10:48:47Z</time></trkpt><trkpt lat="46.39499162589857" lon="19.293426906585644"><ele>136.6</ele><time>2026-04-05T10:48:48Z</time></trkpt><trkpt lat="46.39492037186109" lon="19.293314217340924"><ele>136.39999999999998</ele><time>2026-04-05T10:48:49Z</time></trkpt><trkpt lat="46.39484125296248" lon="19.293236592636134"><ele>136.2</ele><time>2026-04-05T10:48:50Z</time></trkpt><trkpt lat="46.394758741394284" lon="19.293164887052228"><ele>136.0</ele><time>2026-04-05T10:48:51Z</time></trkpt><trkpt lat="46.39467879417047" lon="19.293084545477736"><ele>135.8</ele><time>2026-04-05T10:48:52Z</time></trkpt><trkpt lat="46.394601096018775" lon="19.292989360688654"><ele>135.6</ele><time>2026-04-05T10:48:53Z</time></trkpt><trkpt lat="46.39452638165836" lon="19.292886347076536"><ele>135.4</ele><time>2026-04-05T10:48:54Z</time></trkpt><trkpt lat="46.39445392244091" lon="19.292778219242283"><ele>135.2</ele><time>2026-04-05T10:48:55Z</time></trkpt><trkpt lat="46.3943908728924" lon="19.29266783709355"><ele>135.0</ele><time>2026-04-05T10:48:56Z</time></trkpt><trkpt lat="46.394329101706866" lon="19.292563457441098"><ele>135.0</ele><time>2026-04-05T10:48:57Z</time></trkpt><trkpt lat="46.39425583954196" lon="19.292480503661668"><ele>135.0</ele><time>2026-04-05T10:48:58Z</time></trkpt><trkpt lat="46.39417261603015" lon="19.29241104398645"><ele>135.0</ele><time>2026-04-05T10:48:59Z</time></trkpt><trkpt lat="46.39409237491086" lon="19.292338489653897"><ele>135.0</ele><time>2026-04-05T10:49:00Z</time></trkpt><trkpt lat="46.3940172636345" lon="19.292244436636242"><ele>135.0</ele><time>2026-04-05T10:49:01Z</time></trkpt><trkpt lat="46.3939290943718" lon="19.292150081023042"><ele>134.8</ele><time>2026-04-05T10:49:02Z</time></trkpt><trkpt lat="46.39382424124684" lon="19.292055487694217"><ele>134.6</ele><time>2026-04-05T10:49:03Z</time></trkpt><trkpt lat="46.39372768241857" lon="19.29196882260069"><ele>134.4</ele><time>2026-04-05T10:49:04Z</time></trkpt><trkpt lat="46.39364522617345" lon="19.291901164069802"><ele>134.2</ele><time>2026-04-05T10:49:05Z</time></trkpt><trkpt lat="46.393575561831184" lon="19.2918074309763"><ele>134.0</ele><time>2026-04-05T10:49:06Z</time></trkpt><trkpt lat="46.39350591565217" lon="19.29169236857239"><ele>134.0</ele><time>2026-04-05T10:49:07Z</time></trkpt><trkpt lat="46.39343249397646" lon="19.29156033094971"><ele>134.0</ele><time>2026-04-05T10:49:08Z</time></trkpt><trkpt lat="46.39335652615779" lon="19.29143251929411"><ele>134.0</ele><time>2026-04-05T10:49:09Z</time></trkpt><trkpt lat="46.393276987358355" lon="19.29131151339232"><ele>134.0</ele><time>2026-04-05T10:49:10Z</time></trkpt><trkpt lat="46.39319731717946" lon="19.29120216958501"><ele>133.8</ele><time>2026-04-05T10:49:11Z</time></trkpt><trkpt lat="46.39311579351137" lon="19.291084252114373"><ele>133.60000000000002</ele><time>2026-04-05T10:49:12Z</time></trkpt><trkpt lat="46.3930419404034" lon="19.29096319770102"><ele>133.4</ele><time>2026-04-05T10:49:13Z</time></trkpt><trkpt lat="46.39297134936311" lon="19.290852399679956"><ele>133.20000000000002</ele><time>2026-04-05T10:49:14Z</time></trkpt><trkpt lat="46.39293027897384" lon="19.29073088265107"><ele>133.0</ele><time>2026-04-05T10:49:15Z</time></trkpt><trkpt lat="46.39290422747773" lon="19.290630533125857"><ele>132.83333333333334</ele><time>2026-04-05T10:49:16Z</time></trkpt><trkpt lat="46.392873308996066" lon="19.29054715153958"><ele>132.66666666666669</ele><time>2026-04-05T10:49:17Z</time></trkpt><trkpt lat="46.392833819986606" lon="19.29047570940798"><ele>132.5</ele><time>2026-04-05T10:49:18Z</time></trkpt><trkpt lat="46.392767719055215" lon="19.290402768986322"><ele>132.33333333333334</ele><time>2026-04-05T10:49:19Z</time></trkpt><trkpt lat="46.3927078419975" lon="19.29034107823952"><ele>132.16666666666666</ele><time>2026-04-05T10:49:20Z</time></trkpt><trkpt lat="46.39264278335037" lon="19.29025105407598"><ele>132.0</ele><time>2026-04-05T10:49:21Z</time></trkpt><trkpt lat="46.392568230271905" lon="19.290154135770628"><ele>132.0</ele><time>2026-04-05T10:49:22Z</time></trkpt><trkpt lat="46.39248871352625" lon="19.290054200452158"><ele>132.0</ele><time>2026-04-05T10:49:23Z</time></trkpt><trkpt lat="46.39240578774479" lon="19.289943829044745"><ele>132.0</ele><time>2026-04-05T10:49:24Z</time></trkpt><trkpt lat="46.39233855221181" lon="19.28982311443076"><ele>132.0</ele><time>2026-04-05T10:49:25Z</time></trkpt><trkpt lat="46.39226953567161" lon="19.28969719090124"><ele>132.0</ele><time>2026-04-05T10:49:26Z</time></trkpt><trkpt lat="46.392192322147636" lon="19.289560782857393"><ele>132.25</ele><time>2026-04-05T10:49:27Z</time></trkpt><trkpt lat="46.3921129807249" lon="19.289434523218894"><ele>132.5</ele><time>2026-04-05T10:49:28Z</time></trkpt><trkpt lat="46.39203075444209" lon="19.289308246587815"><ele>132.75</ele><time>2026-04-05T10:49:29Z</time></trkpt><trkpt lat="46.3919408495676" lon="19.28918461621472"><ele>133.0</ele><time>2026-04-05T10:49:30Z</time></trkpt><trkpt lat="46.39186066836671" lon="19.289085423488228"><ele>133.0</ele><time>2026-04-05T10:49:30.999Z</time></trkpt><trkpt lat="46.3917820199729" lon="19.288993271489048"><ele>133.0</ele><time>2026-04-05T10:49:31.999Z</time></trkpt><trkpt lat="46.39170782377034" lon="19.28891807565031"><ele>133.0</ele><time>2026-04-05T10:49:32.999Z</time></trkpt><trkpt lat="46.391629224339304" lon="19.28885815514419"><ele>133.0</ele><time>2026-04-05T10:49:33.999Z</time></trkpt><trkpt lat="46.39153984876058" lon="19.288815682895265"><ele>133.0</ele><time>2026-04-05T10:49:34.999Z</time></trkpt><trkpt lat="46.39145052692144" lon="19.288768618627046"><ele>133.0</ele><time>2026-04-05T10:49:35.999Z</time></trkpt><trkpt lat="46.39136188618992" lon="19.288698351272213"><ele>133.0</ele><time>2026-04-05T10:49:36.999Z</time></trkpt><trkpt lat="46.3912819539803" lon="19.28863165269707"><ele>133.0</ele><time>2026-04-05T10:49:37.999Z</time></trkpt><trkpt lat="46.39120247462954" lon="19.2885748425461"><ele>133.0</ele><time>2026-04-05T10:49:38.999Z</time></trkpt><trkpt lat="46.391117785172355" lon="19.28854094406674"><ele>133.0</ele><time>2026-04-05T10:49:39.999Z</time></trkpt><trkpt lat="46.39104891960794" lon="19.288551157248346"><ele>133.0</ele><time>2026-04-05T10:49:40.999Z</time></trkpt><trkpt lat="46.39097498528432" lon="19.288595154753853"><ele>133.0</ele><time>2026-04-05T10:49:41.999Z</time></trkpt><trkpt lat="46.39091339063766" lon="19.288649671563036"><ele>133.0</ele><time>2026-04-05T10:49:42.999Z</time></trkpt><trkpt lat="46.39085697548935" lon="19.28873135503583"><ele>133.0</ele><time>2026-04-05T10:49:43.999Z</time></trkpt><trkpt lat="46.39080049552342" lon="19.288825074047775"><ele>133.0</ele><time>2026-04-05T10:49:44.999Z</time></trkpt><trkpt lat="46.3907426052099" lon="19.288925322808932"><ele>133.0</ele><time>2026-04-05T10:49:45.999Z</time></trkpt><trkpt lat="46.39067522266459" lon="19.289040079050583"><ele>133.0</ele><time>2026-04-05T10:49:46.999Z</time></trkpt><trkpt lat="46.390606730572685" lon="19.289155295755094"><ele>133.16666666666669</ele><time>2026-04-05T10:49:47.999Z</time></trkpt><trkpt lat="46.39053552415466" lon="19.28926805558988"><ele>133.33333333333334</ele><time>2026-04-05T10:49:48.999Z</time></trkpt><trkpt lat="46.39047460822165" lon="19.289370632569664"><ele>133.5</ele><time>2026-04-05T10:49:49.999Z</time></trkpt><trkpt lat="46.390420428037984" lon="19.289451184760356"><ele>133.66666666666666</ele><time>2026-04-05T10:49:50.999Z</time></trkpt><trkpt lat="46.39037860573098" lon="19.28952427103861"><ele>133.83333333333331</ele><time>2026-04-05T10:49:51.999Z</time></trkpt><trkpt lat="46.39029206633083" lon="19.289604901704358"><ele>134.0</ele><time>2026-04-05T10:49:53.999Z</time></trkpt><trkpt lat="46.39021467550312" lon="19.28952519174559"><ele>133.6</ele><time>2026-04-05T10:49:55.999Z</time></trkpt><trkpt lat="46.39015345066222" lon="19.28943276484594"><ele>133.2</ele><time>2026-04-05T10:49:56.999Z</time></trkpt><trkpt lat="46.39008561824193" lon="19.289323145951997"><ele>132.79999999999998</ele><time>2026-04-05T10:49:57.999Z</time></trkpt><trkpt lat="46.39001063396412" lon="19.289205208187223"><ele>132.4</ele><time>2026-04-05T10:49:58.999Z</time></trkpt><trkpt lat="46.38993831820481" lon="19.289100197467974"><ele>132.0</ele><time>2026-04-05T10:49:59.999Z</time></trkpt><trkpt lat="46.38985973318913" lon="19.289030304498766"><ele>132.0</ele><time>2026-04-05T10:50:00.999Z</time></trkpt><trkpt lat="46.389788379271465" lon="19.28897691913086"><ele>132.0</ele><time>2026-04-05T10:50:01.999Z</time></trkpt><trkpt lat="46.389705046032915" lon="19.288888328447605"><ele>132.0</ele><time>2026-04-05T10:50:04.999Z</time></trkpt><trkpt lat="46.38961647200227" lon="19.288779959192002"><ele>132.0</ele><time>2026-04-05T10:50:06.999Z</time></trkpt><trkpt lat="46.38954289635652" lon="19.288684661246663"><ele>132.0</ele><time>2026-04-05T10:50:08.999Z</time></trkpt><trkpt lat="46.38945959996832" lon="19.288707609211823"><ele>132.0</ele><time>2026-04-05T10:50:10.999Z</time></trkpt><trkpt lat="46.38941797641842" lon="19.28884095850643"><ele>132.0</ele><time>2026-04-05T10:50:12.999Z</time></trkpt><trkpt lat="46.389430641410854" lon="19.288970701182475"><ele>132.0</ele><time>2026-04-05T10:50:14.999Z</time></trkpt><trkpt lat="46.38951445254703" lon="19.289034153227384"><ele>132.0</ele><time>2026-04-05T10:50:16.999Z</time></trkpt><trkpt lat="46.38960439946021" lon="19.289075077455948"><ele>132.0</ele><time>2026-04-05T10:50:18.999Z</time></trkpt><trkpt lat="46.38968659127844" lon="19.289076339327842"><ele>132.0</ele><time>2026-04-05T10:50:20.999Z</time></trkpt><trkpt lat="46.3897885869663" lon="19.28898689564069"><ele>132.0</ele><time>2026-04-05T10:50:22.999Z</time></trkpt><trkpt lat="46.38984454108311" lon="19.288918833748763"><ele>132.0</ele><time>2026-04-05T10:50:25.999Z</time></trkpt><trkpt lat="46.3899068539492" lon="19.28883276402678"><ele>132.0</ele><time>2026-04-05T10:50:27.999Z</time></trkpt><trkpt lat="46.389921091829" lon="19.28873059225281"><ele>132.0</ele><time>2026-04-05T10:50:30.998Z</time></trkpt><trkpt lat="46.3898883397106" lon="19.28862965088707"><ele>132.0</ele><time>2026-04-05T10:50:34.998Z</time></trkpt><trkpt lat="46.389825186998124" lon="19.288535189573974"><ele>132.2</ele><time>2026-04-05T10:50:36.998Z</time></trkpt><trkpt lat="46.38974292426407" lon="19.288440695455236"><ele>132.39999999999998</ele><time>2026-04-05T10:50:39Z</time></trkpt><trkpt lat="46.38972377349778" lon="19.288322072456644"><ele>132.60000000000002</ele><time>2026-04-05T10:50:41Z</time></trkpt><trkpt lat="46.38978331267398" lon="19.288232303103687"><ele>132.8</ele><time>2026-04-05T10:50:43Z</time></trkpt><trkpt lat="46.38986526818805" lon="19.28816934588488"><ele>133.0</ele><time>2026-04-05T10:50:45Z</time></trkpt><trkpt lat="46.389966651649644" lon="19.288115230782903"><ele>133.0</ele><time>2026-04-05T10:50:47Z</time></trkpt><trkpt lat="46.390064520400806" lon="19.288167345901112"><ele>133.0</ele><time>2026-04-05T10:50:49Z</time></trkpt><trkpt lat="46.390098915667686" lon="19.288340138018842"><ele>133.0</ele><time>2026-04-05T10:50:51Z</time></trkpt><trkpt lat="46.39008340825781" lon="19.28843398915419"><ele>133.0</ele><time>2026-04-05T10:50:52Z</time></trkpt><trkpt lat="46.39005525686046" lon="19.288527962048427"><ele>133.0</ele><time>2026-04-05T10:50:53Z</time></trkpt><trkpt lat="46.38999526348502" lon="19.288639003238277"><ele>133.0</ele><time>2026-04-05T10:50:55Z</time></trkpt><trkpt lat="46.38993634957751" lon="19.288731940148345"><ele>133.0</ele><time>2026-04-05T10:50:57Z</time></trkpt><trkpt lat="46.38989683299863" lon="19.288829106506316"><ele>133.0</ele><time>2026-04-05T10:50:59Z</time></trkpt><trkpt lat="46.38983577328413" lon="19.28886865231024"><ele>133.0</ele><time>2026-04-05T10:51:01Z</time></trkpt><trkpt lat="46.38979679138784" lon="19.288955905375378"><ele>133.0</ele><time>2026-04-05T10:51:19Z</time></trkpt><trkpt lat="46.389752140550286" lon="19.289044868110693"><ele>133.0</ele><time>2026-04-05T10:51:23Z</time></trkpt><trkpt lat="46.389677957212236" lon="19.289091849329218"><ele>133.0</ele><time>2026-04-05T10:51:28Z</time></trkpt><trkpt lat="46.3896249103497" lon="19.2892035283739"><ele>133.0</ele><time>2026-04-05T10:51:30.999Z</time></trkpt><trkpt lat="46.38957537304849" lon="19.289310796702722"><ele>133.0</ele><time>2026-04-05T10:51:33.999Z</time></trkpt><trkpt lat="46.389586294305154" lon="19.289406327804862"><ele>133.0</ele><time>2026-04-05T10:51:36.999Z</time></trkpt><trkpt lat="46.38950364937833" lon="19.289511297673695"><ele>133.0</ele><time>2026-04-05T10:51:38.999Z</time></trkpt><trkpt lat="46.389454803175596" lon="19.289640734056057"><ele>133.0</ele><time>2026-04-05T10:51:40.999Z</time></trkpt><trkpt lat="46.389430783142416" lon="19.289749625917946"><ele>133.0</ele><time>2026-04-05T10:51:42.999Z</time></trkpt><trkpt lat="46.389388342492985" lon="19.28989733676228"><ele>133.0</ele><time>2026-04-05T10:51:44.999Z</time></trkpt><trkpt lat="46.38930978402479" lon="19.290041290886958"><ele>133.0</ele><time>2026-04-05T10:51:46.999Z</time></trkpt><trkpt lat="46.38925914277851" lon="19.29009742732169"><ele>133.0</ele><time>2026-04-05T10:51:47.999Z</time></trkpt><trkpt lat="46.389157691634104" lon="19.29021155493052"><ele>133.0</ele><time>2026-04-05T10:51:49.999Z</time></trkpt><trkpt lat="46.38905817864988" lon="19.2903113945265"><ele>133.0</ele><time>2026-04-05T10:51:51.999Z</time></trkpt><trkpt lat="46.3889636209319" lon="19.290409385548035"><ele>133.0</ele><time>2026-04-05T10:51:53.999Z</time></trkpt><trkpt lat="46.38887697040579" lon="19.290481048251518"><ele>133.0</ele><time>2026-04-05T10:51:55.999Z</time></trkpt><trkpt lat="46.38878697347121" lon="19.290557985477793"><ele>133.0</ele><time>2026-04-05T10:51:57.999Z</time></trkpt><trkpt lat="46.38876530351418" lon="19.29067263869834"><ele>133.0</ele><time>2026-04-05T10:52:00.999Z</time></trkpt><trkpt lat="46.38870043056976" lon="19.290740002298296"><ele>133.0</ele><time>2026-04-05T10:52:03.999Z</time></trkpt><trkpt lat="46.38862838608844" lon="19.29069662253319"><ele>133.0</ele><time>2026-04-05T10:52:06.999Z</time></trkpt><trkpt lat="46.388587229202635" lon="19.290616372468502"><ele>133.0</ele><time>2026-04-05T10:52:08.999Z</time></trkpt><trkpt lat="46.38851854414352" lon="19.29069761939668"><ele>133.0</ele><time>2026-04-05T10:52:11.999Z</time></trkpt><trkpt lat="46.388399506735674" lon="19.290536506421994"><ele>133.0</ele><time>2026-04-05T10:52:15.999Z</time></trkpt><trkpt lat="46.388282014230796" lon="19.29039645949171"><ele>133.0</ele><time>2026-04-05T10:52:17.999Z</time></trkpt><trkpt lat="46.38822311560071" lon="19.290303366069764"><ele>133.0</ele><time>2026-04-05T10:52:18.999Z</time></trkpt><trkpt lat="46.38816171812844" lon="19.290208985887496"><ele>133.0</ele><time>2026-04-05T10:52:19.999Z</time></trkpt><trkpt lat="46.388086481266406" lon="19.290070569212283"><ele>133.0</ele><time>2026-04-05T10:52:20.999Z</time></trkpt><trkpt lat="46.38801309675744" lon="19.28996372514734"><ele>133.0</ele><time>2026-04-05T10:52:21.999Z</time></trkpt><trkpt lat="46.38792683719098" lon="19.289837766171395"><ele>133.0</ele><time>2026-04-05T10:52:22.999Z</time></trkpt><trkpt lat="46.38784265564127" lon="19.28971097315354"><ele>133.0</ele><time>2026-04-05T10:52:23.999Z</time></trkpt><trkpt lat="46.38775041827298" lon="19.28960002115145"><ele>132.75</ele><time>2026-04-05T10:52:24.999Z</time></trkpt><trkpt lat="46.38766862114458" lon="19.28945990934198"><ele>132.5</ele><time>2026-04-05T10:52:25.999Z</time></trkpt><trkpt lat="46.38757332423097" lon="19.289335850922484"><ele>132.25</ele><time>2026-04-05T10:52:26.999Z</time></trkpt><trkpt lat="46.387488392182966" lon="19.289183440891158"><ele>132.0</ele><time>2026-04-05T10:52:27.999Z</time></trkpt><trkpt lat="46.387386973679945" lon="19.289052003534394"><ele>132.0</ele><time>2026-04-05T10:52:28.998Z</time></trkpt><trkpt lat="46.3872939085587" lon="19.288917288217156"><ele>132.0</ele><time>2026-04-05T10:52:29.998Z</time></trkpt><trkpt lat="46.38721250343542" lon="19.28876871687291"><ele>132.0</ele><time>2026-04-05T10:52:30.998Z</time></trkpt><trkpt lat="46.38711381629497" lon="19.28863880058578"><ele>132.0</ele><time>2026-04-05T10:52:31.998Z</time></trkpt><trkpt lat="46.38701542878529" lon="19.288510377912544"><ele>132.0</ele><time>2026-04-05T10:52:32.998Z</time></trkpt><trkpt lat="46.38692600368731" lon="19.288375242507556"><ele>132.0</ele><time>2026-04-05T10:52:33.998Z</time></trkpt><trkpt lat="46.38683216825558" lon="19.288237276578077"><ele>132.0</ele><time>2026-04-05T10:52:34.998Z</time></trkpt><trkpt lat="46.38672926452767" lon="19.288103091443805"><ele>132.0</ele><time>2026-04-05T10:52:35.998Z</time></trkpt><trkpt lat="46.386626120944875" lon="19.28796032903867"><ele>132.0</ele><time>2026-04-05T10:52:36.998Z</time></trkpt><trkpt lat="46.38653058333289" lon="19.287814844707963"><ele>132.0</ele><time>2026-04-05T10:52:37.998Z</time></trkpt><trkpt lat="46.38643405026581" lon="19.287678190993034"><ele>132.0</ele><time>2026-04-05T10:52:38.998Z</time></trkpt><trkpt lat="46.386339848867884" lon="19.287540847220438"><ele>132.0</ele><time>2026-04-05T10:52:39.998Z</time></trkpt><trkpt lat="46.386241632648606" lon="19.287403904089405"><ele>132.5</ele><time>2026-04-05T10:52:40.998Z</time></trkpt><trkpt lat="46.38614471308232" lon="19.287267579844343"><ele>133.0</ele><time>2026-04-05T10:52:41.998Z</time></trkpt><trkpt lat="46.38605099595209" lon="19.287134817432094"><ele>133.5</ele><time>2026-04-05T10:52:42.998Z</time></trkpt><trkpt lat="46.38595853831106" lon="19.28699345208983"><ele>134.0</ele><time>2026-04-05T10:52:44Z</time></trkpt><trkpt lat="46.38586346227618" lon="19.286850819428494"><ele>134.0</ele><time>2026-04-05T10:52:45Z</time></trkpt><trkpt lat="46.3857562694167" lon="19.28670872662979"><ele>134.0</ele><time>2026-04-05T10:52:46Z</time></trkpt><trkpt lat="46.38565471831008" lon="19.28655074768135"><ele>134.0</ele><time>2026-04-05T10:52:47Z</time></trkpt><trkpt lat="46.38555770695151" lon="19.286388067384486"><ele>134.0</ele><time>2026-04-05T10:52:48Z</time></trkpt><trkpt lat="46.385447823515" lon="19.28623745186687"><ele>133.0</ele><time>2026-04-05T10:52:49Z</time></trkpt><trkpt lat="46.3853374880298" lon="19.28609952322866"><ele>132.0</ele><time>2026-04-05T10:52:50Z</time></trkpt><trkpt lat="46.38523414611603" lon="19.285959202024316"><ele>131.0</ele><time>2026-04-05T10:52:51Z</time></trkpt><trkpt lat="46.38513478016777" lon="19.285807432041118"><ele>130.0</ele><time>2026-04-05T10:52:52Z</time></trkpt><trkpt lat="46.38503019367042" lon="19.285662695472116"><ele>130.0</ele><time>2026-04-05T10:52:53Z</time></trkpt><trkpt lat="46.38492587728203" lon="19.285513709450584"><ele>130.0</ele><time>2026-04-05T10:52:54Z</time></trkpt><trkpt lat="46.38483041574586" lon="19.285375291811523"><ele>130.0</ele><time>2026-04-05T10:52:55Z</time></trkpt><trkpt lat="46.38472488221492" lon="19.285222609221144"><ele>130.0</ele><time>2026-04-05T10:52:56Z</time></trkpt><trkpt lat="46.38462582736044" lon="19.28508173551741"><ele>130.25</ele><time>2026-04-05T10:52:57Z</time></trkpt><trkpt lat="46.38452469540744" lon="19.284939089597515"><ele>130.5</ele><time>2026-04-05T10:52:58Z</time></trkpt><trkpt lat="46.38442797340154" lon="19.28479241785301"><ele>130.75</ele><time>2026-04-05T10:52:59Z</time></trkpt><trkpt lat="46.384325619370706" lon="19.28464451003321"><ele>131.0</ele><time>2026-04-05T10:53:00Z</time></trkpt><trkpt lat="46.38422431274212" lon="19.28450119788584"><ele>131.25</ele><time>2026-04-05T10:53:01Z</time></trkpt><trkpt lat="46.384121067499684" lon="19.284356696381003"><ele>131.5</ele><time>2026-04-05T10:53:02Z</time></trkpt><trkpt lat="46.38401820118854" lon="19.284213154416168"><ele>131.75</ele><time>2026-04-05T10:53:03Z</time></trkpt><trkpt lat="46.383914703996616" lon="19.284068830435295"><ele>132.0</ele><time>2026-04-05T10:53:04Z</time></trkpt><trkpt lat="46.38381201384319" lon="19.283918041953534"><ele>132.25</ele><time>2026-04-05T10:53:05Z</time></trkpt><trkpt lat="46.38371371661512" lon="19.2837724772303"><ele>132.5</ele><time>2026-04-05T10:53:06Z</time></trkpt><trkpt lat="46.383611553625244" lon="19.283628818942937"><ele>132.75</ele><time>2026-04-05T10:53:07Z</time></trkpt><trkpt lat="46.38351998584521" lon="19.28348417702442"><ele>133.0</ele><time>2026-04-05T10:53:08Z</time></trkpt><trkpt lat="46.38342866216489" lon="19.28335061411289"><ele>133.0</ele><time>2026-04-05T10:53:09Z</time></trkpt><trkpt lat="46.383340231277806" lon="19.28322132861566"><ele>133.0</ele><time>2026-04-05T10:53:10Z</time></trkpt><trkpt lat="46.383259835006776" lon="19.283095149593798"><ele>133.0</ele><time>2026-04-05T10:53:11Z</time></trkpt><trkpt lat="46.3831771199892" lon="19.28298203493522"><ele>133.0</ele><time>2026-04-05T10:53:12Z</time></trkpt><trkpt lat="46.383107199174944" lon="19.28288438374497"><ele>133.0</ele><time>2026-04-05T10:53:13Z</time></trkpt><trkpt lat="46.383033533016686" lon="19.282806969421024"><ele>133.0</ele><time>2026-04-05T10:53:14Z</time></trkpt><trkpt lat="46.38299368389204" lon="19.282710725205376"><ele>133.0</ele><time>2026-04-05T10:53:15Z</time></trkpt><trkpt lat="46.382940526417464" lon="19.282617139504815"><ele>133.0</ele><time>2026-04-05T10:53:17Z</time></trkpt><trkpt lat="46.382889119964375" lon="19.282543478614347"><ele>133.0</ele><time>2026-04-05T10:53:19Z</time></trkpt><trkpt lat="46.38284301010149" lon="19.28247490060797"><ele>133.0</ele><time>2026-04-05T10:53:20Z</time></trkpt><trkpt lat="46.38278451033787" lon="19.28239241303932"><ele>133.4</ele><time>2026-04-05T10:53:21Z</time></trkpt><trkpt lat="46.38270923121511" lon="19.282304879237465"><ele>133.8</ele><time>2026-04-05T10:53:22Z</time></trkpt><trkpt lat="46.382626531204345" lon="19.282203061263004"><ele>134.2</ele><time>2026-04-05T10:53:23Z</time></trkpt><trkpt lat="46.382544862680334" lon="19.28208536593252"><ele>134.6</ele><time>2026-04-05T10:53:24Z</time></trkpt><trkpt lat="46.38245623461993" lon="19.281971989779034"><ele>135.0</ele><time>2026-04-05T10:53:25Z</time></trkpt><trkpt lat="46.38237617274543" lon="19.281839235148155"><ele>135.0</ele><time>2026-04-05T10:53:26Z</time></trkpt><trkpt lat="46.38228921326855" lon="19.281705879762463"><ele>135.0</ele><time>2026-04-05T10:53:27Z</time></trkpt><trkpt lat="46.38219829856208" lon="19.281570885946042"><ele>135.0</ele><time>2026-04-05T10:53:28Z</time></trkpt><trkpt lat="46.382104728507095" lon="19.281444242597757"><ele>135.0</ele><time>2026-04-05T10:53:29Z</time></trkpt><trkpt lat="46.382020331413734" lon="19.281312303754415"><ele>134.5</ele><time>2026-04-05T10:53:30Z</time></trkpt><trkpt lat="46.381931115620084" lon="19.28118474943575"><ele>134.0</ele><time>2026-04-05T10:53:31Z</time></trkpt><trkpt lat="46.381845715359525" lon="19.281047353457026"><ele>133.5</ele><time>2026-04-05T10:53:32Z</time></trkpt><trkpt lat="46.38175557699026" lon="19.280919825013147"><ele>133.0</ele><time>2026-04-05T10:53:33Z</time></trkpt><trkpt lat="46.38166863396439" lon="19.280791566448407"><ele>133.0</ele><time>2026-04-05T10:53:34Z</time></trkpt><trkpt lat="46.38158754171826" lon="19.28066889588319"><ele>133.0</ele><time>2026-04-05T10:53:35Z</time></trkpt><trkpt lat="46.38151134354251" lon="19.280537170214757"><ele>133.0</ele><time>2026-04-05T10:53:36Z</time></trkpt><trkpt lat="46.3814278050549" lon="19.280416628276885"><ele>133.0</ele><time>2026-04-05T10:53:36.999Z</time></trkpt><trkpt lat="46.38134195565318" lon="19.280308460087625"><ele>132.5</ele><time>2026-04-05T10:53:37.999Z</time></trkpt><trkpt lat="46.38125655585338" lon="19.280195084874332"><ele>132.0</ele><time>2026-04-05T10:53:38.999Z</time></trkpt><trkpt lat="46.381172421429056" lon="19.280068503609254"><ele>131.5</ele><time>2026-04-05T10:53:39.999Z</time></trkpt><trkpt lat="46.38108637180169" lon="19.279947883205644"><ele>131.0</ele><time>2026-04-05T10:53:40.999Z</time></trkpt><trkpt lat="46.38099009291996" lon="19.27982555807105"><ele>131.75</ele><time>2026-04-05T10:53:41.999Z</time></trkpt><trkpt lat="46.38089897033732" lon="19.279709008956655"><ele>132.5</ele><time>2026-04-05T10:53:42.999Z</time></trkpt><trkpt lat="46.38081272111756" lon="19.279567520946877"><ele>133.25</ele><time>2026-04-05T10:53:43.999Z</time></trkpt><trkpt lat="46.38073628878689" lon="19.279435921047632"><ele>134.0</ele><time>2026-04-05T10:53:44.999Z</time></trkpt><trkpt lat="46.380644072615006" lon="19.279296736557463"><ele>134.0</ele><time>2026-04-05T10:53:45.999Z</time></trkpt><trkpt lat="46.380546585496376" lon="19.27916630163652"><ele>134.0</ele><time>2026-04-05T10:53:46.999Z</time></trkpt><trkpt lat="46.3804512011033" lon="19.279033663724228"><ele>134.0</ele><time>2026-04-05T10:53:47.999Z</time></trkpt><trkpt lat="46.38035556269352" lon="19.278900611237624"><ele>134.0</ele><time>2026-04-05T10:53:48.999Z</time></trkpt><trkpt lat="46.38026018655452" lon="19.27876020979402"><ele>134.0</ele><time>2026-04-05T10:53:49.999Z</time></trkpt><trkpt lat="46.380159347842806" lon="19.27862006230433"><ele>134.0</ele><time>2026-04-05T10:53:50.999Z</time></trkpt><trkpt lat="46.380058939646915" lon="19.278479676407336"><ele>134.0</ele><time>2026-04-05T10:53:51.999Z</time></trkpt><trkpt lat="46.37994093736722" lon="19.278365867163306"><ele>134.0</ele><time>2026-04-05T10:53:52.999Z</time></trkpt><trkpt lat="46.37985187234908" lon="19.278210845859444"><ele>133.5</ele><time>2026-04-05T10:53:53.999Z</time></trkpt><trkpt lat="46.37975377717735" lon="19.278067641599332"><ele>133.0</ele><time>2026-04-05T10:53:54.999Z</time></trkpt><trkpt lat="46.379649055914776" lon="19.27793357682467"><ele>132.5</ele><time>2026-04-05T10:53:55.999Z</time></trkpt><trkpt lat="46.37955012418709" lon="19.277797875513567"><ele>132.0</ele><time>2026-04-05T10:53:56.999Z</time></trkpt><trkpt lat="46.37945800963294" lon="19.277654786202422"><ele>132.0</ele><time>2026-04-05T10:53:57.999Z</time></trkpt><trkpt lat="46.379372891870865" lon="19.277527086404408"><ele>132.0</ele><time>2026-04-05T10:53:58.999Z</time></trkpt><trkpt lat="46.379271980197515" lon="19.277363659824157"><ele>132.0</ele><time>2026-04-05T10:53:59.999Z</time></trkpt><trkpt lat="46.37916289940025" lon="19.27722867846962"><ele>132.0</ele><time>2026-04-05T10:54:00.999Z</time></trkpt><trkpt lat="46.379066182669135" lon="19.277092959652656"><ele>132.0</ele><time>2026-04-05T10:54:01.999Z</time></trkpt><trkpt lat="46.37898677317214" lon="19.27695124596275"><ele>132.0</ele><time>2026-04-05T10:54:02.999Z</time></trkpt><trkpt lat="46.37889414692731" lon="19.276819572821005"><ele>132.0</ele><time>2026-04-05T10:54:03.999Z</time></trkpt><trkpt lat="46.378785567922094" lon="19.27669734891968"><ele>132.0</ele><time>2026-04-05T10:54:04.999Z</time></trkpt><trkpt lat="46.378702298088605" lon="19.27654776341272"><ele>132.75</ele><time>2026-04-05T10:54:05.999Z</time></trkpt><trkpt lat="46.37860204203232" lon="19.276435332409367"><ele>133.5</ele><time>2026-04-05T10:54:06.999Z</time></trkpt><trkpt lat="46.37851669065465" lon="19.276310546606737"><ele>134.25</ele><time>2026-04-05T10:54:07.999Z</time></trkpt><trkpt lat="46.378432209166604" lon="19.276183900418193"><ele>135.0</ele><time>2026-04-05T10:54:08.999Z</time></trkpt><trkpt lat="46.378349369415986" lon="19.276043898386234"><ele>135.0</ele><time>2026-04-05T10:54:09.999Z</time></trkpt><trkpt lat="46.37825947711357" lon="19.275911311266295"><ele>135.0</ele><time>2026-04-05T10:54:10.999Z</time></trkpt><trkpt lat="46.378163113164966" lon="19.275784063717662"><ele>135.0</ele><time>2026-04-05T10:54:11.999Z</time></trkpt><trkpt lat="46.378072113600936" lon="19.275656552098134"><ele>135.0</ele><time>2026-04-05T10:54:12.999Z</time></trkpt><trkpt lat="46.37797599823785" lon="19.2755373147442"><ele>134.75</ele><time>2026-04-05T10:54:13.999Z</time></trkpt><trkpt lat="46.37788274836445" lon="19.275411532094754"><ele>134.5</ele><time>2026-04-05T10:54:14.999Z</time></trkpt><trkpt lat="46.37779281141599" lon="19.27527890748166"><ele>134.25</ele><time>2026-04-05T10:54:15.999Z</time></trkpt><trkpt lat="46.37769778345363" lon="19.27513741154759"><ele>134.0</ele><time>2026-04-05T10:54:16.999Z</time></trkpt><trkpt lat="46.37760008587702" lon="19.27500327619313"><ele>134.0</ele><time>2026-04-05T10:54:17.999Z</time></trkpt><trkpt lat="46.37752407267265" lon="19.274842391053493"><ele>134.0</ele><time>2026-04-05T10:54:18.999Z</time></trkpt><trkpt lat="46.377435931072235" lon="19.27470589287624"><ele>134.0</ele><time>2026-04-05T10:54:19.999Z</time></trkpt><trkpt lat="46.37734961824859" lon="19.274570937836614"><ele>134.0</ele><time>2026-04-05T10:54:20.999Z</time></trkpt><trkpt lat="46.37725760232955" lon="19.274438111051158"><ele>134.0</ele><time>2026-04-05T10:54:21.999Z</time></trkpt><trkpt lat="46.37716563183975" lon="19.274303542021837"><ele>134.0</ele><time>2026-04-05T10:54:22.999Z</time></trkpt><trkpt lat="46.377067482182426" lon="19.274169041148856"><ele>134.0</ele><time>2026-04-05T10:54:23.999Z</time></trkpt><trkpt lat="46.37697240149527" lon="19.27403481887663"><ele>134.0</ele><time>2026-04-05T10:54:24.999Z</time></trkpt><trkpt lat="46.376876820173585" lon="19.27389890881698"><ele>134.0</ele><time>2026-04-05T10:54:25.999Z</time></trkpt><trkpt lat="46.376773789449665" lon="19.27374307176598"><ele>134.0</ele><time>2026-04-05T10:54:26.999Z</time></trkpt><trkpt lat="46.376682216783564" lon="19.27360564091892"><ele>134.0</ele><time>2026-04-05T10:54:27.999Z</time></trkpt><trkpt lat="46.37658454597883" lon="19.27345385098751"><ele>134.0</ele><time>2026-04-05T10:54:28.999Z</time></trkpt><trkpt lat="46.37649485647681" lon="19.273324214895833"><ele>134.0</ele><time>2026-04-05T10:54:29.999Z</time></trkpt><trkpt lat="46.3764025859233" lon="19.27318302403748"><ele>134.0</ele><time>2026-04-05T10:54:30.999Z</time></trkpt><trkpt lat="46.376303970399626" lon="19.273047462928456"><ele>134.0</ele><time>2026-04-05T10:54:31.998Z</time></trkpt><trkpt lat="46.376205477397576" lon="19.272906011362682"><ele>134.0</ele><time>2026-04-05T10:54:32.998Z</time></trkpt><trkpt lat="46.37610849335172" lon="19.272771319328903"><ele>134.6</ele><time>2026-04-05T10:54:33.998Z</time></trkpt><trkpt lat="46.376018600791674" lon="19.272645575842088"><ele>135.2</ele><time>2026-04-05T10:54:34.998Z</time></trkpt><trkpt lat="46.37593660256468" lon="19.272534784534656"><ele>135.79999999999998</ele><time>2026-04-05T10:54:35.998Z</time></trkpt><trkpt lat="46.37586160447112" lon="19.272436766178398"><ele>136.4</ele><time>2026-04-05T10:54:36.998Z</time></trkpt><trkpt lat="46.375790371595855" lon="19.272357817156628"><ele>137.0</ele><time>2026-04-05T10:54:37.998Z</time></trkpt><trkpt lat="46.375715538679444" lon="19.272274729160483"><ele>137.0</ele><time>2026-04-05T10:54:38.998Z</time></trkpt><trkpt lat="46.37563813121659" lon="19.27216451261631"><ele>137.0</ele><time>2026-04-05T10:54:39.998Z</time></trkpt><trkpt lat="46.37555682022492" lon="19.272031881575735"><ele>137.0</ele><time>2026-04-05T10:54:40.998Z</time></trkpt><trkpt lat="46.37547428896724" lon="19.271902373683652"><ele>137.0</ele><time>2026-04-05T10:54:41.998Z</time></trkpt><trkpt lat="46.37538055114165" lon="19.27176921844234"><ele>136.75</ele><time>2026-04-05T10:54:42.998Z</time></trkpt><trkpt lat="46.37529057251761" lon="19.271634710914583"><ele>136.5</ele><time>2026-04-05T10:54:43.998Z</time></trkpt><trkpt lat="46.37519941945368" lon="19.271493439802125"><ele>136.25</ele><time>2026-04-05T10:54:44.998Z</time></trkpt><trkpt lat="46.37510588999042" lon="19.271347750582102"><ele>136.0</ele><time>2026-04-05T10:54:45.998Z</time></trkpt><trkpt lat="46.37501177335748" lon="19.271201572655812"><ele>136.0</ele><time>2026-04-05T10:54:46.998Z</time></trkpt><trkpt lat="46.3749120709793" lon="19.271055349656603"><ele>136.0</ele><time>2026-04-05T10:54:47.998Z</time></trkpt><trkpt lat="46.374812504402755" lon="19.270909535585993"><ele>136.0</ele><time>2026-04-05T10:54:49Z</time></trkpt><trkpt lat="46.3747124221435" lon="19.270761481581708"><ele>136.0</ele><time>2026-04-05T10:54:50Z</time></trkpt><trkpt lat="46.37461689092752" lon="19.27062359430081"><ele>135.5</ele><time>2026-04-05T10:54:51Z</time></trkpt><trkpt lat="46.374522920425086" lon="19.270491055205376"><ele>135.0</ele><time>2026-04-05T10:54:52Z</time></trkpt><trkpt lat="46.37444791883669" lon="19.270372292869233"><ele>134.5</ele><time>2026-04-05T10:54:53Z</time></trkpt><trkpt lat="46.37437067285234" lon="19.27026549587447"><ele>134.0</ele><time>2026-04-05T10:54:54Z</time></trkpt><trkpt lat="46.374294190913375" lon="19.270145953281983"><ele>134.0</ele><time>2026-04-05T10:54:55Z</time></trkpt><trkpt lat="46.374208855991284" lon="19.27002405264487"><ele>134.0</ele><time>2026-04-05T10:54:56Z</time></trkpt><trkpt lat="46.374113786889446" lon="19.26989925830766"><ele>134.0</ele><time>2026-04-05T10:54:57Z</time></trkpt><trkpt lat="46.374023243897184" lon="19.269768578063037"><ele>134.0</ele><time>2026-04-05T10:54:58Z</time></trkpt><trkpt lat="46.37393317820888" lon="19.26964315005021"><ele>133.75</ele><time>2026-04-05T10:54:59Z</time></trkpt><trkpt lat="46.37384460806608" lon="19.269508435933076"><ele>133.5</ele><time>2026-04-05T10:55:00Z</time></trkpt><trkpt lat="46.37375560075771" lon="19.269371531106493"><ele>133.25</ele><time>2026-04-05T10:55:01Z</time></trkpt><trkpt lat="46.373660299218265" lon="19.26923489177481"><ele>133.0</ele><time>2026-04-05T10:55:02Z</time></trkpt><trkpt lat="46.37357643571368" lon="19.26911420708045"><ele>133.0</ele><time>2026-04-05T10:55:03Z</time></trkpt><trkpt lat="46.37349593054645" lon="19.269015582057897"><ele>133.0</ele><time>2026-04-05T10:55:04Z</time></trkpt><trkpt lat="46.37341409410647" lon="19.268927631294027"><ele>133.0</ele><time>2026-04-05T10:55:05Z</time></trkpt><trkpt lat="46.3733319184086" lon="19.26882768078135"><ele>133.0</ele><time>2026-04-05T10:55:06Z</time></trkpt><trkpt lat="46.373257887979136" lon="19.268715242525253"><ele>133.0</ele><time>2026-04-05T10:55:07Z</time></trkpt><trkpt lat="46.373200018611" lon="19.26859311658889"><ele>133.0</ele><time>2026-04-05T10:55:08Z</time></trkpt><trkpt lat="46.37312296111568" lon="19.2684774662494"><ele>133.0</ele><time>2026-04-05T10:55:09Z</time></trkpt><trkpt lat="46.37303735010831" lon="19.268362417404614"><ele>133.0</ele><time>2026-04-05T10:55:10Z</time></trkpt><trkpt lat="46.37295149134956" lon="19.2682442098202"><ele>133.0</ele><time>2026-04-05T10:55:11Z</time></trkpt><trkpt lat="46.372865819727714" lon="19.268125899902635"><ele>133.25</ele><time>2026-04-05T10:55:12Z</time></trkpt><trkpt lat="46.37277919499312" lon="19.268009493176695"><ele>133.5</ele><time>2026-04-05T10:55:13Z</time></trkpt><trkpt lat="46.372691402617804" lon="19.267884926727763"><ele>133.75</ele><time>2026-04-05T10:55:14Z</time></trkpt><trkpt lat="46.37262083928278" lon="19.267759998186484"><ele>134.0</ele><time>2026-04-05T10:55:15Z</time></trkpt><trkpt lat="46.372548101256804" lon="19.267648169893704"><ele>134.0</ele><time>2026-04-05T10:55:16Z</time></trkpt><trkpt lat="46.37246141224057" lon="19.267547998616436"><ele>134.0</ele><time>2026-04-05T10:55:17Z</time></trkpt><trkpt lat="46.37237843600051" lon="19.26742741082812"><ele>134.0</ele><time>2026-04-05T10:55:18Z</time></trkpt><trkpt lat="46.37229393519955" lon="19.2672967182742"><ele>134.0</ele><time>2026-04-05T10:55:19Z</time></trkpt><trkpt lat="46.3721981671003" lon="19.267157848748905"><ele>134.0</ele><time>2026-04-05T10:55:20Z</time></trkpt><trkpt lat="46.37211172598619" lon="19.267015298006648"><ele>134.0</ele><time>2026-04-05T10:55:21Z</time></trkpt><trkpt lat="46.37201667318109" lon="19.266867991634104"><ele>134.0</ele><time>2026-04-05T10:55:22Z</time></trkpt><trkpt lat="46.371924043717975" lon="19.26671746786343"><ele>134.0</ele><time>2026-04-05T10:55:23Z</time></trkpt><trkpt lat="46.371824147890244" lon="19.26658246132216"><ele>134.0</ele><time>2026-04-05T10:55:24Z</time></trkpt><trkpt lat="46.37173066966326" lon="19.266445839267497"><ele>134.0</ele><time>2026-04-05T10:55:25Z</time></trkpt><trkpt lat="46.371634958831244" lon="19.266300576362774"><ele>134.0</ele><time>2026-04-05T10:55:26Z</time></trkpt><trkpt lat="46.371539850504654" lon="19.266165379605656"><ele>134.0</ele><time>2026-04-05T10:55:27Z</time></trkpt><trkpt lat="46.37143887660284" lon="19.266042027288854"><ele>134.6</ele><time>2026-04-05T10:55:28Z</time></trkpt><trkpt lat="46.37134978031237" lon="19.26592949040956"><ele>135.2</ele><time>2026-04-05T10:55:29Z</time></trkpt><trkpt lat="46.371273537277325" lon="19.265825678056434"><ele>135.79999999999998</ele><time>2026-04-05T10:55:30Z</time></trkpt><trkpt lat="46.371219345422055" lon="19.265746776668106"><ele>136.4</ele><time>2026-04-05T10:55:31Z</time></trkpt><trkpt lat="46.37114328757714" lon="19.265628646739568"><ele>137.0</ele><time>2026-04-05T10:55:33Z</time></trkpt><trkpt lat="46.37112038065754" lon="19.265470266035745"><ele>137.16666666666666</ele><time>2026-04-05T10:55:34.999Z</time></trkpt><trkpt lat="46.37111542156176" lon="19.265363683797712"><ele>137.33333333333331</ele><time>2026-04-05T10:55:35.999Z</time></trkpt><trkpt lat="46.37108963963433" lon="19.265243201138556"><ele>137.5</ele><time>2026-04-05T10:55:36.999Z</time></trkpt><trkpt lat="46.37103332315724" lon="19.26514200900202"><ele>137.66666666666666</ele><time>2026-04-05T10:55:37.999Z</time></trkpt><trkpt lat="46.37096652306867" lon="19.265050259069653"><ele>137.83333333333334</ele><time>2026-04-05T10:55:38.999Z</time></trkpt><trkpt lat="46.37090999508288" lon="19.264931869069752"><ele>138.0</ele><time>2026-04-05T10:55:39.999Z</time></trkpt><trkpt lat="46.37082532685631" lon="19.264877994510677"><ele>138.0</ele><time>2026-04-05T10:55:40.999Z</time></trkpt><trkpt lat="46.37077288395367" lon="19.264795058997514"><ele>138.0</ele><time>2026-04-05T10:55:41.999Z</time></trkpt><trkpt lat="46.37072313471759" lon="19.26470747900615"><ele>138.0</ele><time>2026-04-05T10:55:42.999Z</time></trkpt><trkpt lat="46.370668838881976" lon="19.264623103955778"><ele>138.0</ele><time>2026-04-05T10:55:43.999Z</time></trkpt><trkpt lat="46.370603561974185" lon="19.264515765097585"><ele>138.0</ele><time>2026-04-05T10:55:44.999Z</time></trkpt><trkpt lat="46.37055654046001" lon="19.264393052476326"><ele>138.0</ele><time>2026-04-05T10:55:45.999Z</time></trkpt><trkpt lat="46.37050618778715" lon="19.264285032035634"><ele>138.0</ele><time>2026-04-05T10:55:46.999Z</time></trkpt><trkpt lat="46.370441137011056" lon="19.264163723021827"><ele>138.0</ele><time>2026-04-05T10:55:47.999Z</time></trkpt><trkpt lat="46.37036898085481" lon="19.26406818904063"><ele>138.0</ele><time>2026-04-05T10:55:48.999Z</time></trkpt><trkpt lat="46.3702824840316" lon="19.26399508239728"><ele>138.0</ele><time>2026-04-05T10:55:49.999Z</time></trkpt><trkpt lat="46.370200149334345" lon="19.263888304844894"><ele>138.0</ele><time>2026-04-05T10:55:50.999Z</time></trkpt><trkpt lat="46.370138296035655" lon="19.263769702299577"><ele>138.0</ele><time>2026-04-05T10:55:51.999Z</time></trkpt><trkpt lat="46.37008407945585" lon="19.2636281783419"><ele>138.0</ele><time>2026-04-05T10:55:52.999Z</time></trkpt><trkpt lat="46.37003893895671" lon="19.263506935539198"><ele>138.0</ele><time>2026-04-05T10:55:53.999Z</time></trkpt><trkpt lat="46.36997211643769" lon="19.263444794489548"><ele>138.0</ele><time>2026-04-05T10:55:54.999Z</time></trkpt><trkpt lat="46.36989942548913" lon="19.26341708084777"><ele>138.0</ele><time>2026-04-05T10:55:55.999Z</time></trkpt><trkpt lat="46.369810255794874" lon="19.263381189356632"><ele>138.0</ele><time>2026-04-05T10:55:56.999Z</time></trkpt><trkpt lat="46.3697215830681" lon="19.263330849007552"><ele>138.0</ele><time>2026-04-05T10:55:57.999Z</time></trkpt><trkpt lat="46.36963477815064" lon="19.263287685614266"><ele>138.0</ele><time>2026-04-05T10:55:58.999Z</time></trkpt><trkpt lat="46.36956968444903" lon="19.263253965950415"><ele>138.0</ele><time>2026-04-05T10:55:59.999Z</time></trkpt><trkpt lat="46.36950669855476" lon="19.26321375132486"><ele>138.0</ele><time>2026-04-05T10:56:00.999Z</time></trkpt><trkpt lat="46.36944450454347" lon="19.263170520093546"><ele>138.0</ele><time>2026-04-05T10:56:01.999Z</time></trkpt><trkpt lat="46.369383544804855" lon="19.26312691927077"><ele>138.5</ele><time>2026-04-05T10:56:02.999Z</time></trkpt><trkpt lat="46.36931122101862" lon="19.26306053806136"><ele>139.0</ele><time>2026-04-05T10:56:04.999Z</time></trkpt><trkpt lat="46.36920745476717" lon="19.263036029712943"><ele>139.5</ele><time>2026-04-05T10:56:08.999Z</time></trkpt><trkpt lat="46.369138783709126" lon="19.26302922853764"><ele>140.0</ele><time>2026-04-05T10:56:09.999Z</time></trkpt><trkpt lat="46.36906993098381" lon="19.263026560225796"><ele>140.5</ele><time>2026-04-05T10:56:10.999Z</time></trkpt><trkpt lat="46.369002476315956" lon="19.263035113942966"><ele>141.0</ele><time>2026-04-05T10:56:11.999Z</time></trkpt><trkpt lat="46.36892229568253" lon="19.263045039751514"><ele>141.2</ele><time>2026-04-05T10:56:12.999Z</time></trkpt><trkpt lat="46.368838914470345" lon="19.263066683389813"><ele>141.39999999999998</ele><time>2026-04-05T10:56:13.999Z</time></trkpt><trkpt lat="46.36874507724127" lon="19.263088581418877"><ele>141.6</ele><time>2026-04-05T10:56:14.999Z</time></trkpt><trkpt lat="46.36867464916525" lon="19.263118457237134"><ele>141.79999999999998</ele><time>2026-04-05T10:56:15.999Z</time></trkpt><trkpt lat="46.36859097521096" lon="19.263155710145274"><ele>142.0</ele><time>2026-04-05T10:56:17.999Z</time></trkpt><trkpt lat="46.36847269251686" lon="19.263180620482913"><ele>141.83333333333334</ele><time>2026-04-05T10:56:19.999Z</time></trkpt><trkpt lat="46.368407899816276" lon="19.263199234339133"><ele>141.66666666666669</ele><time>2026-04-05T10:56:20.999Z</time></trkpt><trkpt lat="46.368338585089184" lon="19.263210233832506"><ele>141.5</ele><time>2026-04-05T10:56:21.999Z</time></trkpt><trkpt lat="46.3682725553992" lon="19.26322664900281"><ele>141.33333333333334</ele><time>2026-04-05T10:56:22.999Z</time></trkpt><trkpt lat="46.36817686220216" lon="19.263230790831322"><ele>141.16666666666666</ele><time>2026-04-05T10:56:24.999Z</time></trkpt><trkpt lat="46.36805900237626" lon="19.263263702186915"><ele>141.0</ele><time>2026-04-05T10:56:26.998Z</time></trkpt><trkpt lat="46.36799210663459" lon="19.26325747099411"><ele>141.0</ele><time>2026-04-05T10:56:27.998Z</time></trkpt><trkpt lat="46.36789008647303" lon="19.263233950390248"><ele>141.0</ele><time>2026-04-05T10:56:29.998Z</time></trkpt><trkpt lat="46.36785264923072" lon="19.26331057242856"><ele>141.0</ele><time>2026-04-05T10:56:33.998Z</time></trkpt><trkpt lat="46.36785728249823" lon="19.26341872692789"><ele>141.0</ele><time>2026-04-05T10:56:37.998Z</time></trkpt><trkpt lat="46.367866594160944" lon="19.26352639959746"><ele>141.0</ele><time>2026-04-05T10:56:40.998Z</time></trkpt><trkpt lat="46.367902940476846" lon="19.26344549389851"><ele>141.0</ele><time>2026-04-05T10:57:44.999Z</time></trkpt></trkseg></trk></gpx>